<?xml version="1.0" encoding="UTF-8" standalone="no" ?>
<gpx xmlns="http://www.topografix.com/GPX/1/1" xmlns:xsi="http://www.w3.org/2001/XMLSchema-instance" xsi:schemaLocation="http://www.topografix.com/GPX/1/1 http://www.topografix.com/GPX/1/1/gpx.xsd" version="1.1" creator="VisuGPX - https://www.visugpx.com">
  <metadata>
    <name>18-OCT-20 16:13:51</name>
    <desc><![CDATA[jolie randonnée en forêt avec quelques chemins étroits et ruisseaux à traverser]]></desc>
  </metadata>
  <trk>
    <name><![CDATA[18-OCT-20 16:13:51]]></name>
    <trkseg>
      <trkpt lat="44.72343" lon="-0.62138">
        <ele>-18.61</ele>
        <time>2020-10-18T09:09:53Z</time>
      </trkpt>
      <trkpt lat="44.72343" lon="-0.62138">
        <ele>-18.61</ele>
        <time>2020-10-18T09:09:54Z</time>
      </trkpt>
      <trkpt lat="44.72343" lon="-0.62138">
        <ele>-18.61</ele>
        <time>2020-10-18T09:09:55Z</time>
      </trkpt>
      <trkpt lat="44.72343" lon="-0.62138">
        <ele>-18.13</ele>
        <time>2020-10-18T09:10:17Z</time>
      </trkpt>
      <trkpt lat="44.72343" lon="-0.62137">
        <ele>-17.17</ele>
        <time>2020-10-18T09:10:34Z</time>
      </trkpt>
      <trkpt lat="44.72345" lon="-0.62134">
        <ele>-17.17</ele>
        <time>2020-10-18T09:10:46Z</time>
      </trkpt>
      <trkpt lat="44.72345" lon="-0.62134">
        <ele>-15.24</ele>
        <time>2020-10-18T09:11:14Z</time>
      </trkpt>
      <trkpt lat="44.72346" lon="-0.62134">
        <ele>-14.28</ele>
        <time>2020-10-18T09:11:39Z</time>
      </trkpt>
      <trkpt lat="44.72346" lon="-0.62135">
        <ele>-13.8</ele>
        <time>2020-10-18T09:11:57Z</time>
      </trkpt>
      <trkpt lat="44.72345" lon="-0.62135">
        <ele>-12.84</ele>
        <time>2020-10-18T09:12:14Z</time>
      </trkpt>
      <trkpt lat="44.72345" lon="-0.62135">
        <ele>-11.88</ele>
        <time>2020-10-18T09:12:35Z</time>
      </trkpt>
      <trkpt lat="44.72346" lon="-0.62135">
        <ele>-11.4</ele>
        <time>2020-10-18T09:12:52Z</time>
      </trkpt>
      <trkpt lat="44.72346" lon="-0.62136">
        <ele>-10.44</ele>
        <time>2020-10-18T09:13:04Z</time>
      </trkpt>
      <trkpt lat="44.72345" lon="-0.62138">
        <ele>-9.96</ele>
        <time>2020-10-18T09:13:19Z</time>
      </trkpt>
      <trkpt lat="44.72345" lon="-0.62138">
        <ele>-9.96</ele>
        <time>2020-10-18T09:13:42Z</time>
      </trkpt>
      <trkpt lat="44.72345" lon="-0.62138">
        <ele>-9</ele>
        <time>2020-10-18T09:13:50Z</time>
      </trkpt>
      <trkpt lat="44.72355" lon="-0.62124">
        <ele>-8.03</ele>
        <time>2020-10-18T09:13:58Z</time>
      </trkpt>
      <trkpt lat="44.72402" lon="-0.62118">
        <ele>-6.59</ele>
        <time>2020-10-18T09:14:12Z</time>
      </trkpt>
      <trkpt lat="44.72463" lon="-0.62109">
        <ele>-6.11</ele>
        <time>2020-10-18T09:14:26Z</time>
      </trkpt>
      <trkpt lat="44.72468" lon="-0.6211">
        <ele>-6.11</ele>
        <time>2020-10-18T09:14:27Z</time>
      </trkpt>
      <trkpt lat="44.72472" lon="-0.62113">
        <ele>-6.59</ele>
        <time>2020-10-18T09:14:28Z</time>
      </trkpt>
      <trkpt lat="44.72475" lon="-0.62118">
        <ele>-6.59</ele>
        <time>2020-10-18T09:14:29Z</time>
      </trkpt>
      <trkpt lat="44.72477" lon="-0.62123">
        <ele>-6.59</ele>
        <time>2020-10-18T09:14:30Z</time>
      </trkpt>
      <trkpt lat="44.72479" lon="-0.62127">
        <ele>-7.07</ele>
        <time>2020-10-18T09:14:31Z</time>
      </trkpt>
      <trkpt lat="44.72479" lon="-0.62133">
        <ele>-6.11</ele>
        <time>2020-10-18T09:14:32Z</time>
      </trkpt>
      <trkpt lat="44.72479" lon="-0.62138">
        <ele>-6.59</ele>
        <time>2020-10-18T09:14:33Z</time>
      </trkpt>
      <trkpt lat="44.7248" lon="-0.62144">
        <ele>-6.11</ele>
        <time>2020-10-18T09:14:34Z</time>
      </trkpt>
      <trkpt lat="44.7248" lon="-0.62149">
        <ele>-6.11</ele>
        <time>2020-10-18T09:14:35Z</time>
      </trkpt>
      <trkpt lat="44.72481" lon="-0.62154">
        <ele>-5.63</ele>
        <time>2020-10-18T09:14:36Z</time>
      </trkpt>
      <trkpt lat="44.72482" lon="-0.62159">
        <ele>-6.11</ele>
        <time>2020-10-18T09:14:37Z</time>
      </trkpt>
      <trkpt lat="44.72482" lon="-0.62164">
        <ele>-5.63</ele>
        <time>2020-10-18T09:14:38Z</time>
      </trkpt>
      <trkpt lat="44.72483" lon="-0.62169">
        <ele>-5.63</ele>
        <time>2020-10-18T09:14:39Z</time>
      </trkpt>
      <trkpt lat="44.72485" lon="-0.62213">
        <ele>-4.19</ele>
        <time>2020-10-18T09:14:49Z</time>
      </trkpt>
      <trkpt lat="44.72488" lon="-0.62264">
        <ele>-2.75</ele>
        <time>2020-10-18T09:15:02Z</time>
      </trkpt>
      <trkpt lat="44.72493" lon="-0.62307">
        <ele>-0.82</ele>
        <time>2020-10-18T09:15:13Z</time>
      </trkpt>
      <trkpt lat="44.72496" lon="-0.6236">
        <ele>0.14</ele>
        <time>2020-10-18T09:15:26Z</time>
      </trkpt>
      <trkpt lat="44.72495" lon="-0.62434">
        <ele>0.14</ele>
        <time>2020-10-18T09:15:40Z</time>
      </trkpt>
      <trkpt lat="44.72498" lon="-0.62532">
        <ele>-0.34</ele>
        <time>2020-10-18T09:15:58Z</time>
      </trkpt>
      <trkpt lat="44.72503" lon="-0.62618">
        <ele>-0.82</ele>
        <time>2020-10-18T09:16:15Z</time>
      </trkpt>
      <trkpt lat="44.72503" lon="-0.62689">
        <ele>0.14</ele>
        <time>2020-10-18T09:16:29Z</time>
      </trkpt>
      <trkpt lat="44.72508" lon="-0.62756">
        <ele>1.1</ele>
        <time>2020-10-18T09:16:43Z</time>
      </trkpt>
      <trkpt lat="44.72511" lon="-0.62827">
        <ele>2.06</ele>
        <time>2020-10-18T09:16:58Z</time>
      </trkpt>
      <trkpt lat="44.72517" lon="-0.62906">
        <ele>2.06</ele>
        <time>2020-10-18T09:17:14Z</time>
      </trkpt>
      <trkpt lat="44.7252" lon="-0.62978">
        <ele>2.54</ele>
        <time>2020-10-18T09:17:28Z</time>
      </trkpt>
      <trkpt lat="44.72526" lon="-0.63052">
        <ele>3.5</ele>
        <time>2020-10-18T09:17:42Z</time>
      </trkpt>
      <trkpt lat="44.72528" lon="-0.63137">
        <ele>3.98</ele>
        <time>2020-10-18T09:17:57Z</time>
      </trkpt>
      <trkpt lat="44.72529" lon="-0.63211">
        <ele>4.46</ele>
        <time>2020-10-18T09:18:11Z</time>
      </trkpt>
      <trkpt lat="44.72531" lon="-0.63287">
        <ele>4.94</ele>
        <time>2020-10-18T09:18:25Z</time>
      </trkpt>
      <trkpt lat="44.72535" lon="-0.63371">
        <ele>4.94</ele>
        <time>2020-10-18T09:18:40Z</time>
      </trkpt>
      <trkpt lat="44.72538" lon="-0.63449">
        <ele>5.42</ele>
        <time>2020-10-18T09:18:55Z</time>
      </trkpt>
      <trkpt lat="44.72544" lon="-0.63526">
        <ele>5.91</ele>
        <time>2020-10-18T09:19:09Z</time>
      </trkpt>
      <trkpt lat="44.72549" lon="-0.63597">
        <ele>5.91</ele>
        <time>2020-10-18T09:19:22Z</time>
      </trkpt>
      <trkpt lat="44.72551" lon="-0.63629">
        <ele>6.39</ele>
        <time>2020-10-18T09:19:28Z</time>
      </trkpt>
      <trkpt lat="44.72554" lon="-0.63711">
        <ele>7.35</ele>
        <time>2020-10-18T09:19:43Z</time>
      </trkpt>
      <trkpt lat="44.7256" lon="-0.63779">
        <ele>7.35</ele>
        <time>2020-10-18T09:19:56Z</time>
      </trkpt>
      <trkpt lat="44.72564" lon="-0.63846">
        <ele>7.83</ele>
        <time>2020-10-18T09:20:08Z</time>
      </trkpt>
      <trkpt lat="44.72566" lon="-0.63922">
        <ele>7.35</ele>
        <time>2020-10-18T09:20:22Z</time>
      </trkpt>
      <trkpt lat="44.72567" lon="-0.63986">
        <ele>8.31</ele>
        <time>2020-10-18T09:20:35Z</time>
      </trkpt>
      <trkpt lat="44.72546" lon="-0.64018">
        <ele>7.35</ele>
        <time>2020-10-18T09:20:45Z</time>
      </trkpt>
      <trkpt lat="44.72535" lon="-0.64023">
        <ele>7.83</ele>
        <time>2020-10-18T09:20:59Z</time>
      </trkpt>
      <trkpt lat="44.7253" lon="-0.64024">
        <ele>8.31</ele>
        <time>2020-10-18T09:21:13Z</time>
      </trkpt>
      <trkpt lat="44.72528" lon="-0.64025">
        <ele>7.83</ele>
        <time>2020-10-18T09:21:14Z</time>
      </trkpt>
      <trkpt lat="44.72526" lon="-0.64026">
        <ele>8.31</ele>
        <time>2020-10-18T09:21:15Z</time>
      </trkpt>
      <trkpt lat="44.72524" lon="-0.64026">
        <ele>8.31</ele>
        <time>2020-10-18T09:21:16Z</time>
      </trkpt>
      <trkpt lat="44.72522" lon="-0.64027">
        <ele>8.31</ele>
        <time>2020-10-18T09:21:17Z</time>
      </trkpt>
      <trkpt lat="44.72465" lon="-0.64049">
        <ele>8.79</ele>
        <time>2020-10-18T09:21:33Z</time>
      </trkpt>
      <trkpt lat="44.72408" lon="-0.64071">
        <ele>9.27</ele>
        <time>2020-10-18T09:21:48Z</time>
      </trkpt>
      <trkpt lat="44.72357" lon="-0.64086">
        <ele>10.71</ele>
        <time>2020-10-18T09:22:02Z</time>
      </trkpt>
      <trkpt lat="44.72302" lon="-0.64103">
        <ele>12.63</ele>
        <time>2020-10-18T09:22:16Z</time>
      </trkpt>
      <trkpt lat="44.72246" lon="-0.64119">
        <ele>13.12</ele>
        <time>2020-10-18T09:22:31Z</time>
      </trkpt>
      <trkpt lat="44.7219" lon="-0.64137">
        <ele>13.6</ele>
        <time>2020-10-18T09:22:46Z</time>
      </trkpt>
      <trkpt lat="44.72131" lon="-0.64155">
        <ele>14.56</ele>
        <time>2020-10-18T09:23:02Z</time>
      </trkpt>
      <trkpt lat="44.72067" lon="-0.6416">
        <ele>14.56</ele>
        <time>2020-10-18T09:23:18Z</time>
      </trkpt>
      <trkpt lat="44.72007" lon="-0.64163">
        <ele>15.04</ele>
        <time>2020-10-18T09:23:33Z</time>
      </trkpt>
      <trkpt lat="44.71946" lon="-0.6416">
        <ele>16.48</ele>
        <time>2020-10-18T09:23:48Z</time>
      </trkpt>
      <trkpt lat="44.71885" lon="-0.64168">
        <ele>15.04</ele>
        <time>2020-10-18T09:24:05Z</time>
      </trkpt>
      <trkpt lat="44.71884" lon="-0.64169">
        <ele>15.52</ele>
        <time>2020-10-18T09:24:15Z</time>
      </trkpt>
      <trkpt lat="44.71884" lon="-0.64168">
        <ele>15.52</ele>
        <time>2020-10-18T09:24:33Z</time>
      </trkpt>
      <trkpt lat="44.71884" lon="-0.64168">
        <ele>16</ele>
        <time>2020-10-18T09:24:53Z</time>
      </trkpt>
      <trkpt lat="44.71883" lon="-0.64167">
        <ele>16.48</ele>
        <time>2020-10-18T09:25:08Z</time>
      </trkpt>
      <trkpt lat="44.71883" lon="-0.64167">
        <ele>17.44</ele>
        <time>2020-10-18T09:25:30Z</time>
      </trkpt>
      <trkpt lat="44.71872" lon="-0.64165">
        <ele>17.44</ele>
        <time>2020-10-18T09:25:43Z</time>
      </trkpt>
      <trkpt lat="44.71825" lon="-0.64171">
        <ele>17.44</ele>
        <time>2020-10-18T09:25:57Z</time>
      </trkpt>
      <trkpt lat="44.71771" lon="-0.64178">
        <ele>16.96</ele>
        <time>2020-10-18T09:26:11Z</time>
      </trkpt>
      <trkpt lat="44.717" lon="-0.6418">
        <ele>16.96</ele>
        <time>2020-10-18T09:26:28Z</time>
      </trkpt>
      <trkpt lat="44.71652" lon="-0.64171">
        <ele>16.48</ele>
        <time>2020-10-18T09:26:42Z</time>
      </trkpt>
      <trkpt lat="44.71598" lon="-0.64166">
        <ele>20.32</ele>
        <time>2020-10-18T09:26:58Z</time>
      </trkpt>
      <trkpt lat="44.71549" lon="-0.64167">
        <ele>19.36</ele>
        <time>2020-10-18T09:27:13Z</time>
      </trkpt>
      <trkpt lat="44.71499" lon="-0.64161">
        <ele>19.36</ele>
        <time>2020-10-18T09:27:27Z</time>
      </trkpt>
      <trkpt lat="44.71435" lon="-0.64153">
        <ele>18.4</ele>
        <time>2020-10-18T09:27:41Z</time>
      </trkpt>
      <trkpt lat="44.71368" lon="-0.64147">
        <ele>18.4</ele>
        <time>2020-10-18T09:27:56Z</time>
      </trkpt>
      <trkpt lat="44.7136" lon="-0.64146">
        <ele>17.92</ele>
        <time>2020-10-18T09:27:58Z</time>
      </trkpt>
      <trkpt lat="44.71318" lon="-0.64145">
        <ele>17.92</ele>
        <time>2020-10-18T09:28:08Z</time>
      </trkpt>
      <trkpt lat="44.71314" lon="-0.64145">
        <ele>18.4</ele>
        <time>2020-10-18T09:28:09Z</time>
      </trkpt>
      <trkpt lat="44.71309" lon="-0.64144">
        <ele>18.4</ele>
        <time>2020-10-18T09:28:10Z</time>
      </trkpt>
      <trkpt lat="44.71306" lon="-0.64144">
        <ele>18.4</ele>
        <time>2020-10-18T09:28:11Z</time>
      </trkpt>
      <trkpt lat="44.71301" lon="-0.64144">
        <ele>17.92</ele>
        <time>2020-10-18T09:28:12Z</time>
      </trkpt>
      <trkpt lat="44.71288" lon="-0.64143">
        <ele>17.92</ele>
        <time>2020-10-18T09:28:15Z</time>
      </trkpt>
      <trkpt lat="44.71284" lon="-0.64143">
        <ele>17.44</ele>
        <time>2020-10-18T09:28:16Z</time>
      </trkpt>
      <trkpt lat="44.71275" lon="-0.64143">
        <ele>17.92</ele>
        <time>2020-10-18T09:28:18Z</time>
      </trkpt>
      <trkpt lat="44.71271" lon="-0.64143">
        <ele>18.4</ele>
        <time>2020-10-18T09:28:19Z</time>
      </trkpt>
      <trkpt lat="44.71262" lon="-0.64142">
        <ele>17.44</ele>
        <time>2020-10-18T09:28:21Z</time>
      </trkpt>
      <trkpt lat="44.71253" lon="-0.64142">
        <ele>17.92</ele>
        <time>2020-10-18T09:28:23Z</time>
      </trkpt>
      <trkpt lat="44.71188" lon="-0.64138">
        <ele>17.44</ele>
        <time>2020-10-18T09:28:40Z</time>
      </trkpt>
      <trkpt lat="44.71182" lon="-0.64104">
        <ele>16.96</ele>
        <time>2020-10-18T09:28:52Z</time>
      </trkpt>
      <trkpt lat="44.71223" lon="-0.64028">
        <ele>17.92</ele>
        <time>2020-10-18T09:29:05Z</time>
      </trkpt>
      <trkpt lat="44.71251" lon="-0.63962">
        <ele>18.4</ele>
        <time>2020-10-18T09:29:19Z</time>
      </trkpt>
      <trkpt lat="44.71284" lon="-0.63894">
        <ele>18.4</ele>
        <time>2020-10-18T09:29:32Z</time>
      </trkpt>
      <trkpt lat="44.71314" lon="-0.63818">
        <ele>18.4</ele>
        <time>2020-10-18T09:29:46Z</time>
      </trkpt>
      <trkpt lat="44.71339" lon="-0.63755">
        <ele>18.88</ele>
        <time>2020-10-18T09:29:58Z</time>
      </trkpt>
      <trkpt lat="44.71357" lon="-0.63677">
        <ele>18.4</ele>
        <time>2020-10-18T09:30:13Z</time>
      </trkpt>
      <trkpt lat="44.71359" lon="-0.63668">
        <ele>18.4</ele>
        <time>2020-10-18T09:30:15Z</time>
      </trkpt>
      <trkpt lat="44.71358" lon="-0.63664">
        <ele>18.88</ele>
        <time>2020-10-18T09:30:16Z</time>
      </trkpt>
      <trkpt lat="44.71363" lon="-0.6364">
        <ele>17.92</ele>
        <time>2020-10-18T09:30:21Z</time>
      </trkpt>
      <trkpt lat="44.71365" lon="-0.63635">
        <ele>18.88</ele>
        <time>2020-10-18T09:30:22Z</time>
      </trkpt>
      <trkpt lat="44.71386" lon="-0.63581">
        <ele>17.92</ele>
        <time>2020-10-18T09:30:35Z</time>
      </trkpt>
      <trkpt lat="44.71373" lon="-0.63549">
        <ele>17.92</ele>
        <time>2020-10-18T09:30:46Z</time>
      </trkpt>
      <trkpt lat="44.71342" lon="-0.63498">
        <ele>18.4</ele>
        <time>2020-10-18T09:31:00Z</time>
      </trkpt>
      <trkpt lat="44.71314" lon="-0.63453">
        <ele>17.92</ele>
        <time>2020-10-18T09:31:14Z</time>
      </trkpt>
      <trkpt lat="44.7129" lon="-0.63419">
        <ele>17.44</ele>
        <time>2020-10-18T09:31:26Z</time>
      </trkpt>
      <trkpt lat="44.71254" lon="-0.63353">
        <ele>17.44</ele>
        <time>2020-10-18T09:31:42Z</time>
      </trkpt>
      <trkpt lat="44.71236" lon="-0.63305">
        <ele>16.96</ele>
        <time>2020-10-18T09:31:54Z</time>
      </trkpt>
      <trkpt lat="44.71211" lon="-0.63261">
        <ele>16.96</ele>
        <time>2020-10-18T09:32:06Z</time>
      </trkpt>
      <trkpt lat="44.71201" lon="-0.63245">
        <ele>16.96</ele>
        <time>2020-10-18T09:32:18Z</time>
      </trkpt>
      <trkpt lat="44.71201" lon="-0.63245">
        <ele>17.44</ele>
        <time>2020-10-18T09:32:24Z</time>
      </trkpt>
      <trkpt lat="44.71198" lon="-0.63234">
        <ele>16.96</ele>
        <time>2020-10-18T09:32:29Z</time>
      </trkpt>
      <trkpt lat="44.71195" lon="-0.63208">
        <ele>16</ele>
        <time>2020-10-18T09:32:40Z</time>
      </trkpt>
      <trkpt lat="44.71199" lon="-0.63202">
        <ele>16.96</ele>
        <time>2020-10-18T09:32:53Z</time>
      </trkpt>
      <trkpt lat="44.71203" lon="-0.63196">
        <ele>16.48</ele>
        <time>2020-10-18T09:33:00Z</time>
      </trkpt>
      <trkpt lat="44.71206" lon="-0.6319">
        <ele>16.96</ele>
        <time>2020-10-18T09:33:13Z</time>
      </trkpt>
      <trkpt lat="44.71206" lon="-0.6319">
        <ele>17.44</ele>
        <time>2020-10-18T09:33:28Z</time>
      </trkpt>
      <trkpt lat="44.71206" lon="-0.6319">
        <ele>17.44</ele>
        <time>2020-10-18T09:33:45Z</time>
      </trkpt>
      <trkpt lat="44.71206" lon="-0.6319">
        <ele>16.96</ele>
        <time>2020-10-18T09:34:06Z</time>
      </trkpt>
      <trkpt lat="44.71206" lon="-0.6319">
        <ele>17.92</ele>
        <time>2020-10-18T09:34:47Z</time>
      </trkpt>
      <trkpt lat="44.71206" lon="-0.6319">
        <ele>18.4</ele>
        <time>2020-10-18T09:35:30Z</time>
      </trkpt>
      <trkpt lat="44.71206" lon="-0.6319">
        <ele>18.88</ele>
        <time>2020-10-18T09:36:15Z</time>
      </trkpt>
      <trkpt lat="44.71206" lon="-0.63191">
        <ele>19.84</ele>
        <time>2020-10-18T09:36:56Z</time>
      </trkpt>
      <trkpt lat="44.71206" lon="-0.6319">
        <ele>20.32</ele>
        <time>2020-10-18T09:37:34Z</time>
      </trkpt>
      <trkpt lat="44.71206" lon="-0.6319">
        <ele>21.77</ele>
        <time>2020-10-18T09:38:08Z</time>
      </trkpt>
      <trkpt lat="44.71206" lon="-0.6319">
        <ele>21.77</ele>
        <time>2020-10-18T09:38:30Z</time>
      </trkpt>
      <trkpt lat="44.71206" lon="-0.6319">
        <ele>22.25</ele>
        <time>2020-10-18T09:38:52Z</time>
      </trkpt>
      <trkpt lat="44.71206" lon="-0.63191">
        <ele>22.73</ele>
        <time>2020-10-18T09:39:14Z</time>
      </trkpt>
      <trkpt lat="44.71206" lon="-0.63191">
        <ele>23.21</ele>
        <time>2020-10-18T09:39:38Z</time>
      </trkpt>
      <trkpt lat="44.71207" lon="-0.63192">
        <ele>23.69</ele>
        <time>2020-10-18T09:40:11Z</time>
      </trkpt>
      <trkpt lat="44.71207" lon="-0.63191">
        <ele>23.69</ele>
        <time>2020-10-18T09:40:35Z</time>
      </trkpt>
      <trkpt lat="44.71207" lon="-0.63191">
        <ele>24.65</ele>
        <time>2020-10-18T09:40:58Z</time>
      </trkpt>
      <trkpt lat="44.71207" lon="-0.63191">
        <ele>25.13</ele>
        <time>2020-10-18T09:41:25Z</time>
      </trkpt>
      <trkpt lat="44.71207" lon="-0.63191">
        <ele>25.61</ele>
        <time>2020-10-18T09:42:02Z</time>
      </trkpt>
      <trkpt lat="44.71207" lon="-0.63191">
        <ele>26.09</ele>
        <time>2020-10-18T09:42:27Z</time>
      </trkpt>
      <trkpt lat="44.71207" lon="-0.63192">
        <ele>25.61</ele>
        <time>2020-10-18T09:42:53Z</time>
      </trkpt>
      <trkpt lat="44.71207" lon="-0.63192">
        <ele>26.57</ele>
        <time>2020-10-18T09:43:17Z</time>
      </trkpt>
      <trkpt lat="44.71204" lon="-0.63197">
        <ele>26.57</ele>
        <time>2020-10-18T09:43:32Z</time>
      </trkpt>
      <trkpt lat="44.71198" lon="-0.63201">
        <ele>26.09</ele>
        <time>2020-10-18T09:43:49Z</time>
      </trkpt>
      <trkpt lat="44.71198" lon="-0.63199">
        <ele>27.05</ele>
        <time>2020-10-18T09:44:07Z</time>
      </trkpt>
      <trkpt lat="44.71196" lon="-0.63148">
        <ele>27.53</ele>
        <time>2020-10-18T09:44:22Z</time>
      </trkpt>
      <trkpt lat="44.71195" lon="-0.63088">
        <ele>28.02</ele>
        <time>2020-10-18T09:44:36Z</time>
      </trkpt>
      <trkpt lat="44.71189" lon="-0.63035">
        <ele>27.53</ele>
        <time>2020-10-18T09:44:49Z</time>
      </trkpt>
      <trkpt lat="44.71197" lon="-0.62974">
        <ele>28.02</ele>
        <time>2020-10-18T09:45:03Z</time>
      </trkpt>
      <trkpt lat="44.71223" lon="-0.62928">
        <ele>26.57</ele>
        <time>2020-10-18T09:45:18Z</time>
      </trkpt>
      <trkpt lat="44.71238" lon="-0.62881">
        <ele>25.61</ele>
        <time>2020-10-18T09:45:31Z</time>
      </trkpt>
      <trkpt lat="44.71235" lon="-0.62841">
        <ele>26.09</ele>
        <time>2020-10-18T09:45:43Z</time>
      </trkpt>
      <trkpt lat="44.71192" lon="-0.62836">
        <ele>24.17</ele>
        <time>2020-10-18T09:45:57Z</time>
      </trkpt>
      <trkpt lat="44.71153" lon="-0.6285">
        <ele>22.73</ele>
        <time>2020-10-18T09:46:10Z</time>
      </trkpt>
      <trkpt lat="44.71118" lon="-0.62852">
        <ele>20.81</ele>
        <time>2020-10-18T09:46:22Z</time>
      </trkpt>
      <trkpt lat="44.71094" lon="-0.62844">
        <ele>20.32</ele>
        <time>2020-10-18T09:46:36Z</time>
      </trkpt>
      <trkpt lat="44.71088" lon="-0.62843">
        <ele>19.84</ele>
        <time>2020-10-18T09:46:56Z</time>
      </trkpt>
      <trkpt lat="44.71087" lon="-0.62841">
        <ele>19.84</ele>
        <time>2020-10-18T09:47:00Z</time>
      </trkpt>
      <trkpt lat="44.71082" lon="-0.62833">
        <ele>22.25</ele>
        <time>2020-10-18T09:47:04Z</time>
      </trkpt>
      <trkpt lat="44.71058" lon="-0.6284">
        <ele>23.69</ele>
        <time>2020-10-18T09:47:14Z</time>
      </trkpt>
      <trkpt lat="44.71039" lon="-0.62846">
        <ele>25.13</ele>
        <time>2020-10-18T09:47:23Z</time>
      </trkpt>
      <trkpt lat="44.71013" lon="-0.62874">
        <ele>27.05</ele>
        <time>2020-10-18T09:47:40Z</time>
      </trkpt>
      <trkpt lat="44.70995" lon="-0.62901">
        <ele>27.05</ele>
        <time>2020-10-18T09:47:54Z</time>
      </trkpt>
      <trkpt lat="44.70982" lon="-0.62912">
        <ele>27.53</ele>
        <time>2020-10-18T09:48:02Z</time>
      </trkpt>
      <trkpt lat="44.70944" lon="-0.62923">
        <ele>28.5</ele>
        <time>2020-10-18T09:48:16Z</time>
      </trkpt>
      <trkpt lat="44.70913" lon="-0.62929">
        <ele>28.98</ele>
        <time>2020-10-18T09:48:30Z</time>
      </trkpt>
      <trkpt lat="44.70877" lon="-0.62934">
        <ele>28.5</ele>
        <time>2020-10-18T09:48:46Z</time>
      </trkpt>
      <trkpt lat="44.70841" lon="-0.62937">
        <ele>30.42</ele>
        <time>2020-10-18T09:49:01Z</time>
      </trkpt>
      <trkpt lat="44.70801" lon="-0.62945">
        <ele>32.34</ele>
        <time>2020-10-18T09:49:16Z</time>
      </trkpt>
      <trkpt lat="44.70783" lon="-0.62968">
        <ele>32.82</ele>
        <time>2020-10-18T09:49:30Z</time>
      </trkpt>
      <trkpt lat="44.70766" lon="-0.6301">
        <ele>31.86</ele>
        <time>2020-10-18T09:49:46Z</time>
      </trkpt>
      <trkpt lat="44.70765" lon="-0.63015">
        <ele>31.86</ele>
        <time>2020-10-18T09:49:48Z</time>
      </trkpt>
      <trkpt lat="44.70745" lon="-0.63067">
        <ele>32.82</ele>
        <time>2020-10-18T09:50:05Z</time>
      </trkpt>
      <trkpt lat="44.70726" lon="-0.63112">
        <ele>33.78</ele>
        <time>2020-10-18T09:50:19Z</time>
      </trkpt>
      <trkpt lat="44.70701" lon="-0.63148">
        <ele>34.26</ele>
        <time>2020-10-18T09:50:33Z</time>
      </trkpt>
      <trkpt lat="44.70667" lon="-0.63132">
        <ele>35.23</ele>
        <time>2020-10-18T09:50:47Z</time>
      </trkpt>
      <trkpt lat="44.70653" lon="-0.63128">
        <ele>34.74</ele>
        <time>2020-10-18T09:50:53Z</time>
      </trkpt>
      <trkpt lat="44.7064" lon="-0.63142">
        <ele>35.71</ele>
        <time>2020-10-18T09:51:01Z</time>
      </trkpt>
      <trkpt lat="44.70609" lon="-0.63167">
        <ele>37.15</ele>
        <time>2020-10-18T09:51:16Z</time>
      </trkpt>
      <trkpt lat="44.70575" lon="-0.63195">
        <ele>37.63</ele>
        <time>2020-10-18T09:51:32Z</time>
      </trkpt>
      <trkpt lat="44.7056" lon="-0.63231">
        <ele>38.11</ele>
        <time>2020-10-18T09:51:46Z</time>
      </trkpt>
      <trkpt lat="44.70555" lon="-0.63281">
        <ele>36.67</ele>
        <time>2020-10-18T09:51:59Z</time>
      </trkpt>
      <trkpt lat="44.70551" lon="-0.63328">
        <ele>37.63</ele>
        <time>2020-10-18T09:52:15Z</time>
      </trkpt>
      <trkpt lat="44.70536" lon="-0.63352">
        <ele>36.67</ele>
        <time>2020-10-18T09:52:27Z</time>
      </trkpt>
      <trkpt lat="44.70524" lon="-0.63374">
        <ele>36.19</ele>
        <time>2020-10-18T09:52:34Z</time>
      </trkpt>
      <trkpt lat="44.70508" lon="-0.63397">
        <ele>36.67</ele>
        <time>2020-10-18T09:52:42Z</time>
      </trkpt>
      <trkpt lat="44.70469" lon="-0.63426">
        <ele>37.63</ele>
        <time>2020-10-18T09:52:57Z</time>
      </trkpt>
      <trkpt lat="44.70429" lon="-0.63454">
        <ele>37.63</ele>
        <time>2020-10-18T09:53:13Z</time>
      </trkpt>
      <trkpt lat="44.70392" lon="-0.63456">
        <ele>37.15</ele>
        <time>2020-10-18T09:53:26Z</time>
      </trkpt>
      <trkpt lat="44.70347" lon="-0.63469">
        <ele>36.67</ele>
        <time>2020-10-18T09:53:41Z</time>
      </trkpt>
      <trkpt lat="44.70303" lon="-0.63478">
        <ele>37.63</ele>
        <time>2020-10-18T09:53:55Z</time>
      </trkpt>
      <trkpt lat="44.70267" lon="-0.63482">
        <ele>37.63</ele>
        <time>2020-10-18T09:54:09Z</time>
      </trkpt>
      <trkpt lat="44.70251" lon="-0.63483">
        <ele>39.07</ele>
        <time>2020-10-18T09:54:22Z</time>
      </trkpt>
      <trkpt lat="44.70251" lon="-0.63483">
        <ele>38.11</ele>
        <time>2020-10-18T09:54:45Z</time>
      </trkpt>
      <trkpt lat="44.7025" lon="-0.63483">
        <ele>38.11</ele>
        <time>2020-10-18T09:54:46Z</time>
      </trkpt>
      <trkpt lat="44.70237" lon="-0.63469">
        <ele>39.55</ele>
        <time>2020-10-18T09:54:53Z</time>
      </trkpt>
      <trkpt lat="44.702" lon="-0.63441">
        <ele>39.07</ele>
        <time>2020-10-18T09:55:06Z</time>
      </trkpt>
      <trkpt lat="44.70157" lon="-0.6341">
        <ele>40.03</ele>
        <time>2020-10-18T09:55:19Z</time>
      </trkpt>
      <trkpt lat="44.70137" lon="-0.63398">
        <ele>39.55</ele>
        <time>2020-10-18T09:55:25Z</time>
      </trkpt>
      <trkpt lat="44.70102" lon="-0.63365">
        <ele>40.51</ele>
        <time>2020-10-18T09:55:37Z</time>
      </trkpt>
      <trkpt lat="44.70057" lon="-0.63331">
        <ele>40.51</ele>
        <time>2020-10-18T09:55:51Z</time>
      </trkpt>
      <trkpt lat="44.7005" lon="-0.63327">
        <ele>41.47</ele>
        <time>2020-10-18T09:55:53Z</time>
      </trkpt>
      <trkpt lat="44.70012" lon="-0.63296">
        <ele>40.03</ele>
        <time>2020-10-18T09:56:05Z</time>
      </trkpt>
      <trkpt lat="44.69971" lon="-0.63261">
        <ele>41.47</ele>
        <time>2020-10-18T09:56:18Z</time>
      </trkpt>
      <trkpt lat="44.69922" lon="-0.63228">
        <ele>42.44</ele>
        <time>2020-10-18T09:56:33Z</time>
      </trkpt>
      <trkpt lat="44.69881" lon="-0.63192">
        <ele>43.4</ele>
        <time>2020-10-18T09:56:47Z</time>
      </trkpt>
      <trkpt lat="44.69835" lon="-0.63156">
        <ele>43.88</ele>
        <time>2020-10-18T09:57:01Z</time>
      </trkpt>
      <trkpt lat="44.69772" lon="-0.63107">
        <ele>41.47</ele>
        <time>2020-10-18T09:57:18Z</time>
      </trkpt>
      <trkpt lat="44.69769" lon="-0.63104">
        <ele>40.51</ele>
        <time>2020-10-18T09:57:19Z</time>
      </trkpt>
      <trkpt lat="44.69765" lon="-0.63101">
        <ele>40.51</ele>
        <time>2020-10-18T09:57:20Z</time>
      </trkpt>
      <trkpt lat="44.69761" lon="-0.63099">
        <ele>41.47</ele>
        <time>2020-10-18T09:57:21Z</time>
      </trkpt>
      <trkpt lat="44.69758" lon="-0.63096">
        <ele>40.99</ele>
        <time>2020-10-18T09:57:22Z</time>
      </trkpt>
      <trkpt lat="44.69755" lon="-0.63093">
        <ele>40.99</ele>
        <time>2020-10-18T09:57:23Z</time>
      </trkpt>
      <trkpt lat="44.69711" lon="-0.63062">
        <ele>40.99</ele>
        <time>2020-10-18T09:57:35Z</time>
      </trkpt>
      <trkpt lat="44.69696" lon="-0.63054">
        <ele>40.03</ele>
        <time>2020-10-18T09:57:39Z</time>
      </trkpt>
      <trkpt lat="44.69692" lon="-0.63051">
        <ele>40.51</ele>
        <time>2020-10-18T09:57:40Z</time>
      </trkpt>
      <trkpt lat="44.69689" lon="-0.63048">
        <ele>40.03</ele>
        <time>2020-10-18T09:57:41Z</time>
      </trkpt>
      <trkpt lat="44.69647" lon="-0.6302">
        <ele>40.51</ele>
        <time>2020-10-18T09:57:53Z</time>
      </trkpt>
      <trkpt lat="44.69604" lon="-0.62984">
        <ele>40.99</ele>
        <time>2020-10-18T09:58:06Z</time>
      </trkpt>
      <trkpt lat="44.69552" lon="-0.6294">
        <ele>40.51</ele>
        <time>2020-10-18T09:58:23Z</time>
      </trkpt>
      <trkpt lat="44.69506" lon="-0.62911">
        <ele>40.51</ele>
        <time>2020-10-18T09:58:36Z</time>
      </trkpt>
      <trkpt lat="44.6947" lon="-0.62883">
        <ele>41.47</ele>
        <time>2020-10-18T09:58:48Z</time>
      </trkpt>
      <trkpt lat="44.69428" lon="-0.6285">
        <ele>41.47</ele>
        <time>2020-10-18T09:59:01Z</time>
      </trkpt>
      <trkpt lat="44.69389" lon="-0.62817">
        <ele>41.95</ele>
        <time>2020-10-18T09:59:14Z</time>
      </trkpt>
      <trkpt lat="44.69351" lon="-0.62784">
        <ele>42.92</ele>
        <time>2020-10-18T09:59:26Z</time>
      </trkpt>
      <trkpt lat="44.69313" lon="-0.62752">
        <ele>43.88</ele>
        <time>2020-10-18T09:59:38Z</time>
      </trkpt>
      <trkpt lat="44.69299" lon="-0.62709">
        <ele>43.88</ele>
        <time>2020-10-18T09:59:51Z</time>
      </trkpt>
      <trkpt lat="44.69339" lon="-0.62665">
        <ele>43.88</ele>
        <time>2020-10-18T10:00:05Z</time>
      </trkpt>
      <trkpt lat="44.69394" lon="-0.62617">
        <ele>43.4</ele>
        <time>2020-10-18T10:00:17Z</time>
      </trkpt>
      <trkpt lat="44.69405" lon="-0.62606">
        <ele>44.36</ele>
        <time>2020-10-18T10:00:20Z</time>
      </trkpt>
      <trkpt lat="44.69446" lon="-0.6256">
        <ele>43.88</ele>
        <time>2020-10-18T10:00:33Z</time>
      </trkpt>
      <trkpt lat="44.69488" lon="-0.62517">
        <ele>42.44</ele>
        <time>2020-10-18T10:00:46Z</time>
      </trkpt>
      <trkpt lat="44.69534" lon="-0.62466">
        <ele>43.4</ele>
        <time>2020-10-18T10:01:01Z</time>
      </trkpt>
      <trkpt lat="44.6958" lon="-0.62406">
        <ele>43.88</ele>
        <time>2020-10-18T10:01:17Z</time>
      </trkpt>
      <trkpt lat="44.69613" lon="-0.62367">
        <ele>43.4</ele>
        <time>2020-10-18T10:01:31Z</time>
      </trkpt>
      <trkpt lat="44.69589" lon="-0.62319">
        <ele>43.4</ele>
        <time>2020-10-18T10:01:45Z</time>
      </trkpt>
      <trkpt lat="44.69553" lon="-0.62279">
        <ele>44.36</ele>
        <time>2020-10-18T10:01:58Z</time>
      </trkpt>
      <trkpt lat="44.69519" lon="-0.62236">
        <ele>44.36</ele>
        <time>2020-10-18T10:02:12Z</time>
      </trkpt>
      <trkpt lat="44.69522" lon="-0.62184">
        <ele>45.32</ele>
        <time>2020-10-18T10:02:26Z</time>
      </trkpt>
      <trkpt lat="44.69491" lon="-0.62104">
        <ele>45.32</ele>
        <time>2020-10-18T10:02:45Z</time>
      </trkpt>
      <trkpt lat="44.69456" lon="-0.62061">
        <ele>47.24</ele>
        <time>2020-10-18T10:03:01Z</time>
      </trkpt>
      <trkpt lat="44.69413" lon="-0.62003">
        <ele>46.76</ele>
        <time>2020-10-18T10:03:16Z</time>
      </trkpt>
      <trkpt lat="44.6938" lon="-0.6195">
        <ele>47.24</ele>
        <time>2020-10-18T10:03:31Z</time>
      </trkpt>
      <trkpt lat="44.69342" lon="-0.61897">
        <ele>48.2</ele>
        <time>2020-10-18T10:03:47Z</time>
      </trkpt>
      <trkpt lat="44.69311" lon="-0.61845">
        <ele>48.2</ele>
        <time>2020-10-18T10:04:02Z</time>
      </trkpt>
      <trkpt lat="44.69297" lon="-0.61795">
        <ele>48.2</ele>
        <time>2020-10-18T10:04:16Z</time>
      </trkpt>
      <trkpt lat="44.69266" lon="-0.61751">
        <ele>48.2</ele>
        <time>2020-10-18T10:04:32Z</time>
      </trkpt>
      <trkpt lat="44.69237" lon="-0.6171">
        <ele>50.13</ele>
        <time>2020-10-18T10:04:47Z</time>
      </trkpt>
      <trkpt lat="44.69204" lon="-0.61661">
        <ele>50.61</ele>
        <time>2020-10-18T10:05:03Z</time>
      </trkpt>
      <trkpt lat="44.69187" lon="-0.61624">
        <ele>50.13</ele>
        <time>2020-10-18T10:05:15Z</time>
      </trkpt>
      <trkpt lat="44.69156" lon="-0.61589">
        <ele>50.13</ele>
        <time>2020-10-18T10:05:29Z</time>
      </trkpt>
      <trkpt lat="44.69113" lon="-0.6158">
        <ele>49.16</ele>
        <time>2020-10-18T10:05:43Z</time>
      </trkpt>
      <trkpt lat="44.69072" lon="-0.61574">
        <ele>50.13</ele>
        <time>2020-10-18T10:05:56Z</time>
      </trkpt>
      <trkpt lat="44.69023" lon="-0.61565">
        <ele>49.16</ele>
        <time>2020-10-18T10:06:12Z</time>
      </trkpt>
      <trkpt lat="44.6898" lon="-0.61558">
        <ele>49.16</ele>
        <time>2020-10-18T10:06:27Z</time>
      </trkpt>
      <trkpt lat="44.68936" lon="-0.61547">
        <ele>49.16</ele>
        <time>2020-10-18T10:06:42Z</time>
      </trkpt>
      <trkpt lat="44.68888" lon="-0.61541">
        <ele>49.16</ele>
        <time>2020-10-18T10:06:58Z</time>
      </trkpt>
      <trkpt lat="44.6884" lon="-0.61537">
        <ele>49.65</ele>
        <time>2020-10-18T10:07:13Z</time>
      </trkpt>
      <trkpt lat="44.688" lon="-0.61535">
        <ele>49.16</ele>
        <time>2020-10-18T10:07:28Z</time>
      </trkpt>
      <trkpt lat="44.68792" lon="-0.61575">
        <ele>49.16</ele>
        <time>2020-10-18T10:07:40Z</time>
      </trkpt>
      <trkpt lat="44.68781" lon="-0.61614">
        <ele>49.65</ele>
        <time>2020-10-18T10:07:51Z</time>
      </trkpt>
      <trkpt lat="44.68773" lon="-0.61667">
        <ele>48.68</ele>
        <time>2020-10-18T10:08:04Z</time>
      </trkpt>
      <trkpt lat="44.68763" lon="-0.6172">
        <ele>49.65</ele>
        <time>2020-10-18T10:08:18Z</time>
      </trkpt>
      <trkpt lat="44.68752" lon="-0.61779">
        <ele>48.68</ele>
        <time>2020-10-18T10:08:34Z</time>
      </trkpt>
      <trkpt lat="44.68742" lon="-0.61841">
        <ele>48.68</ele>
        <time>2020-10-18T10:08:51Z</time>
      </trkpt>
      <trkpt lat="44.68731" lon="-0.61902">
        <ele>49.16</ele>
        <time>2020-10-18T10:09:04Z</time>
      </trkpt>
      <trkpt lat="44.6872" lon="-0.61964">
        <ele>49.65</ele>
        <time>2020-10-18T10:09:16Z</time>
      </trkpt>
      <trkpt lat="44.68709" lon="-0.62025">
        <ele>48.68</ele>
        <time>2020-10-18T10:09:28Z</time>
      </trkpt>
      <trkpt lat="44.68697" lon="-0.62092">
        <ele>49.16</ele>
        <time>2020-10-18T10:09:42Z</time>
      </trkpt>
      <trkpt lat="44.68686" lon="-0.62145">
        <ele>48.68</ele>
        <time>2020-10-18T10:09:59Z</time>
      </trkpt>
      <trkpt lat="44.6868" lon="-0.62148">
        <ele>48.2</ele>
        <time>2020-10-18T10:10:10Z</time>
      </trkpt>
      <trkpt lat="44.6868" lon="-0.62148">
        <ele>48.68</ele>
        <time>2020-10-18T10:10:31Z</time>
      </trkpt>
      <trkpt lat="44.68681" lon="-0.62148">
        <ele>48.68</ele>
        <time>2020-10-18T10:10:49Z</time>
      </trkpt>
      <trkpt lat="44.68681" lon="-0.62148">
        <ele>48.2</ele>
        <time>2020-10-18T10:11:06Z</time>
      </trkpt>
      <trkpt lat="44.68681" lon="-0.62148">
        <ele>49.16</ele>
        <time>2020-10-18T10:11:29Z</time>
      </trkpt>
      <trkpt lat="44.68681" lon="-0.62147">
        <ele>48.68</ele>
        <time>2020-10-18T10:11:47Z</time>
      </trkpt>
      <trkpt lat="44.68681" lon="-0.62147">
        <ele>49.65</ele>
        <time>2020-10-18T10:12:12Z</time>
      </trkpt>
      <trkpt lat="44.68681" lon="-0.62147">
        <ele>50.13</ele>
        <time>2020-10-18T10:12:44Z</time>
      </trkpt>
      <trkpt lat="44.68681" lon="-0.62147">
        <ele>49.16</ele>
        <time>2020-10-18T10:13:02Z</time>
      </trkpt>
      <trkpt lat="44.68683" lon="-0.62149">
        <ele>49.16</ele>
        <time>2020-10-18T10:13:08Z</time>
      </trkpt>
      <trkpt lat="44.68684" lon="-0.62152">
        <ele>49.16</ele>
        <time>2020-10-18T10:13:24Z</time>
      </trkpt>
      <trkpt lat="44.68681" lon="-0.62149">
        <ele>49.16</ele>
        <time>2020-10-18T10:13:36Z</time>
      </trkpt>
      <trkpt lat="44.68681" lon="-0.62149">
        <ele>49.65</ele>
        <time>2020-10-18T10:14:04Z</time>
      </trkpt>
      <trkpt lat="44.68681" lon="-0.62149">
        <ele>49.65</ele>
        <time>2020-10-18T10:14:29Z</time>
      </trkpt>
      <trkpt lat="44.68681" lon="-0.62149">
        <ele>49.65</ele>
        <time>2020-10-18T10:14:48Z</time>
      </trkpt>
      <trkpt lat="44.6868" lon="-0.62148">
        <ele>50.13</ele>
        <time>2020-10-18T10:15:16Z</time>
      </trkpt>
      <trkpt lat="44.6868" lon="-0.62149">
        <ele>49.65</ele>
        <time>2020-10-18T10:15:34Z</time>
      </trkpt>
      <trkpt lat="44.68679" lon="-0.62147">
        <ele>50.13</ele>
        <time>2020-10-18T10:15:50Z</time>
      </trkpt>
      <trkpt lat="44.68678" lon="-0.62146">
        <ele>50.13</ele>
        <time>2020-10-18T10:15:57Z</time>
      </trkpt>
      <trkpt lat="44.68677" lon="-0.62144">
        <ele>50.61</ele>
        <time>2020-10-18T10:15:58Z</time>
      </trkpt>
      <trkpt lat="44.68676" lon="-0.62143">
        <ele>51.09</ele>
        <time>2020-10-18T10:15:59Z</time>
      </trkpt>
      <trkpt lat="44.68652" lon="-0.62115">
        <ele>51.57</ele>
        <time>2020-10-18T10:16:12Z</time>
      </trkpt>
      <trkpt lat="44.68623" lon="-0.62087">
        <ele>51.57</ele>
        <time>2020-10-18T10:16:24Z</time>
      </trkpt>
      <trkpt lat="44.68592" lon="-0.62079">
        <ele>51.09</ele>
        <time>2020-10-18T10:16:36Z</time>
      </trkpt>
      <trkpt lat="44.68582" lon="-0.62133">
        <ele>51.09</ele>
        <time>2020-10-18T10:16:46Z</time>
      </trkpt>
      <trkpt lat="44.68566" lon="-0.62213">
        <ele>51.09</ele>
        <time>2020-10-18T10:17:01Z</time>
      </trkpt>
      <trkpt lat="44.68554" lon="-0.62288">
        <ele>51.57</ele>
        <time>2020-10-18T10:17:15Z</time>
      </trkpt>
      <trkpt lat="44.68538" lon="-0.62374">
        <ele>51.09</ele>
        <time>2020-10-18T10:17:31Z</time>
      </trkpt>
      <trkpt lat="44.68525" lon="-0.6245">
        <ele>51.09</ele>
        <time>2020-10-18T10:17:45Z</time>
      </trkpt>
      <trkpt lat="44.6851" lon="-0.62525">
        <ele>51.09</ele>
        <time>2020-10-18T10:17:59Z</time>
      </trkpt>
      <trkpt lat="44.68501" lon="-0.62601">
        <ele>52.05</ele>
        <time>2020-10-18T10:18:13Z</time>
      </trkpt>
      <trkpt lat="44.68487" lon="-0.62684">
        <ele>53.01</ele>
        <time>2020-10-18T10:18:28Z</time>
      </trkpt>
      <trkpt lat="44.68469" lon="-0.62762">
        <ele>53.49</ele>
        <time>2020-10-18T10:18:43Z</time>
      </trkpt>
      <trkpt lat="44.68454" lon="-0.62832">
        <ele>53.49</ele>
        <time>2020-10-18T10:18:56Z</time>
      </trkpt>
      <trkpt lat="44.6844" lon="-0.62917">
        <ele>53.49</ele>
        <time>2020-10-18T10:19:10Z</time>
      </trkpt>
      <trkpt lat="44.68425" lon="-0.62995">
        <ele>53.01</ele>
        <time>2020-10-18T10:19:24Z</time>
      </trkpt>
      <trkpt lat="44.6841" lon="-0.63078">
        <ele>53.49</ele>
        <time>2020-10-18T10:19:39Z</time>
      </trkpt>
      <trkpt lat="44.68396" lon="-0.6316">
        <ele>53.49</ele>
        <time>2020-10-18T10:19:54Z</time>
      </trkpt>
      <trkpt lat="44.68382" lon="-0.63237">
        <ele>53.49</ele>
        <time>2020-10-18T10:20:08Z</time>
      </trkpt>
      <trkpt lat="44.6837" lon="-0.63288">
        <ele>53.01</ele>
        <time>2020-10-18T10:20:18Z</time>
      </trkpt>
      <trkpt lat="44.68369" lon="-0.63295">
        <ele>53.49</ele>
        <time>2020-10-18T10:20:19Z</time>
      </trkpt>
      <trkpt lat="44.68359" lon="-0.63369">
        <ele>53.97</ele>
        <time>2020-10-18T10:20:32Z</time>
      </trkpt>
      <trkpt lat="44.68343" lon="-0.63452">
        <ele>54.93</ele>
        <time>2020-10-18T10:20:47Z</time>
      </trkpt>
      <trkpt lat="44.683" lon="-0.63498">
        <ele>55.41</ele>
        <time>2020-10-18T10:21:00Z</time>
      </trkpt>
      <trkpt lat="44.68245" lon="-0.63543">
        <ele>54.93</ele>
        <time>2020-10-18T10:21:15Z</time>
      </trkpt>
      <trkpt lat="44.6819" lon="-0.63582">
        <ele>55.41</ele>
        <time>2020-10-18T10:21:30Z</time>
      </trkpt>
      <trkpt lat="44.6815" lon="-0.63612">
        <ele>55.89</ele>
        <time>2020-10-18T10:21:41Z</time>
      </trkpt>
      <trkpt lat="44.68139" lon="-0.6362">
        <ele>55.41</ele>
        <time>2020-10-18T10:21:44Z</time>
      </trkpt>
      <trkpt lat="44.68135" lon="-0.63623">
        <ele>55.41</ele>
        <time>2020-10-18T10:21:45Z</time>
      </trkpt>
      <trkpt lat="44.68095" lon="-0.63655">
        <ele>55.41</ele>
        <time>2020-10-18T10:21:56Z</time>
      </trkpt>
      <trkpt lat="44.68049" lon="-0.6369">
        <ele>55.41</ele>
        <time>2020-10-18T10:22:09Z</time>
      </trkpt>
      <trkpt lat="44.67994" lon="-0.63735">
        <ele>55.89</ele>
        <time>2020-10-18T10:22:24Z</time>
      </trkpt>
      <trkpt lat="44.67944" lon="-0.63771">
        <ele>56.86</ele>
        <time>2020-10-18T10:22:39Z</time>
      </trkpt>
      <trkpt lat="44.67907" lon="-0.638">
        <ele>56.86</ele>
        <time>2020-10-18T10:22:53Z</time>
      </trkpt>
      <trkpt lat="44.6786" lon="-0.63833">
        <ele>56.86</ele>
        <time>2020-10-18T10:23:06Z</time>
      </trkpt>
      <trkpt lat="44.67806" lon="-0.63873">
        <ele>57.34</ele>
        <time>2020-10-18T10:23:20Z</time>
      </trkpt>
      <trkpt lat="44.67756" lon="-0.6391">
        <ele>56.86</ele>
        <time>2020-10-18T10:23:34Z</time>
      </trkpt>
      <trkpt lat="44.67706" lon="-0.6395">
        <ele>56.86</ele>
        <time>2020-10-18T10:23:48Z</time>
      </trkpt>
      <trkpt lat="44.67703" lon="-0.63953">
        <ele>56.86</ele>
        <time>2020-10-18T10:23:49Z</time>
      </trkpt>
      <trkpt lat="44.67698" lon="-0.63955">
        <ele>57.34</ele>
        <time>2020-10-18T10:23:50Z</time>
      </trkpt>
      <trkpt lat="44.67646" lon="-0.63994">
        <ele>56.86</ele>
        <time>2020-10-18T10:24:04Z</time>
      </trkpt>
      <trkpt lat="44.67634" lon="-0.64003">
        <ele>57.34</ele>
        <time>2020-10-18T10:24:07Z</time>
      </trkpt>
      <trkpt lat="44.67581" lon="-0.64042">
        <ele>57.34</ele>
        <time>2020-10-18T10:24:22Z</time>
      </trkpt>
      <trkpt lat="44.67543" lon="-0.64073">
        <ele>57.82</ele>
        <time>2020-10-18T10:24:34Z</time>
      </trkpt>
      <trkpt lat="44.67508" lon="-0.64097">
        <ele>57.82</ele>
        <time>2020-10-18T10:24:50Z</time>
      </trkpt>
      <trkpt lat="44.67487" lon="-0.64115">
        <ele>57.82</ele>
        <time>2020-10-18T10:25:00Z</time>
      </trkpt>
      <trkpt lat="44.67444" lon="-0.64156">
        <ele>58.3</ele>
        <time>2020-10-18T10:25:14Z</time>
      </trkpt>
      <trkpt lat="44.67396" lon="-0.64188">
        <ele>58.3</ele>
        <time>2020-10-18T10:25:27Z</time>
      </trkpt>
      <trkpt lat="44.67344" lon="-0.64229">
        <ele>58.3</ele>
        <time>2020-10-18T10:25:41Z</time>
      </trkpt>
      <trkpt lat="44.67297" lon="-0.64269">
        <ele>59.26</ele>
        <time>2020-10-18T10:25:54Z</time>
      </trkpt>
      <trkpt lat="44.6725" lon="-0.64307">
        <ele>58.78</ele>
        <time>2020-10-18T10:26:07Z</time>
      </trkpt>
      <trkpt lat="44.67204" lon="-0.64342">
        <ele>59.26</ele>
        <time>2020-10-18T10:26:20Z</time>
      </trkpt>
      <trkpt lat="44.67162" lon="-0.64381">
        <ele>59.74</ele>
        <time>2020-10-18T10:26:33Z</time>
      </trkpt>
      <trkpt lat="44.67118" lon="-0.64429">
        <ele>59.26</ele>
        <time>2020-10-18T10:26:47Z</time>
      </trkpt>
      <trkpt lat="44.67073" lon="-0.64476">
        <ele>59.26</ele>
        <time>2020-10-18T10:27:00Z</time>
      </trkpt>
      <trkpt lat="44.67016" lon="-0.64528">
        <ele>60.22</ele>
        <time>2020-10-18T10:27:16Z</time>
      </trkpt>
      <trkpt lat="44.66964" lon="-0.64575">
        <ele>60.22</ele>
        <time>2020-10-18T10:27:31Z</time>
      </trkpt>
      <trkpt lat="44.66903" lon="-0.64636">
        <ele>60.22</ele>
        <time>2020-10-18T10:27:48Z</time>
      </trkpt>
      <trkpt lat="44.66893" lon="-0.64645">
        <ele>60.22</ele>
        <time>2020-10-18T10:27:51Z</time>
      </trkpt>
      <trkpt lat="44.66889" lon="-0.64648">
        <ele>60.7</ele>
        <time>2020-10-18T10:27:52Z</time>
      </trkpt>
      <trkpt lat="44.66841" lon="-0.64692">
        <ele>60.7</ele>
        <time>2020-10-18T10:28:05Z</time>
      </trkpt>
      <trkpt lat="44.6679" lon="-0.64739">
        <ele>60.22</ele>
        <time>2020-10-18T10:28:19Z</time>
      </trkpt>
      <trkpt lat="44.66739" lon="-0.64784">
        <ele>61.18</ele>
        <time>2020-10-18T10:28:34Z</time>
      </trkpt>
      <trkpt lat="44.66699" lon="-0.64821">
        <ele>62.14</ele>
        <time>2020-10-18T10:28:46Z</time>
      </trkpt>
      <trkpt lat="44.66653" lon="-0.64865">
        <ele>61.18</ele>
        <time>2020-10-18T10:29:00Z</time>
      </trkpt>
      <trkpt lat="44.66625" lon="-0.64862">
        <ele>61.66</ele>
        <time>2020-10-18T10:29:12Z</time>
      </trkpt>
      <trkpt lat="44.66607" lon="-0.6478">
        <ele>62.14</ele>
        <time>2020-10-18T10:29:24Z</time>
      </trkpt>
      <trkpt lat="44.66587" lon="-0.64704">
        <ele>62.14</ele>
        <time>2020-10-18T10:29:37Z</time>
      </trkpt>
      <trkpt lat="44.66567" lon="-0.6462">
        <ele>61.66</ele>
        <time>2020-10-18T10:29:51Z</time>
      </trkpt>
      <trkpt lat="44.66549" lon="-0.64546">
        <ele>61.66</ele>
        <time>2020-10-18T10:30:04Z</time>
      </trkpt>
      <trkpt lat="44.66531" lon="-0.64462">
        <ele>61.66</ele>
        <time>2020-10-18T10:30:18Z</time>
      </trkpt>
      <trkpt lat="44.66507" lon="-0.64373">
        <ele>61.66</ele>
        <time>2020-10-18T10:30:34Z</time>
      </trkpt>
      <trkpt lat="44.66486" lon="-0.6429">
        <ele>61.66</ele>
        <time>2020-10-18T10:30:48Z</time>
      </trkpt>
      <trkpt lat="44.66463" lon="-0.64201">
        <ele>61.66</ele>
        <time>2020-10-18T10:31:04Z</time>
      </trkpt>
      <trkpt lat="44.66442" lon="-0.64142">
        <ele>61.66</ele>
        <time>2020-10-18T10:31:17Z</time>
      </trkpt>
      <trkpt lat="44.66406" lon="-0.64139">
        <ele>61.18</ele>
        <time>2020-10-18T10:31:28Z</time>
      </trkpt>
      <trkpt lat="44.66344" lon="-0.64152">
        <ele>60.7</ele>
        <time>2020-10-18T10:31:42Z</time>
      </trkpt>
      <trkpt lat="44.6628" lon="-0.64166">
        <ele>60.7</ele>
        <time>2020-10-18T10:31:57Z</time>
      </trkpt>
      <trkpt lat="44.66263" lon="-0.64169">
        <ele>61.66</ele>
        <time>2020-10-18T10:32:01Z</time>
      </trkpt>
      <trkpt lat="44.66192" lon="-0.64174">
        <ele>61.66</ele>
        <time>2020-10-18T10:32:17Z</time>
      </trkpt>
      <trkpt lat="44.6614" lon="-0.64193">
        <ele>61.18</ele>
        <time>2020-10-18T10:32:30Z</time>
      </trkpt>
      <trkpt lat="44.66093" lon="-0.6422">
        <ele>61.18</ele>
        <time>2020-10-18T10:32:43Z</time>
      </trkpt>
      <trkpt lat="44.66084" lon="-0.64172">
        <ele>61.18</ele>
        <time>2020-10-18T10:32:53Z</time>
      </trkpt>
      <trkpt lat="44.6609" lon="-0.641">
        <ele>60.7</ele>
        <time>2020-10-18T10:33:04Z</time>
      </trkpt>
      <trkpt lat="44.66085" lon="-0.64015">
        <ele>60.22</ele>
        <time>2020-10-18T10:33:19Z</time>
      </trkpt>
      <trkpt lat="44.66081" lon="-0.63931">
        <ele>60.7</ele>
        <time>2020-10-18T10:33:34Z</time>
      </trkpt>
      <trkpt lat="44.66079" lon="-0.63902">
        <ele>61.18</ele>
        <time>2020-10-18T10:33:39Z</time>
      </trkpt>
      <trkpt lat="44.66076" lon="-0.63828">
        <ele>60.22</ele>
        <time>2020-10-18T10:33:53Z</time>
      </trkpt>
      <trkpt lat="44.66055" lon="-0.63766">
        <ele>60.22</ele>
        <time>2020-10-18T10:34:05Z</time>
      </trkpt>
      <trkpt lat="44.66052" lon="-0.63681">
        <ele>59.74</ele>
        <time>2020-10-18T10:34:20Z</time>
      </trkpt>
      <trkpt lat="44.66089" lon="-0.63635">
        <ele>59.74</ele>
        <time>2020-10-18T10:34:32Z</time>
      </trkpt>
      <trkpt lat="44.66095" lon="-0.63562">
        <ele>59.74</ele>
        <time>2020-10-18T10:34:48Z</time>
      </trkpt>
      <trkpt lat="44.6607" lon="-0.63488">
        <ele>59.26</ele>
        <time>2020-10-18T10:35:01Z</time>
      </trkpt>
      <trkpt lat="44.66063" lon="-0.63465">
        <ele>59.26</ele>
        <time>2020-10-18T10:35:05Z</time>
      </trkpt>
      <trkpt lat="44.66039" lon="-0.63395">
        <ele>58.3</ele>
        <time>2020-10-18T10:35:18Z</time>
      </trkpt>
      <trkpt lat="44.66021" lon="-0.6332">
        <ele>58.78</ele>
        <time>2020-10-18T10:35:32Z</time>
      </trkpt>
      <trkpt lat="44.66007" lon="-0.63285">
        <ele>58.78</ele>
        <time>2020-10-18T10:35:39Z</time>
      </trkpt>
      <trkpt lat="44.65994" lon="-0.63255">
        <ele>58.3</ele>
        <time>2020-10-18T10:35:45Z</time>
      </trkpt>
      <trkpt lat="44.65965" lon="-0.63179">
        <ele>59.26</ele>
        <time>2020-10-18T10:36:00Z</time>
      </trkpt>
      <trkpt lat="44.65949" lon="-0.63144">
        <ele>58.78</ele>
        <time>2020-10-18T10:36:07Z</time>
      </trkpt>
      <trkpt lat="44.65946" lon="-0.6314">
        <ele>58.78</ele>
        <time>2020-10-18T10:36:08Z</time>
      </trkpt>
      <trkpt lat="44.65943" lon="-0.63136">
        <ele>57.82</ele>
        <time>2020-10-18T10:36:09Z</time>
      </trkpt>
      <trkpt lat="44.65939" lon="-0.63133">
        <ele>57.34</ele>
        <time>2020-10-18T10:36:10Z</time>
      </trkpt>
      <trkpt lat="44.65935" lon="-0.63131">
        <ele>57.34</ele>
        <time>2020-10-18T10:36:11Z</time>
      </trkpt>
      <trkpt lat="44.65931" lon="-0.63129">
        <ele>56.86</ele>
        <time>2020-10-18T10:36:12Z</time>
      </trkpt>
      <trkpt lat="44.65926" lon="-0.63129">
        <ele>56.86</ele>
        <time>2020-10-18T10:36:13Z</time>
      </trkpt>
      <trkpt lat="44.6592" lon="-0.63129">
        <ele>56.37</ele>
        <time>2020-10-18T10:36:14Z</time>
      </trkpt>
      <trkpt lat="44.65915" lon="-0.63129">
        <ele>56.86</ele>
        <time>2020-10-18T10:36:15Z</time>
      </trkpt>
      <trkpt lat="44.65897" lon="-0.63132">
        <ele>57.34</ele>
        <time>2020-10-18T10:36:19Z</time>
      </trkpt>
      <trkpt lat="44.65888" lon="-0.63131">
        <ele>57.34</ele>
        <time>2020-10-18T10:36:21Z</time>
      </trkpt>
      <trkpt lat="44.65883" lon="-0.63129">
        <ele>58.3</ele>
        <time>2020-10-18T10:36:22Z</time>
      </trkpt>
      <trkpt lat="44.65871" lon="-0.63119">
        <ele>58.3</ele>
        <time>2020-10-18T10:36:25Z</time>
      </trkpt>
      <trkpt lat="44.65868" lon="-0.63114">
        <ele>58.3</ele>
        <time>2020-10-18T10:36:26Z</time>
      </trkpt>
      <trkpt lat="44.65859" lon="-0.63092">
        <ele>57.82</ele>
        <time>2020-10-18T10:36:30Z</time>
      </trkpt>
      <trkpt lat="44.65852" lon="-0.63083">
        <ele>58.3</ele>
        <time>2020-10-18T10:36:32Z</time>
      </trkpt>
      <trkpt lat="44.65849" lon="-0.6308">
        <ele>58.78</ele>
        <time>2020-10-18T10:36:33Z</time>
      </trkpt>
      <trkpt lat="44.65834" lon="-0.63065">
        <ele>58.78</ele>
        <time>2020-10-18T10:36:37Z</time>
      </trkpt>
      <trkpt lat="44.65831" lon="-0.63061">
        <ele>58.78</ele>
        <time>2020-10-18T10:36:38Z</time>
      </trkpt>
      <trkpt lat="44.65828" lon="-0.63056">
        <ele>58.78</ele>
        <time>2020-10-18T10:36:39Z</time>
      </trkpt>
      <trkpt lat="44.65826" lon="-0.63051">
        <ele>58.78</ele>
        <time>2020-10-18T10:36:40Z</time>
      </trkpt>
      <trkpt lat="44.65823" lon="-0.63046">
        <ele>58.78</ele>
        <time>2020-10-18T10:36:41Z</time>
      </trkpt>
      <trkpt lat="44.65821" lon="-0.63042">
        <ele>58.3</ele>
        <time>2020-10-18T10:36:42Z</time>
      </trkpt>
      <trkpt lat="44.65811" lon="-0.63027">
        <ele>58.3</ele>
        <time>2020-10-18T10:36:45Z</time>
      </trkpt>
      <trkpt lat="44.65788" lon="-0.6301">
        <ele>57.34</ele>
        <time>2020-10-18T10:36:52Z</time>
      </trkpt>
      <trkpt lat="44.65785" lon="-0.63009">
        <ele>57.34</ele>
        <time>2020-10-18T10:36:53Z</time>
      </trkpt>
      <trkpt lat="44.65781" lon="-0.63008">
        <ele>57.82</ele>
        <time>2020-10-18T10:36:54Z</time>
      </trkpt>
      <trkpt lat="44.65757" lon="-0.63011">
        <ele>57.82</ele>
        <time>2020-10-18T10:37:00Z</time>
      </trkpt>
      <trkpt lat="44.65754" lon="-0.63011">
        <ele>58.3</ele>
        <time>2020-10-18T10:37:01Z</time>
      </trkpt>
      <trkpt lat="44.6575" lon="-0.63009">
        <ele>58.3</ele>
        <time>2020-10-18T10:37:02Z</time>
      </trkpt>
      <trkpt lat="44.65746" lon="-0.63006">
        <ele>58.3</ele>
        <time>2020-10-18T10:37:03Z</time>
      </trkpt>
      <trkpt lat="44.65742" lon="-0.63003">
        <ele>58.3</ele>
        <time>2020-10-18T10:37:04Z</time>
      </trkpt>
      <trkpt lat="44.65739" lon="-0.62999">
        <ele>58.78</ele>
        <time>2020-10-18T10:37:05Z</time>
      </trkpt>
      <trkpt lat="44.65733" lon="-0.62991">
        <ele>58.78</ele>
        <time>2020-10-18T10:37:07Z</time>
      </trkpt>
      <trkpt lat="44.6573" lon="-0.62986">
        <ele>58.3</ele>
        <time>2020-10-18T10:37:08Z</time>
      </trkpt>
      <trkpt lat="44.65727" lon="-0.62982">
        <ele>58.3</ele>
        <time>2020-10-18T10:37:09Z</time>
      </trkpt>
      <trkpt lat="44.65725" lon="-0.62977">
        <ele>58.78</ele>
        <time>2020-10-18T10:37:10Z</time>
      </trkpt>
      <trkpt lat="44.65722" lon="-0.62971">
        <ele>58.3</ele>
        <time>2020-10-18T10:37:11Z</time>
      </trkpt>
      <trkpt lat="44.65717" lon="-0.62961">
        <ele>57.82</ele>
        <time>2020-10-18T10:37:13Z</time>
      </trkpt>
      <trkpt lat="44.65714" lon="-0.62957">
        <ele>57.34</ele>
        <time>2020-10-18T10:37:14Z</time>
      </trkpt>
      <trkpt lat="44.6571" lon="-0.62953">
        <ele>57.82</ele>
        <time>2020-10-18T10:37:15Z</time>
      </trkpt>
      <trkpt lat="44.65707" lon="-0.62951">
        <ele>56.86</ele>
        <time>2020-10-18T10:37:16Z</time>
      </trkpt>
      <trkpt lat="44.65703" lon="-0.62949">
        <ele>57.34</ele>
        <time>2020-10-18T10:37:17Z</time>
      </trkpt>
      <trkpt lat="44.65699" lon="-0.62947">
        <ele>57.34</ele>
        <time>2020-10-18T10:37:18Z</time>
      </trkpt>
      <trkpt lat="44.65694" lon="-0.62944">
        <ele>58.3</ele>
        <time>2020-10-18T10:37:19Z</time>
      </trkpt>
      <trkpt lat="44.65692" lon="-0.6294">
        <ele>57.34</ele>
        <time>2020-10-18T10:37:20Z</time>
      </trkpt>
      <trkpt lat="44.65689" lon="-0.62936">
        <ele>57.82</ele>
        <time>2020-10-18T10:37:21Z</time>
      </trkpt>
      <trkpt lat="44.65685" lon="-0.62932">
        <ele>56.86</ele>
        <time>2020-10-18T10:37:22Z</time>
      </trkpt>
      <trkpt lat="44.65682" lon="-0.62928">
        <ele>56.86</ele>
        <time>2020-10-18T10:37:23Z</time>
      </trkpt>
      <trkpt lat="44.65678" lon="-0.62924">
        <ele>57.82</ele>
        <time>2020-10-18T10:37:24Z</time>
      </trkpt>
      <trkpt lat="44.65675" lon="-0.62919">
        <ele>56.86</ele>
        <time>2020-10-18T10:37:25Z</time>
      </trkpt>
      <trkpt lat="44.65657" lon="-0.62899">
        <ele>56.37</ele>
        <time>2020-10-18T10:37:30Z</time>
      </trkpt>
      <trkpt lat="44.65648" lon="-0.62891">
        <ele>56.86</ele>
        <time>2020-10-18T10:37:32Z</time>
      </trkpt>
      <trkpt lat="44.65645" lon="-0.62887">
        <ele>56.37</ele>
        <time>2020-10-18T10:37:33Z</time>
      </trkpt>
      <trkpt lat="44.65641" lon="-0.62883">
        <ele>56.37</ele>
        <time>2020-10-18T10:37:34Z</time>
      </trkpt>
      <trkpt lat="44.65619" lon="-0.62846">
        <ele>57.34</ele>
        <time>2020-10-18T10:37:43Z</time>
      </trkpt>
      <trkpt lat="44.65614" lon="-0.62839">
        <ele>57.34</ele>
        <time>2020-10-18T10:37:45Z</time>
      </trkpt>
      <trkpt lat="44.6561" lon="-0.62837">
        <ele>57.34</ele>
        <time>2020-10-18T10:37:46Z</time>
      </trkpt>
      <trkpt lat="44.65606" lon="-0.62834">
        <ele>57.34</ele>
        <time>2020-10-18T10:37:47Z</time>
      </trkpt>
      <trkpt lat="44.65596" lon="-0.62824">
        <ele>57.34</ele>
        <time>2020-10-18T10:37:50Z</time>
      </trkpt>
      <trkpt lat="44.65593" lon="-0.62821">
        <ele>57.34</ele>
        <time>2020-10-18T10:37:51Z</time>
      </trkpt>
      <trkpt lat="44.6559" lon="-0.62817">
        <ele>56.86</ele>
        <time>2020-10-18T10:37:52Z</time>
      </trkpt>
      <trkpt lat="44.65587" lon="-0.62814">
        <ele>57.34</ele>
        <time>2020-10-18T10:37:53Z</time>
      </trkpt>
      <trkpt lat="44.65584" lon="-0.6281">
        <ele>57.34</ele>
        <time>2020-10-18T10:37:54Z</time>
      </trkpt>
      <trkpt lat="44.65581" lon="-0.62808">
        <ele>57.34</ele>
        <time>2020-10-18T10:37:55Z</time>
      </trkpt>
      <trkpt lat="44.65578" lon="-0.62805">
        <ele>56.86</ele>
        <time>2020-10-18T10:37:56Z</time>
      </trkpt>
      <trkpt lat="44.65575" lon="-0.62801">
        <ele>57.34</ele>
        <time>2020-10-18T10:37:57Z</time>
      </trkpt>
      <trkpt lat="44.65573" lon="-0.62796">
        <ele>57.34</ele>
        <time>2020-10-18T10:37:58Z</time>
      </trkpt>
      <trkpt lat="44.65571" lon="-0.62791">
        <ele>56.86</ele>
        <time>2020-10-18T10:37:59Z</time>
      </trkpt>
      <trkpt lat="44.6557" lon="-0.62785">
        <ele>57.34</ele>
        <time>2020-10-18T10:38:00Z</time>
      </trkpt>
      <trkpt lat="44.6557" lon="-0.6278">
        <ele>57.34</ele>
        <time>2020-10-18T10:38:01Z</time>
      </trkpt>
      <trkpt lat="44.6557" lon="-0.62775">
        <ele>56.86</ele>
        <time>2020-10-18T10:38:02Z</time>
      </trkpt>
      <trkpt lat="44.65569" lon="-0.62765">
        <ele>56.86</ele>
        <time>2020-10-18T10:38:04Z</time>
      </trkpt>
      <trkpt lat="44.65568" lon="-0.6276">
        <ele>57.34</ele>
        <time>2020-10-18T10:38:05Z</time>
      </trkpt>
      <trkpt lat="44.65568" lon="-0.62754">
        <ele>57.34</ele>
        <time>2020-10-18T10:38:06Z</time>
      </trkpt>
      <trkpt lat="44.65562" lon="-0.62713">
        <ele>57.34</ele>
        <time>2020-10-18T10:38:15Z</time>
      </trkpt>
      <trkpt lat="44.65565" lon="-0.6271">
        <ele>57.34</ele>
        <time>2020-10-18T10:38:16Z</time>
      </trkpt>
      <trkpt lat="44.65589" lon="-0.62687">
        <ele>56.37</ele>
        <time>2020-10-18T10:38:23Z</time>
      </trkpt>
      <trkpt lat="44.65593" lon="-0.62683">
        <ele>56.37</ele>
        <time>2020-10-18T10:38:24Z</time>
      </trkpt>
      <trkpt lat="44.65598" lon="-0.6268">
        <ele>55.89</ele>
        <time>2020-10-18T10:38:25Z</time>
      </trkpt>
      <trkpt lat="44.65624" lon="-0.62659">
        <ele>54.93</ele>
        <time>2020-10-18T10:38:30Z</time>
      </trkpt>
      <trkpt lat="44.65629" lon="-0.62654">
        <ele>54.45</ele>
        <time>2020-10-18T10:38:31Z</time>
      </trkpt>
      <trkpt lat="44.65674" lon="-0.626">
        <ele>55.89</ele>
        <time>2020-10-18T10:38:42Z</time>
      </trkpt>
      <trkpt lat="44.65677" lon="-0.62595">
        <ele>56.37</ele>
        <time>2020-10-18T10:38:43Z</time>
      </trkpt>
      <trkpt lat="44.6568" lon="-0.62591">
        <ele>56.86</ele>
        <time>2020-10-18T10:38:44Z</time>
      </trkpt>
      <trkpt lat="44.65683" lon="-0.62587">
        <ele>56.37</ele>
        <time>2020-10-18T10:38:45Z</time>
      </trkpt>
      <trkpt lat="44.65685" lon="-0.62582">
        <ele>57.34</ele>
        <time>2020-10-18T10:38:46Z</time>
      </trkpt>
      <trkpt lat="44.65687" lon="-0.62577">
        <ele>57.34</ele>
        <time>2020-10-18T10:38:47Z</time>
      </trkpt>
      <trkpt lat="44.6569" lon="-0.62572">
        <ele>57.34</ele>
        <time>2020-10-18T10:38:48Z</time>
      </trkpt>
      <trkpt lat="44.65691" lon="-0.62567">
        <ele>57.82</ele>
        <time>2020-10-18T10:38:49Z</time>
      </trkpt>
      <trkpt lat="44.65694" lon="-0.62562">
        <ele>57.34</ele>
        <time>2020-10-18T10:38:50Z</time>
      </trkpt>
      <trkpt lat="44.65696" lon="-0.62558">
        <ele>57.34</ele>
        <time>2020-10-18T10:38:51Z</time>
      </trkpt>
      <trkpt lat="44.65699" lon="-0.62553">
        <ele>56.86</ele>
        <time>2020-10-18T10:38:52Z</time>
      </trkpt>
      <trkpt lat="44.65702" lon="-0.62549">
        <ele>57.34</ele>
        <time>2020-10-18T10:38:53Z</time>
      </trkpt>
      <trkpt lat="44.65711" lon="-0.62537">
        <ele>57.82</ele>
        <time>2020-10-18T10:38:56Z</time>
      </trkpt>
      <trkpt lat="44.65714" lon="-0.62532">
        <ele>57.82</ele>
        <time>2020-10-18T10:38:57Z</time>
      </trkpt>
      <trkpt lat="44.65717" lon="-0.62527">
        <ele>57.34</ele>
        <time>2020-10-18T10:38:58Z</time>
      </trkpt>
      <trkpt lat="44.65719" lon="-0.62522">
        <ele>57.82</ele>
        <time>2020-10-18T10:38:59Z</time>
      </trkpt>
      <trkpt lat="44.65723" lon="-0.62517">
        <ele>57.82</ele>
        <time>2020-10-18T10:39:00Z</time>
      </trkpt>
      <trkpt lat="44.65726" lon="-0.62513">
        <ele>57.82</ele>
        <time>2020-10-18T10:39:01Z</time>
      </trkpt>
      <trkpt lat="44.65729" lon="-0.62508">
        <ele>57.34</ele>
        <time>2020-10-18T10:39:02Z</time>
      </trkpt>
      <trkpt lat="44.65731" lon="-0.62502">
        <ele>57.82</ele>
        <time>2020-10-18T10:39:03Z</time>
      </trkpt>
      <trkpt lat="44.65733" lon="-0.62497">
        <ele>57.82</ele>
        <time>2020-10-18T10:39:04Z</time>
      </trkpt>
      <trkpt lat="44.65736" lon="-0.62491">
        <ele>58.3</ele>
        <time>2020-10-18T10:39:05Z</time>
      </trkpt>
      <trkpt lat="44.65738" lon="-0.62486">
        <ele>57.82</ele>
        <time>2020-10-18T10:39:06Z</time>
      </trkpt>
      <trkpt lat="44.6574" lon="-0.6248">
        <ele>58.3</ele>
        <time>2020-10-18T10:39:07Z</time>
      </trkpt>
      <trkpt lat="44.65743" lon="-0.62475">
        <ele>58.3</ele>
        <time>2020-10-18T10:39:08Z</time>
      </trkpt>
      <trkpt lat="44.65745" lon="-0.62469">
        <ele>58.78</ele>
        <time>2020-10-18T10:39:09Z</time>
      </trkpt>
      <trkpt lat="44.65748" lon="-0.62464">
        <ele>58.78</ele>
        <time>2020-10-18T10:39:10Z</time>
      </trkpt>
      <trkpt lat="44.65751" lon="-0.62459">
        <ele>58.3</ele>
        <time>2020-10-18T10:39:11Z</time>
      </trkpt>
      <trkpt lat="44.65765" lon="-0.62433">
        <ele>59.74</ele>
        <time>2020-10-18T10:39:16Z</time>
      </trkpt>
      <trkpt lat="44.65773" lon="-0.62419">
        <ele>59.26</ele>
        <time>2020-10-18T10:39:19Z</time>
      </trkpt>
      <trkpt lat="44.65775" lon="-0.62415">
        <ele>58.78</ele>
        <time>2020-10-18T10:39:20Z</time>
      </trkpt>
      <trkpt lat="44.65778" lon="-0.6241">
        <ele>59.26</ele>
        <time>2020-10-18T10:39:21Z</time>
      </trkpt>
      <trkpt lat="44.6578" lon="-0.62404">
        <ele>59.26</ele>
        <time>2020-10-18T10:39:22Z</time>
      </trkpt>
      <trkpt lat="44.65782" lon="-0.62399">
        <ele>59.26</ele>
        <time>2020-10-18T10:39:23Z</time>
      </trkpt>
      <trkpt lat="44.65784" lon="-0.62395">
        <ele>58.78</ele>
        <time>2020-10-18T10:39:24Z</time>
      </trkpt>
      <trkpt lat="44.65786" lon="-0.62389">
        <ele>58.78</ele>
        <time>2020-10-18T10:39:25Z</time>
      </trkpt>
      <trkpt lat="44.6581" lon="-0.62335">
        <ele>59.74</ele>
        <time>2020-10-18T10:39:37Z</time>
      </trkpt>
      <trkpt lat="44.65828" lon="-0.62299">
        <ele>61.18</ele>
        <time>2020-10-18T10:39:47Z</time>
      </trkpt>
      <trkpt lat="44.65844" lon="-0.62245">
        <ele>61.18</ele>
        <time>2020-10-18T10:40:01Z</time>
      </trkpt>
      <trkpt lat="44.65867" lon="-0.62207">
        <ele>60.7</ele>
        <time>2020-10-18T10:40:12Z</time>
      </trkpt>
      <trkpt lat="44.65913" lon="-0.62142">
        <ele>58.78</ele>
        <time>2020-10-18T10:40:27Z</time>
      </trkpt>
      <trkpt lat="44.65919" lon="-0.62088">
        <ele>58.78</ele>
        <time>2020-10-18T10:40:41Z</time>
      </trkpt>
      <trkpt lat="44.65895" lon="-0.62012">
        <ele>58.78</ele>
        <time>2020-10-18T10:40:57Z</time>
      </trkpt>
      <trkpt lat="44.65867" lon="-0.61942">
        <ele>58.78</ele>
        <time>2020-10-18T10:41:13Z</time>
      </trkpt>
      <trkpt lat="44.65839" lon="-0.61884">
        <ele>58.3</ele>
        <time>2020-10-18T10:41:27Z</time>
      </trkpt>
      <trkpt lat="44.65815" lon="-0.61826">
        <ele>57.34</ele>
        <time>2020-10-18T10:41:42Z</time>
      </trkpt>
      <trkpt lat="44.658" lon="-0.61792">
        <ele>57.34</ele>
        <time>2020-10-18T10:41:57Z</time>
      </trkpt>
      <trkpt lat="44.65774" lon="-0.61754">
        <ele>57.34</ele>
        <time>2020-10-18T10:42:10Z</time>
      </trkpt>
      <trkpt lat="44.65757" lon="-0.61679">
        <ele>56.86</ele>
        <time>2020-10-18T10:42:26Z</time>
      </trkpt>
      <trkpt lat="44.65752" lon="-0.61606">
        <ele>55.89</ele>
        <time>2020-10-18T10:42:40Z</time>
      </trkpt>
      <trkpt lat="44.65745" lon="-0.61534">
        <ele>55.89</ele>
        <time>2020-10-18T10:42:54Z</time>
      </trkpt>
      <trkpt lat="44.65726" lon="-0.61466">
        <ele>56.86</ele>
        <time>2020-10-18T10:43:09Z</time>
      </trkpt>
      <trkpt lat="44.65707" lon="-0.61417">
        <ele>56.86</ele>
        <time>2020-10-18T10:43:22Z</time>
      </trkpt>
      <trkpt lat="44.65693" lon="-0.61357">
        <ele>56.86</ele>
        <time>2020-10-18T10:43:34Z</time>
      </trkpt>
      <trkpt lat="44.65707" lon="-0.61287">
        <ele>56.37</ele>
        <time>2020-10-18T10:43:47Z</time>
      </trkpt>
      <trkpt lat="44.65719" lon="-0.61231">
        <ele>55.41</ele>
        <time>2020-10-18T10:43:59Z</time>
      </trkpt>
      <trkpt lat="44.65716" lon="-0.61212">
        <ele>55.89</ele>
        <time>2020-10-18T10:44:06Z</time>
      </trkpt>
      <trkpt lat="44.6571" lon="-0.61214">
        <ele>55.89</ele>
        <time>2020-10-18T10:44:09Z</time>
      </trkpt>
      <trkpt lat="44.65701" lon="-0.61219">
        <ele>56.37</ele>
        <time>2020-10-18T10:44:13Z</time>
      </trkpt>
      <trkpt lat="44.65653" lon="-0.61279">
        <ele>55.41</ele>
        <time>2020-10-18T10:44:26Z</time>
      </trkpt>
      <trkpt lat="44.65618" lon="-0.61323">
        <ele>55.41</ele>
        <time>2020-10-18T10:44:38Z</time>
      </trkpt>
      <trkpt lat="44.65574" lon="-0.61357">
        <ele>55.41</ele>
        <time>2020-10-18T10:44:52Z</time>
      </trkpt>
      <trkpt lat="44.65526" lon="-0.61355">
        <ele>56.37</ele>
        <time>2020-10-18T10:45:05Z</time>
      </trkpt>
      <trkpt lat="44.65496" lon="-0.61301">
        <ele>56.86</ele>
        <time>2020-10-18T10:45:18Z</time>
      </trkpt>
      <trkpt lat="44.65449" lon="-0.61235">
        <ele>56.86</ele>
        <time>2020-10-18T10:45:34Z</time>
      </trkpt>
      <trkpt lat="44.65398" lon="-0.61185">
        <ele>56.37</ele>
        <time>2020-10-18T10:45:50Z</time>
      </trkpt>
      <trkpt lat="44.65362" lon="-0.61134">
        <ele>56.86</ele>
        <time>2020-10-18T10:46:04Z</time>
      </trkpt>
      <trkpt lat="44.65339" lon="-0.61077">
        <ele>56.86</ele>
        <time>2020-10-18T10:46:15Z</time>
      </trkpt>
      <trkpt lat="44.65315" lon="-0.6102">
        <ele>56.86</ele>
        <time>2020-10-18T10:46:26Z</time>
      </trkpt>
      <trkpt lat="44.65281" lon="-0.60951">
        <ele>57.34</ele>
        <time>2020-10-18T10:46:40Z</time>
      </trkpt>
      <trkpt lat="44.65277" lon="-0.60942">
        <ele>56.86</ele>
        <time>2020-10-18T10:46:42Z</time>
      </trkpt>
      <trkpt lat="44.65271" lon="-0.60933">
        <ele>56.86</ele>
        <time>2020-10-18T10:46:44Z</time>
      </trkpt>
      <trkpt lat="44.65242" lon="-0.60876">
        <ele>56.37</ele>
        <time>2020-10-18T10:46:58Z</time>
      </trkpt>
      <trkpt lat="44.65211" lon="-0.60828">
        <ele>56.86</ele>
        <time>2020-10-18T10:47:12Z</time>
      </trkpt>
      <trkpt lat="44.65174" lon="-0.60752">
        <ele>55.41</ele>
        <time>2020-10-18T10:47:30Z</time>
      </trkpt>
      <trkpt lat="44.65152" lon="-0.60701">
        <ele>56.37</ele>
        <time>2020-10-18T10:47:45Z</time>
      </trkpt>
      <trkpt lat="44.65145" lon="-0.60636">
        <ele>56.37</ele>
        <time>2020-10-18T10:47:59Z</time>
      </trkpt>
      <trkpt lat="44.65141" lon="-0.60613">
        <ele>54.93</ele>
        <time>2020-10-18T10:48:11Z</time>
      </trkpt>
      <trkpt lat="44.65139" lon="-0.60623">
        <ele>54.93</ele>
        <time>2020-10-18T10:48:13Z</time>
      </trkpt>
      <trkpt lat="44.6514" lon="-0.60626">
        <ele>54.93</ele>
        <time>2020-10-18T10:48:14Z</time>
      </trkpt>
      <trkpt lat="44.65123" lon="-0.60695">
        <ele>54.93</ele>
        <time>2020-10-18T10:48:24Z</time>
      </trkpt>
      <trkpt lat="44.65097" lon="-0.60757">
        <ele>52.05</ele>
        <time>2020-10-18T10:48:33Z</time>
      </trkpt>
      <trkpt lat="44.65094" lon="-0.60764">
        <ele>52.05</ele>
        <time>2020-10-18T10:48:34Z</time>
      </trkpt>
      <trkpt lat="44.65052" lon="-0.60824">
        <ele>49.65</ele>
        <time>2020-10-18T10:48:43Z</time>
      </trkpt>
      <trkpt lat="44.64965" lon="-0.609">
        <ele>47.24</ele>
        <time>2020-10-18T10:48:57Z</time>
      </trkpt>
      <trkpt lat="44.64914" lon="-0.60935">
        <ele>46.28</ele>
        <time>2020-10-18T10:49:09Z</time>
      </trkpt>
      <trkpt lat="44.64912" lon="-0.60935">
        <ele>46.28</ele>
        <time>2020-10-18T10:49:10Z</time>
      </trkpt>
      <trkpt lat="44.64911" lon="-0.60935">
        <ele>46.28</ele>
        <time>2020-10-18T10:49:11Z</time>
      </trkpt>
      <trkpt lat="44.6491" lon="-0.60933">
        <ele>46.28</ele>
        <time>2020-10-18T10:49:12Z</time>
      </trkpt>
      <trkpt lat="44.64909" lon="-0.60932">
        <ele>45.8</ele>
        <time>2020-10-18T10:49:13Z</time>
      </trkpt>
      <trkpt lat="44.64913" lon="-0.60903">
        <ele>42.92</ele>
        <time>2020-10-18T10:49:23Z</time>
      </trkpt>
      <trkpt lat="44.64915" lon="-0.60892">
        <ele>41.95</ele>
        <time>2020-10-18T10:49:35Z</time>
      </trkpt>
      <trkpt lat="44.64908" lon="-0.60894">
        <ele>43.4</ele>
        <time>2020-10-18T10:49:49Z</time>
      </trkpt>
      <trkpt lat="44.64899" lon="-0.609">
        <ele>42.92</ele>
        <time>2020-10-18T10:50:00Z</time>
      </trkpt>
      <trkpt lat="44.64893" lon="-0.60904">
        <ele>43.88</ele>
        <time>2020-10-18T10:50:10Z</time>
      </trkpt>
      <trkpt lat="44.64888" lon="-0.60911">
        <ele>43.88</ele>
        <time>2020-10-18T10:50:16Z</time>
      </trkpt>
      <trkpt lat="44.64887" lon="-0.60912">
        <ele>44.36</ele>
        <time>2020-10-18T10:50:17Z</time>
      </trkpt>
      <trkpt lat="44.64872" lon="-0.60921">
        <ele>42.92</ele>
        <time>2020-10-18T10:50:30Z</time>
      </trkpt>
      <trkpt lat="44.6487" lon="-0.6092">
        <ele>42.44</ele>
        <time>2020-10-18T10:50:49Z</time>
      </trkpt>
      <trkpt lat="44.6487" lon="-0.6092">
        <ele>42.44</ele>
        <time>2020-10-18T10:51:17Z</time>
      </trkpt>
      <trkpt lat="44.6487" lon="-0.6092">
        <ele>42.44</ele>
        <time>2020-10-18T10:51:36Z</time>
      </trkpt>
      <trkpt lat="44.6487" lon="-0.6092">
        <ele>42.92</ele>
        <time>2020-10-18T10:51:58Z</time>
      </trkpt>
      <trkpt lat="44.6487" lon="-0.6092">
        <ele>42.44</ele>
        <time>2020-10-18T10:52:31Z</time>
      </trkpt>
      <trkpt lat="44.6487" lon="-0.6092">
        <ele>42.92</ele>
        <time>2020-10-18T10:52:54Z</time>
      </trkpt>
      <trkpt lat="44.64871" lon="-0.6092">
        <ele>43.4</ele>
        <time>2020-10-18T10:53:11Z</time>
      </trkpt>
      <trkpt lat="44.64869" lon="-0.60917">
        <ele>42.92</ele>
        <time>2020-10-18T10:53:29Z</time>
      </trkpt>
      <trkpt lat="44.64868" lon="-0.60917">
        <ele>42.92</ele>
        <time>2020-10-18T10:53:51Z</time>
      </trkpt>
      <trkpt lat="44.64868" lon="-0.60917">
        <ele>42.92</ele>
        <time>2020-10-18T10:54:07Z</time>
      </trkpt>
      <trkpt lat="44.64869" lon="-0.60918">
        <ele>43.4</ele>
        <time>2020-10-18T10:54:26Z</time>
      </trkpt>
      <trkpt lat="44.64868" lon="-0.60917">
        <ele>42.92</ele>
        <time>2020-10-18T10:54:45Z</time>
      </trkpt>
      <trkpt lat="44.64869" lon="-0.60916">
        <ele>42.92</ele>
        <time>2020-10-18T10:55:02Z</time>
      </trkpt>
      <trkpt lat="44.64869" lon="-0.60915">
        <ele>42.92</ele>
        <time>2020-10-18T10:55:23Z</time>
      </trkpt>
      <trkpt lat="44.6487" lon="-0.60915">
        <ele>42.44</ele>
        <time>2020-10-18T10:55:41Z</time>
      </trkpt>
      <trkpt lat="44.64871" lon="-0.60916">
        <ele>42.92</ele>
        <time>2020-10-18T10:55:50Z</time>
      </trkpt>
      <trkpt lat="44.64872" lon="-0.60919">
        <ele>42.92</ele>
        <time>2020-10-18T10:56:07Z</time>
      </trkpt>
      <trkpt lat="44.64872" lon="-0.60918">
        <ele>42.92</ele>
        <time>2020-10-18T10:56:26Z</time>
      </trkpt>
      <trkpt lat="44.64872" lon="-0.60917">
        <ele>42.92</ele>
        <time>2020-10-18T10:56:50Z</time>
      </trkpt>
      <trkpt lat="44.64872" lon="-0.60915">
        <ele>42.92</ele>
        <time>2020-10-18T10:56:54Z</time>
      </trkpt>
      <trkpt lat="44.64871" lon="-0.60911">
        <ele>43.4</ele>
        <time>2020-10-18T10:56:57Z</time>
      </trkpt>
      <trkpt lat="44.64871" lon="-0.60914">
        <ele>42.92</ele>
        <time>2020-10-18T10:57:10Z</time>
      </trkpt>
      <trkpt lat="44.64871" lon="-0.60915">
        <ele>42.92</ele>
        <time>2020-10-18T10:57:27Z</time>
      </trkpt>
      <trkpt lat="44.64871" lon="-0.60913">
        <ele>42.92</ele>
        <time>2020-10-18T10:57:45Z</time>
      </trkpt>
      <trkpt lat="44.64871" lon="-0.60913">
        <ele>42.92</ele>
        <time>2020-10-18T10:58:05Z</time>
      </trkpt>
      <trkpt lat="44.64871" lon="-0.60913">
        <ele>42.92</ele>
        <time>2020-10-18T10:58:31Z</time>
      </trkpt>
      <trkpt lat="44.64872" lon="-0.60914">
        <ele>42.44</ele>
        <time>2020-10-18T10:58:49Z</time>
      </trkpt>
      <trkpt lat="44.64871" lon="-0.60914">
        <ele>42.92</ele>
        <time>2020-10-18T10:58:53Z</time>
      </trkpt>
      <trkpt lat="44.6487" lon="-0.60911">
        <ele>42.44</ele>
        <time>2020-10-18T10:59:16Z</time>
      </trkpt>
      <trkpt lat="44.6487" lon="-0.6091">
        <ele>42.44</ele>
        <time>2020-10-18T10:59:40Z</time>
      </trkpt>
      <trkpt lat="44.6487" lon="-0.6091">
        <ele>42.44</ele>
        <time>2020-10-18T11:00:07Z</time>
      </trkpt>
      <trkpt lat="44.6487" lon="-0.6091">
        <ele>42.92</ele>
        <time>2020-10-18T11:00:34Z</time>
      </trkpt>
      <trkpt lat="44.64871" lon="-0.6091">
        <ele>43.4</ele>
        <time>2020-10-18T11:01:02Z</time>
      </trkpt>
      <trkpt lat="44.6487" lon="-0.60911">
        <ele>42.44</ele>
        <time>2020-10-18T11:01:30Z</time>
      </trkpt>
      <trkpt lat="44.64869" lon="-0.60908">
        <ele>41.95</ele>
        <time>2020-10-18T11:01:45Z</time>
      </trkpt>
      <trkpt lat="44.64869" lon="-0.60908">
        <ele>42.92</ele>
        <time>2020-10-18T11:02:15Z</time>
      </trkpt>
      <trkpt lat="44.64869" lon="-0.6091">
        <ele>42.44</ele>
        <time>2020-10-18T11:02:41Z</time>
      </trkpt>
      <trkpt lat="44.6487" lon="-0.60912">
        <ele>42.44</ele>
        <time>2020-10-18T11:02:45Z</time>
      </trkpt>
      <trkpt lat="44.64871" lon="-0.60918">
        <ele>42.44</ele>
        <time>2020-10-18T11:03:02Z</time>
      </trkpt>
      <trkpt lat="44.6487" lon="-0.60912">
        <ele>42.44</ele>
        <time>2020-10-18T11:03:22Z</time>
      </trkpt>
      <trkpt lat="44.6487" lon="-0.60909">
        <ele>42.44</ele>
        <time>2020-10-18T11:03:40Z</time>
      </trkpt>
      <trkpt lat="44.6487" lon="-0.60911">
        <ele>42.92</ele>
        <time>2020-10-18T11:04:06Z</time>
      </trkpt>
      <trkpt lat="44.64871" lon="-0.60909">
        <ele>43.4</ele>
        <time>2020-10-18T11:04:32Z</time>
      </trkpt>
      <trkpt lat="44.64871" lon="-0.60909">
        <ele>43.4</ele>
        <time>2020-10-18T11:04:54Z</time>
      </trkpt>
      <trkpt lat="44.6487" lon="-0.60909">
        <ele>42.92</ele>
        <time>2020-10-18T11:05:16Z</time>
      </trkpt>
      <trkpt lat="44.6486" lon="-0.60896">
        <ele>44.36</ele>
        <time>2020-10-18T11:05:34Z</time>
      </trkpt>
      <trkpt lat="44.64859" lon="-0.60892">
        <ele>45.32</ele>
        <time>2020-10-18T11:05:39Z</time>
      </trkpt>
      <trkpt lat="44.64854" lon="-0.60876">
        <ele>46.76</ele>
        <time>2020-10-18T11:05:54Z</time>
      </trkpt>
      <trkpt lat="44.64854" lon="-0.60875">
        <ele>46.76</ele>
        <time>2020-10-18T11:05:57Z</time>
      </trkpt>
      <trkpt lat="44.64846" lon="-0.60857">
        <ele>48.68</ele>
        <time>2020-10-18T11:06:12Z</time>
      </trkpt>
      <trkpt lat="44.64841" lon="-0.60844">
        <ele>51.09</ele>
        <time>2020-10-18T11:06:27Z</time>
      </trkpt>
      <trkpt lat="44.6484" lon="-0.60841">
        <ele>51.57</ele>
        <time>2020-10-18T11:06:30Z</time>
      </trkpt>
      <trkpt lat="44.64836" lon="-0.6083">
        <ele>51.57</ele>
        <time>2020-10-18T11:06:46Z</time>
      </trkpt>
      <trkpt lat="44.64834" lon="-0.60827">
        <ele>51.57</ele>
        <time>2020-10-18T11:07:08Z</time>
      </trkpt>
      <trkpt lat="44.64827" lon="-0.60811">
        <ele>51.57</ele>
        <time>2020-10-18T11:07:15Z</time>
      </trkpt>
      <trkpt lat="44.64814" lon="-0.60782">
        <ele>51.09</ele>
        <time>2020-10-18T11:07:27Z</time>
      </trkpt>
      <trkpt lat="44.64788" lon="-0.60787">
        <ele>51.57</ele>
        <time>2020-10-18T11:07:41Z</time>
      </trkpt>
      <trkpt lat="44.64756" lon="-0.60799">
        <ele>51.57</ele>
        <time>2020-10-18T11:07:55Z</time>
      </trkpt>
      <trkpt lat="44.64743" lon="-0.60803">
        <ele>51.57</ele>
        <time>2020-10-18T11:08:02Z</time>
      </trkpt>
      <trkpt lat="44.64725" lon="-0.60812">
        <ele>52.05</ele>
        <time>2020-10-18T11:08:15Z</time>
      </trkpt>
      <trkpt lat="44.64725" lon="-0.60812">
        <ele>52.53</ele>
        <time>2020-10-18T11:08:45Z</time>
      </trkpt>
      <trkpt lat="44.64724" lon="-0.60813">
        <ele>52.05</ele>
        <time>2020-10-18T11:09:00Z</time>
      </trkpt>
      <trkpt lat="44.64718" lon="-0.60816">
        <ele>52.05</ele>
        <time>2020-10-18T11:09:04Z</time>
      </trkpt>
      <trkpt lat="44.64684" lon="-0.60842">
        <ele>52.53</ele>
        <time>2020-10-18T11:09:17Z</time>
      </trkpt>
      <trkpt lat="44.64652" lon="-0.60831">
        <ele>53.01</ele>
        <time>2020-10-18T11:09:29Z</time>
      </trkpt>
      <trkpt lat="44.6461" lon="-0.60818">
        <ele>53.01</ele>
        <time>2020-10-18T11:09:45Z</time>
      </trkpt>
      <trkpt lat="44.64579" lon="-0.60777">
        <ele>53.49</ele>
        <time>2020-10-18T11:10:00Z</time>
      </trkpt>
      <trkpt lat="44.64555" lon="-0.60743">
        <ele>53.97</ele>
        <time>2020-10-18T11:10:13Z</time>
      </trkpt>
      <trkpt lat="44.64515" lon="-0.60723">
        <ele>53.97</ele>
        <time>2020-10-18T11:10:27Z</time>
      </trkpt>
      <trkpt lat="44.64484" lon="-0.60711">
        <ele>54.45</ele>
        <time>2020-10-18T11:10:41Z</time>
      </trkpt>
      <trkpt lat="44.64453" lon="-0.60681">
        <ele>54.45</ele>
        <time>2020-10-18T11:10:53Z</time>
      </trkpt>
      <trkpt lat="44.64442" lon="-0.60628">
        <ele>53.97</ele>
        <time>2020-10-18T11:11:07Z</time>
      </trkpt>
      <trkpt lat="44.64464" lon="-0.60594">
        <ele>53.49</ele>
        <time>2020-10-18T11:11:19Z</time>
      </trkpt>
      <trkpt lat="44.64483" lon="-0.60564">
        <ele>53.49</ele>
        <time>2020-10-18T11:11:32Z</time>
      </trkpt>
      <trkpt lat="44.64495" lon="-0.60513">
        <ele>54.45</ele>
        <time>2020-10-18T11:11:47Z</time>
      </trkpt>
      <trkpt lat="44.64523" lon="-0.60452">
        <ele>53.97</ele>
        <time>2020-10-18T11:12:03Z</time>
      </trkpt>
      <trkpt lat="44.64544" lon="-0.60396">
        <ele>53.97</ele>
        <time>2020-10-18T11:12:16Z</time>
      </trkpt>
      <trkpt lat="44.64557" lon="-0.60321">
        <ele>53.49</ele>
        <time>2020-10-18T11:12:31Z</time>
      </trkpt>
      <trkpt lat="44.64553" lon="-0.60251">
        <ele>54.45</ele>
        <time>2020-10-18T11:12:46Z</time>
      </trkpt>
      <trkpt lat="44.64542" lon="-0.60187">
        <ele>53.97</ele>
        <time>2020-10-18T11:12:59Z</time>
      </trkpt>
      <trkpt lat="44.64532" lon="-0.60116">
        <ele>53.49</ele>
        <time>2020-10-18T11:13:13Z</time>
      </trkpt>
      <trkpt lat="44.6452" lon="-0.60048">
        <ele>53.01</ele>
        <time>2020-10-18T11:13:28Z</time>
      </trkpt>
      <trkpt lat="44.64516" lon="-0.5998">
        <ele>53.49</ele>
        <time>2020-10-18T11:13:42Z</time>
      </trkpt>
      <trkpt lat="44.64505" lon="-0.59918">
        <ele>53.97</ele>
        <time>2020-10-18T11:13:55Z</time>
      </trkpt>
      <trkpt lat="44.64502" lon="-0.59847">
        <ele>52.53</ele>
        <time>2020-10-18T11:14:10Z</time>
      </trkpt>
      <trkpt lat="44.64504" lon="-0.59837">
        <ele>53.49</ele>
        <time>2020-10-18T11:14:13Z</time>
      </trkpt>
      <trkpt lat="44.64512" lon="-0.59826">
        <ele>53.01</ele>
        <time>2020-10-18T11:14:17Z</time>
      </trkpt>
      <trkpt lat="44.64542" lon="-0.59782">
        <ele>52.53</ele>
        <time>2020-10-18T11:14:30Z</time>
      </trkpt>
      <trkpt lat="44.64559" lon="-0.5975">
        <ele>52.05</ele>
        <time>2020-10-18T11:14:42Z</time>
      </trkpt>
      <trkpt lat="44.64516" lon="-0.5972">
        <ele>51.57</ele>
        <time>2020-10-18T11:14:54Z</time>
      </trkpt>
      <trkpt lat="44.64472" lon="-0.59687">
        <ele>53.01</ele>
        <time>2020-10-18T11:15:07Z</time>
      </trkpt>
      <trkpt lat="44.64425" lon="-0.59645">
        <ele>50.61</ele>
        <time>2020-10-18T11:15:20Z</time>
      </trkpt>
      <trkpt lat="44.64415" lon="-0.59637">
        <ele>50.13</ele>
        <time>2020-10-18T11:15:22Z</time>
      </trkpt>
      <trkpt lat="44.64395" lon="-0.59618">
        <ele>49.65</ele>
        <time>2020-10-18T11:15:27Z</time>
      </trkpt>
      <trkpt lat="44.64391" lon="-0.59615">
        <ele>50.13</ele>
        <time>2020-10-18T11:15:28Z</time>
      </trkpt>
      <trkpt lat="44.64361" lon="-0.59591">
        <ele>52.53</ele>
        <time>2020-10-18T11:15:38Z</time>
      </trkpt>
      <trkpt lat="44.64346" lon="-0.59583">
        <ele>52.53</ele>
        <time>2020-10-18T11:15:43Z</time>
      </trkpt>
      <trkpt lat="44.64342" lon="-0.59583">
        <ele>52.53</ele>
        <time>2020-10-18T11:15:44Z</time>
      </trkpt>
      <trkpt lat="44.64338" lon="-0.59582">
        <ele>52.05</ele>
        <time>2020-10-18T11:15:45Z</time>
      </trkpt>
      <trkpt lat="44.64335" lon="-0.59581">
        <ele>53.01</ele>
        <time>2020-10-18T11:15:46Z</time>
      </trkpt>
      <trkpt lat="44.64332" lon="-0.59581">
        <ele>53.49</ele>
        <time>2020-10-18T11:15:47Z</time>
      </trkpt>
      <trkpt lat="44.64328" lon="-0.59581">
        <ele>53.49</ele>
        <time>2020-10-18T11:15:48Z</time>
      </trkpt>
      <trkpt lat="44.64324" lon="-0.59581">
        <ele>53.49</ele>
        <time>2020-10-18T11:15:49Z</time>
      </trkpt>
      <trkpt lat="44.6432" lon="-0.5958">
        <ele>53.49</ele>
        <time>2020-10-18T11:15:50Z</time>
      </trkpt>
      <trkpt lat="44.64316" lon="-0.59581">
        <ele>53.97</ele>
        <time>2020-10-18T11:15:51Z</time>
      </trkpt>
      <trkpt lat="44.64312" lon="-0.59582">
        <ele>54.45</ele>
        <time>2020-10-18T11:15:52Z</time>
      </trkpt>
      <trkpt lat="44.64308" lon="-0.59581">
        <ele>53.97</ele>
        <time>2020-10-18T11:15:53Z</time>
      </trkpt>
      <trkpt lat="44.64305" lon="-0.59581">
        <ele>54.45</ele>
        <time>2020-10-18T11:15:54Z</time>
      </trkpt>
      <trkpt lat="44.64301" lon="-0.59581">
        <ele>53.97</ele>
        <time>2020-10-18T11:15:55Z</time>
      </trkpt>
      <trkpt lat="44.64298" lon="-0.59581">
        <ele>53.97</ele>
        <time>2020-10-18T11:15:56Z</time>
      </trkpt>
      <trkpt lat="44.64295" lon="-0.59581">
        <ele>53.97</ele>
        <time>2020-10-18T11:15:57Z</time>
      </trkpt>
      <trkpt lat="44.64282" lon="-0.59581">
        <ele>53.97</ele>
        <time>2020-10-18T11:16:02Z</time>
      </trkpt>
      <trkpt lat="44.6428" lon="-0.59578">
        <ele>53.97</ele>
        <time>2020-10-18T11:16:03Z</time>
      </trkpt>
      <trkpt lat="44.64278" lon="-0.59574">
        <ele>53.97</ele>
        <time>2020-10-18T11:16:04Z</time>
      </trkpt>
      <trkpt lat="44.64278" lon="-0.5957">
        <ele>53.97</ele>
        <time>2020-10-18T11:16:05Z</time>
      </trkpt>
      <trkpt lat="44.64278" lon="-0.59565">
        <ele>54.45</ele>
        <time>2020-10-18T11:16:06Z</time>
      </trkpt>
      <trkpt lat="44.6428" lon="-0.59562">
        <ele>54.45</ele>
        <time>2020-10-18T11:16:07Z</time>
      </trkpt>
      <trkpt lat="44.64281" lon="-0.59559">
        <ele>54.45</ele>
        <time>2020-10-18T11:16:08Z</time>
      </trkpt>
      <trkpt lat="44.64284" lon="-0.59556">
        <ele>53.97</ele>
        <time>2020-10-18T11:16:09Z</time>
      </trkpt>
      <trkpt lat="44.64301" lon="-0.59522">
        <ele>53.49</ele>
        <time>2020-10-18T11:16:19Z</time>
      </trkpt>
      <trkpt lat="44.64325" lon="-0.59466">
        <ele>53.01</ele>
        <time>2020-10-18T11:16:34Z</time>
      </trkpt>
      <trkpt lat="44.64348" lon="-0.59396">
        <ele>52.05</ele>
        <time>2020-10-18T11:16:49Z</time>
      </trkpt>
      <trkpt lat="44.64383" lon="-0.5934">
        <ele>52.53</ele>
        <time>2020-10-18T11:17:04Z</time>
      </trkpt>
      <trkpt lat="44.64411" lon="-0.59279">
        <ele>52.53</ele>
        <time>2020-10-18T11:17:19Z</time>
      </trkpt>
      <trkpt lat="44.64436" lon="-0.59219">
        <ele>52.53</ele>
        <time>2020-10-18T11:17:34Z</time>
      </trkpt>
      <trkpt lat="44.64447" lon="-0.59165">
        <ele>52.53</ele>
        <time>2020-10-18T11:17:48Z</time>
      </trkpt>
      <trkpt lat="44.64447" lon="-0.59165">
        <ele>52.05</ele>
        <time>2020-10-18T11:18:15Z</time>
      </trkpt>
      <trkpt lat="44.64447" lon="-0.59166">
        <ele>52.05</ele>
        <time>2020-10-18T11:18:55Z</time>
      </trkpt>
      <trkpt lat="44.64447" lon="-0.59165">
        <ele>53.01</ele>
        <time>2020-10-18T11:19:33Z</time>
      </trkpt>
      <trkpt lat="44.64448" lon="-0.59162">
        <ele>52.05</ele>
        <time>2020-10-18T11:19:49Z</time>
      </trkpt>
      <trkpt lat="44.64451" lon="-0.59155">
        <ele>52.05</ele>
        <time>2020-10-18T11:19:56Z</time>
      </trkpt>
      <trkpt lat="44.64452" lon="-0.59153">
        <ele>52.05</ele>
        <time>2020-10-18T11:20:11Z</time>
      </trkpt>
      <trkpt lat="44.64452" lon="-0.59154">
        <ele>52.05</ele>
        <time>2020-10-18T11:20:31Z</time>
      </trkpt>
      <trkpt lat="44.64452" lon="-0.59155">
        <ele>53.01</ele>
        <time>2020-10-18T11:20:53Z</time>
      </trkpt>
      <trkpt lat="44.64452" lon="-0.59155">
        <ele>53.01</ele>
        <time>2020-10-18T11:21:17Z</time>
      </trkpt>
      <trkpt lat="44.64452" lon="-0.59155">
        <ele>52.53</ele>
        <time>2020-10-18T11:21:51Z</time>
      </trkpt>
      <trkpt lat="44.64452" lon="-0.59155">
        <ele>53.49</ele>
        <time>2020-10-18T11:22:09Z</time>
      </trkpt>
      <trkpt lat="44.64452" lon="-0.59155">
        <ele>53.01</ele>
        <time>2020-10-18T11:22:38Z</time>
      </trkpt>
      <trkpt lat="44.64452" lon="-0.59155">
        <ele>53.01</ele>
        <time>2020-10-18T11:23:00Z</time>
      </trkpt>
      <trkpt lat="44.64452" lon="-0.59156">
        <ele>53.01</ele>
        <time>2020-10-18T11:23:24Z</time>
      </trkpt>
      <trkpt lat="44.64452" lon="-0.59155">
        <ele>53.01</ele>
        <time>2020-10-18T11:23:54Z</time>
      </trkpt>
      <trkpt lat="44.64452" lon="-0.59155">
        <ele>53.01</ele>
        <time>2020-10-18T11:24:20Z</time>
      </trkpt>
      <trkpt lat="44.64452" lon="-0.59155">
        <ele>52.53</ele>
        <time>2020-10-18T11:24:42Z</time>
      </trkpt>
      <trkpt lat="44.64452" lon="-0.59154">
        <ele>53.01</ele>
        <time>2020-10-18T11:25:02Z</time>
      </trkpt>
      <trkpt lat="44.64452" lon="-0.59154">
        <ele>52.53</ele>
        <time>2020-10-18T11:25:35Z</time>
      </trkpt>
      <trkpt lat="44.64453" lon="-0.59154">
        <ele>52.53</ele>
        <time>2020-10-18T11:26:01Z</time>
      </trkpt>
      <trkpt lat="44.64452" lon="-0.59154">
        <ele>53.01</ele>
        <time>2020-10-18T11:26:25Z</time>
      </trkpt>
      <trkpt lat="44.64452" lon="-0.59154">
        <ele>53.01</ele>
        <time>2020-10-18T11:26:28Z</time>
      </trkpt>
      <trkpt lat="44.64452" lon="-0.59152">
        <ele>53.01</ele>
        <time>2020-10-18T11:26:29Z</time>
      </trkpt>
      <trkpt lat="44.64453" lon="-0.5915">
        <ele>53.01</ele>
        <time>2020-10-18T11:26:30Z</time>
      </trkpt>
      <trkpt lat="44.64453" lon="-0.59148">
        <ele>53.01</ele>
        <time>2020-10-18T11:26:32Z</time>
      </trkpt>
      <trkpt lat="44.64463" lon="-0.59112">
        <ele>52.53</ele>
        <time>2020-10-18T11:26:45Z</time>
      </trkpt>
      <trkpt lat="44.64475" lon="-0.59062">
        <ele>52.05</ele>
        <time>2020-10-18T11:26:59Z</time>
      </trkpt>
      <trkpt lat="44.64486" lon="-0.59007">
        <ele>52.05</ele>
        <time>2020-10-18T11:27:13Z</time>
      </trkpt>
      <trkpt lat="44.64497" lon="-0.58964">
        <ele>52.53</ele>
        <time>2020-10-18T11:27:25Z</time>
      </trkpt>
      <trkpt lat="44.64482" lon="-0.58922">
        <ele>52.53</ele>
        <time>2020-10-18T11:27:36Z</time>
      </trkpt>
      <trkpt lat="44.64481" lon="-0.58874">
        <ele>52.05</ele>
        <time>2020-10-18T11:27:48Z</time>
      </trkpt>
      <trkpt lat="44.64498" lon="-0.58801">
        <ele>52.05</ele>
        <time>2020-10-18T11:28:02Z</time>
      </trkpt>
      <trkpt lat="44.64508" lon="-0.58737">
        <ele>52.53</ele>
        <time>2020-10-18T11:28:17Z</time>
      </trkpt>
      <trkpt lat="44.64521" lon="-0.5869">
        <ele>51.57</ele>
        <time>2020-10-18T11:28:28Z</time>
      </trkpt>
      <trkpt lat="44.64538" lon="-0.58634">
        <ele>52.05</ele>
        <time>2020-10-18T11:28:40Z</time>
      </trkpt>
      <trkpt lat="44.64552" lon="-0.58577">
        <ele>52.53</ele>
        <time>2020-10-18T11:28:53Z</time>
      </trkpt>
      <trkpt lat="44.64573" lon="-0.58526">
        <ele>52.53</ele>
        <time>2020-10-18T11:29:05Z</time>
      </trkpt>
      <trkpt lat="44.64563" lon="-0.58486">
        <ele>53.49</ele>
        <time>2020-10-18T11:29:16Z</time>
      </trkpt>
      <trkpt lat="44.64536" lon="-0.58429">
        <ele>54.93</ele>
        <time>2020-10-18T11:29:30Z</time>
      </trkpt>
      <trkpt lat="44.64518" lon="-0.58366">
        <ele>55.41</ele>
        <time>2020-10-18T11:29:42Z</time>
      </trkpt>
      <trkpt lat="44.645" lon="-0.58312">
        <ele>55.41</ele>
        <time>2020-10-18T11:29:53Z</time>
      </trkpt>
      <trkpt lat="44.64476" lon="-0.58254">
        <ele>55.89</ele>
        <time>2020-10-18T11:30:05Z</time>
      </trkpt>
      <trkpt lat="44.6445" lon="-0.58204">
        <ele>56.86</ele>
        <time>2020-10-18T11:30:17Z</time>
      </trkpt>
      <trkpt lat="44.64422" lon="-0.58142">
        <ele>55.89</ele>
        <time>2020-10-18T11:30:31Z</time>
      </trkpt>
      <trkpt lat="44.64417" lon="-0.58069">
        <ele>55.41</ele>
        <time>2020-10-18T11:30:44Z</time>
      </trkpt>
      <trkpt lat="44.64474" lon="-0.58024">
        <ele>54.93</ele>
        <time>2020-10-18T11:30:58Z</time>
      </trkpt>
      <trkpt lat="44.64513" lon="-0.58008">
        <ele>54.93</ele>
        <time>2020-10-18T11:31:11Z</time>
      </trkpt>
      <trkpt lat="44.64552" lon="-0.5803">
        <ele>54.45</ele>
        <time>2020-10-18T11:31:25Z</time>
      </trkpt>
      <trkpt lat="44.64584" lon="-0.58036">
        <ele>53.97</ele>
        <time>2020-10-18T11:31:39Z</time>
      </trkpt>
      <trkpt lat="44.6459" lon="-0.58031">
        <ele>53.97</ele>
        <time>2020-10-18T11:31:43Z</time>
      </trkpt>
      <trkpt lat="44.64596" lon="-0.58024">
        <ele>53.97</ele>
        <time>2020-10-18T11:32:03Z</time>
      </trkpt>
      <trkpt lat="44.64597" lon="-0.58023">
        <ele>54.45</ele>
        <time>2020-10-18T11:32:31Z</time>
      </trkpt>
      <trkpt lat="44.64597" lon="-0.58023">
        <ele>53.97</ele>
        <time>2020-10-18T11:33:11Z</time>
      </trkpt>
      <trkpt lat="44.64597" lon="-0.58023">
        <ele>54.45</ele>
        <time>2020-10-18T11:33:44Z</time>
      </trkpt>
      <trkpt lat="44.64597" lon="-0.58023">
        <ele>54.45</ele>
        <time>2020-10-18T11:34:25Z</time>
      </trkpt>
      <trkpt lat="44.64599" lon="-0.58023">
        <ele>54.45</ele>
        <time>2020-10-18T11:35:03Z</time>
      </trkpt>
      <trkpt lat="44.64601" lon="-0.58023">
        <ele>54.93</ele>
        <time>2020-10-18T11:35:24Z</time>
      </trkpt>
      <trkpt lat="44.64612" lon="-0.58019">
        <ele>54.93</ele>
        <time>2020-10-18T11:35:43Z</time>
      </trkpt>
      <trkpt lat="44.64613" lon="-0.58019">
        <ele>55.41</ele>
        <time>2020-10-18T11:35:44Z</time>
      </trkpt>
      <trkpt lat="44.64618" lon="-0.58018">
        <ele>55.41</ele>
        <time>2020-10-18T11:35:47Z</time>
      </trkpt>
      <trkpt lat="44.6462" lon="-0.58018">
        <ele>55.41</ele>
        <time>2020-10-18T11:35:49Z</time>
      </trkpt>
      <trkpt lat="44.64644" lon="-0.58016">
        <ele>54.93</ele>
        <time>2020-10-18T11:36:03Z</time>
      </trkpt>
      <trkpt lat="44.64701" lon="-0.57997">
        <ele>54.45</ele>
        <time>2020-10-18T11:36:18Z</time>
      </trkpt>
      <trkpt lat="44.64762" lon="-0.57979">
        <ele>53.97</ele>
        <time>2020-10-18T11:36:33Z</time>
      </trkpt>
      <trkpt lat="44.64803" lon="-0.57947">
        <ele>53.97</ele>
        <time>2020-10-18T11:36:48Z</time>
      </trkpt>
      <trkpt lat="44.64811" lon="-0.57906">
        <ele>53.01</ele>
        <time>2020-10-18T11:37:00Z</time>
      </trkpt>
      <trkpt lat="44.6481" lon="-0.57855">
        <ele>53.01</ele>
        <time>2020-10-18T11:37:14Z</time>
      </trkpt>
      <trkpt lat="44.64816" lon="-0.57796">
        <ele>53.49</ele>
        <time>2020-10-18T11:37:25Z</time>
      </trkpt>
      <trkpt lat="44.64825" lon="-0.5774">
        <ele>52.05</ele>
        <time>2020-10-18T11:37:34Z</time>
      </trkpt>
      <trkpt lat="44.64824" lon="-0.5768">
        <ele>51.09</ele>
        <time>2020-10-18T11:37:42Z</time>
      </trkpt>
      <trkpt lat="44.64824" lon="-0.57673">
        <ele>51.09</ele>
        <time>2020-10-18T11:37:43Z</time>
      </trkpt>
      <trkpt lat="44.64824" lon="-0.57668">
        <ele>51.57</ele>
        <time>2020-10-18T11:37:44Z</time>
      </trkpt>
      <trkpt lat="44.6482" lon="-0.5762">
        <ele>52.53</ele>
        <time>2020-10-18T11:37:53Z</time>
      </trkpt>
      <trkpt lat="44.64817" lon="-0.57584">
        <ele>53.97</ele>
        <time>2020-10-18T11:38:01Z</time>
      </trkpt>
      <trkpt lat="44.64819" lon="-0.5758">
        <ele>53.49</ele>
        <time>2020-10-18T11:38:02Z</time>
      </trkpt>
      <trkpt lat="44.64835" lon="-0.57539">
        <ele>54.93</ele>
        <time>2020-10-18T11:38:12Z</time>
      </trkpt>
      <trkpt lat="44.6485" lon="-0.57509">
        <ele>55.41</ele>
        <time>2020-10-18T11:38:21Z</time>
      </trkpt>
      <trkpt lat="44.64881" lon="-0.57483">
        <ele>54.93</ele>
        <time>2020-10-18T11:38:31Z</time>
      </trkpt>
      <trkpt lat="44.64919" lon="-0.57458">
        <ele>53.97</ele>
        <time>2020-10-18T11:38:42Z</time>
      </trkpt>
      <trkpt lat="44.64968" lon="-0.57407">
        <ele>53.49</ele>
        <time>2020-10-18T11:38:57Z</time>
      </trkpt>
      <trkpt lat="44.64986" lon="-0.57385">
        <ele>53.49</ele>
        <time>2020-10-18T11:39:02Z</time>
      </trkpt>
      <trkpt lat="44.64989" lon="-0.57381">
        <ele>52.53</ele>
        <time>2020-10-18T11:39:03Z</time>
      </trkpt>
      <trkpt lat="44.64993" lon="-0.57377">
        <ele>53.01</ele>
        <time>2020-10-18T11:39:04Z</time>
      </trkpt>
      <trkpt lat="44.65035" lon="-0.5733">
        <ele>52.05</ele>
        <time>2020-10-18T11:39:17Z</time>
      </trkpt>
      <trkpt lat="44.65066" lon="-0.57285">
        <ele>52.05</ele>
        <time>2020-10-18T11:39:29Z</time>
      </trkpt>
      <trkpt lat="44.65078" lon="-0.5723">
        <ele>52.05</ele>
        <time>2020-10-18T11:39:40Z</time>
      </trkpt>
      <trkpt lat="44.65101" lon="-0.57184">
        <ele>52.53</ele>
        <time>2020-10-18T11:39:51Z</time>
      </trkpt>
      <trkpt lat="44.65136" lon="-0.57135">
        <ele>52.53</ele>
        <time>2020-10-18T11:40:05Z</time>
      </trkpt>
      <trkpt lat="44.65187" lon="-0.57073">
        <ele>52.05</ele>
        <time>2020-10-18T11:40:21Z</time>
      </trkpt>
      <trkpt lat="44.65228" lon="-0.57025">
        <ele>50.13</ele>
        <time>2020-10-18T11:40:35Z</time>
      </trkpt>
      <trkpt lat="44.65289" lon="-0.56964">
        <ele>50.13</ele>
        <time>2020-10-18T11:40:51Z</time>
      </trkpt>
      <trkpt lat="44.6532" lon="-0.56945">
        <ele>50.13</ele>
        <time>2020-10-18T11:41:04Z</time>
      </trkpt>
      <trkpt lat="44.65353" lon="-0.56916">
        <ele>49.65</ele>
        <time>2020-10-18T11:41:17Z</time>
      </trkpt>
      <trkpt lat="44.654" lon="-0.56865">
        <ele>48.68</ele>
        <time>2020-10-18T11:41:32Z</time>
      </trkpt>
      <trkpt lat="44.6543" lon="-0.56817">
        <ele>48.68</ele>
        <time>2020-10-18T11:41:45Z</time>
      </trkpt>
      <trkpt lat="44.65471" lon="-0.56751">
        <ele>47.72</ele>
        <time>2020-10-18T11:42:01Z</time>
      </trkpt>
      <trkpt lat="44.65511" lon="-0.56668">
        <ele>46.76</ele>
        <time>2020-10-18T11:42:17Z</time>
      </trkpt>
      <trkpt lat="44.65559" lon="-0.56595">
        <ele>45.32</ele>
        <time>2020-10-18T11:42:32Z</time>
      </trkpt>
      <trkpt lat="44.65588" lon="-0.5656">
        <ele>44.84</ele>
        <time>2020-10-18T11:42:41Z</time>
      </trkpt>
      <trkpt lat="44.65635" lon="-0.56508">
        <ele>45.32</ele>
        <time>2020-10-18T11:42:56Z</time>
      </trkpt>
      <trkpt lat="44.65686" lon="-0.5643">
        <ele>46.28</ele>
        <time>2020-10-18T11:43:13Z</time>
      </trkpt>
      <trkpt lat="44.65729" lon="-0.56371">
        <ele>46.28</ele>
        <time>2020-10-18T11:43:27Z</time>
      </trkpt>
      <trkpt lat="44.65772" lon="-0.56309">
        <ele>45.32</ele>
        <time>2020-10-18T11:43:43Z</time>
      </trkpt>
      <trkpt lat="44.65791" lon="-0.56284">
        <ele>45.32</ele>
        <time>2020-10-18T11:43:57Z</time>
      </trkpt>
      <trkpt lat="44.65789" lon="-0.56283">
        <ele>44.84</ele>
        <time>2020-10-18T11:44:00Z</time>
      </trkpt>
      <trkpt lat="44.65793" lon="-0.56275">
        <ele>44.36</ele>
        <time>2020-10-18T11:44:08Z</time>
      </trkpt>
      <trkpt lat="44.65796" lon="-0.56273">
        <ele>43.88</ele>
        <time>2020-10-18T11:44:09Z</time>
      </trkpt>
      <trkpt lat="44.65799" lon="-0.56272">
        <ele>43.88</ele>
        <time>2020-10-18T11:44:10Z</time>
      </trkpt>
      <trkpt lat="44.65803" lon="-0.56271">
        <ele>44.36</ele>
        <time>2020-10-18T11:44:11Z</time>
      </trkpt>
      <trkpt lat="44.65806" lon="-0.56268">
        <ele>43.4</ele>
        <time>2020-10-18T11:44:12Z</time>
      </trkpt>
      <trkpt lat="44.65855" lon="-0.56236">
        <ele>43.88</ele>
        <time>2020-10-18T11:44:25Z</time>
      </trkpt>
      <trkpt lat="44.65904" lon="-0.56177">
        <ele>43.4</ele>
        <time>2020-10-18T11:44:40Z</time>
      </trkpt>
      <trkpt lat="44.65957" lon="-0.56116">
        <ele>42.44</ele>
        <time>2020-10-18T11:44:56Z</time>
      </trkpt>
      <trkpt lat="44.65965" lon="-0.56113">
        <ele>42.92</ele>
        <time>2020-10-18T11:45:07Z</time>
      </trkpt>
      <trkpt lat="44.6596" lon="-0.56106">
        <ele>42.44</ele>
        <time>2020-10-18T11:45:21Z</time>
      </trkpt>
      <trkpt lat="44.65958" lon="-0.56103">
        <ele>41.95</ele>
        <time>2020-10-18T11:45:35Z</time>
      </trkpt>
      <trkpt lat="44.65958" lon="-0.56103">
        <ele>41.95</ele>
        <time>2020-10-18T11:45:52Z</time>
      </trkpt>
      <trkpt lat="44.65956" lon="-0.561">
        <ele>42.44</ele>
        <time>2020-10-18T11:46:13Z</time>
      </trkpt>
      <trkpt lat="44.65957" lon="-0.56101">
        <ele>41.95</ele>
        <time>2020-10-18T11:46:33Z</time>
      </trkpt>
      <trkpt lat="44.6596" lon="-0.56106">
        <ele>42.44</ele>
        <time>2020-10-18T11:46:36Z</time>
      </trkpt>
      <trkpt lat="44.65985" lon="-0.56089">
        <ele>41.95</ele>
        <time>2020-10-18T11:46:49Z</time>
      </trkpt>
      <trkpt lat="44.66021" lon="-0.56042">
        <ele>41.47</ele>
        <time>2020-10-18T11:47:03Z</time>
      </trkpt>
      <trkpt lat="44.66025" lon="-0.55993">
        <ele>41.95</ele>
        <time>2020-10-18T11:47:18Z</time>
      </trkpt>
      <trkpt lat="44.66008" lon="-0.55934">
        <ele>41.95</ele>
        <time>2020-10-18T11:47:32Z</time>
      </trkpt>
      <trkpt lat="44.65993" lon="-0.55865">
        <ele>42.92</ele>
        <time>2020-10-18T11:47:47Z</time>
      </trkpt>
      <trkpt lat="44.65996" lon="-0.55838">
        <ele>42.44</ele>
        <time>2020-10-18T11:47:56Z</time>
      </trkpt>
      <trkpt lat="44.65996" lon="-0.55835">
        <ele>42.44</ele>
        <time>2020-10-18T11:48:22Z</time>
      </trkpt>
      <trkpt lat="44.65995" lon="-0.55835">
        <ele>42.92</ele>
        <time>2020-10-18T11:48:52Z</time>
      </trkpt>
      <trkpt lat="44.65996" lon="-0.55832">
        <ele>42.92</ele>
        <time>2020-10-18T11:49:27Z</time>
      </trkpt>
      <trkpt lat="44.65996" lon="-0.55831">
        <ele>42.92</ele>
        <time>2020-10-18T11:50:04Z</time>
      </trkpt>
      <trkpt lat="44.65997" lon="-0.55829">
        <ele>43.4</ele>
        <time>2020-10-18T11:50:42Z</time>
      </trkpt>
      <trkpt lat="44.65997" lon="-0.55829">
        <ele>42.92</ele>
        <time>2020-10-18T11:51:17Z</time>
      </trkpt>
      <trkpt lat="44.65997" lon="-0.55828">
        <ele>42.92</ele>
        <time>2020-10-18T11:51:45Z</time>
      </trkpt>
      <trkpt lat="44.65997" lon="-0.55828">
        <ele>43.4</ele>
        <time>2020-10-18T11:51:53Z</time>
      </trkpt>
      <trkpt lat="44.66002" lon="-0.5582">
        <ele>43.88</ele>
        <time>2020-10-18T11:51:57Z</time>
      </trkpt>
      <trkpt lat="44.66025" lon="-0.55779">
        <ele>43.88</ele>
        <time>2020-10-18T11:52:12Z</time>
      </trkpt>
      <trkpt lat="44.6606" lon="-0.55728">
        <ele>44.36</ele>
        <time>2020-10-18T11:52:28Z</time>
      </trkpt>
      <trkpt lat="44.66084" lon="-0.55666">
        <ele>44.36</ele>
        <time>2020-10-18T11:52:43Z</time>
      </trkpt>
      <trkpt lat="44.66097" lon="-0.55644">
        <ele>43.88</ele>
        <time>2020-10-18T11:52:57Z</time>
      </trkpt>
      <trkpt lat="44.661" lon="-0.55652">
        <ele>43.4</ele>
        <time>2020-10-18T11:53:04Z</time>
      </trkpt>
      <trkpt lat="44.66137" lon="-0.557">
        <ele>42.44</ele>
        <time>2020-10-18T11:53:19Z</time>
      </trkpt>
      <trkpt lat="44.66197" lon="-0.55746">
        <ele>40.03</ele>
        <time>2020-10-18T11:53:36Z</time>
      </trkpt>
      <trkpt lat="44.66271" lon="-0.55772">
        <ele>39.07</ele>
        <time>2020-10-18T11:53:51Z</time>
      </trkpt>
      <trkpt lat="44.66308" lon="-0.55714">
        <ele>40.03</ele>
        <time>2020-10-18T11:54:05Z</time>
      </trkpt>
      <trkpt lat="44.6632" lon="-0.55655">
        <ele>40.51</ele>
        <time>2020-10-18T11:54:20Z</time>
      </trkpt>
      <trkpt lat="44.66337" lon="-0.55596">
        <ele>40.51</ele>
        <time>2020-10-18T11:54:35Z</time>
      </trkpt>
      <trkpt lat="44.66363" lon="-0.555">
        <ele>39.07</ele>
        <time>2020-10-18T11:54:52Z</time>
      </trkpt>
      <trkpt lat="44.66402" lon="-0.55463">
        <ele>39.07</ele>
        <time>2020-10-18T11:55:07Z</time>
      </trkpt>
      <trkpt lat="44.66435" lon="-0.55413">
        <ele>39.07</ele>
        <time>2020-10-18T11:55:25Z</time>
      </trkpt>
      <trkpt lat="44.66458" lon="-0.55365">
        <ele>38.59</ele>
        <time>2020-10-18T11:55:41Z</time>
      </trkpt>
      <trkpt lat="44.66466" lon="-0.55354">
        <ele>38.11</ele>
        <time>2020-10-18T11:55:48Z</time>
      </trkpt>
      <trkpt lat="44.6648" lon="-0.55311">
        <ele>38.11</ele>
        <time>2020-10-18T11:56:03Z</time>
      </trkpt>
      <trkpt lat="44.66504" lon="-0.5528">
        <ele>38.59</ele>
        <time>2020-10-18T11:56:19Z</time>
      </trkpt>
      <trkpt lat="44.66554" lon="-0.55253">
        <ele>38.11</ele>
        <time>2020-10-18T11:56:33Z</time>
      </trkpt>
      <trkpt lat="44.66607" lon="-0.55215">
        <ele>37.63</ele>
        <time>2020-10-18T11:56:50Z</time>
      </trkpt>
      <trkpt lat="44.66636" lon="-0.5515">
        <ele>36.19</ele>
        <time>2020-10-18T11:57:05Z</time>
      </trkpt>
      <trkpt lat="44.66661" lon="-0.55097">
        <ele>37.15</ele>
        <time>2020-10-18T11:57:17Z</time>
      </trkpt>
      <trkpt lat="44.66692" lon="-0.55035">
        <ele>36.67</ele>
        <time>2020-10-18T11:57:30Z</time>
      </trkpt>
      <trkpt lat="44.66719" lon="-0.54983">
        <ele>35.71</ele>
        <time>2020-10-18T11:57:45Z</time>
      </trkpt>
      <trkpt lat="44.66741" lon="-0.54999">
        <ele>35.71</ele>
        <time>2020-10-18T11:57:58Z</time>
      </trkpt>
      <trkpt lat="44.66774" lon="-0.55066">
        <ele>34.26</ele>
        <time>2020-10-18T11:58:13Z</time>
      </trkpt>
      <trkpt lat="44.66819" lon="-0.55157">
        <ele>32.34</ele>
        <time>2020-10-18T11:58:28Z</time>
      </trkpt>
      <trkpt lat="44.66866" lon="-0.55245">
        <ele>29.94</ele>
        <time>2020-10-18T11:58:41Z</time>
      </trkpt>
      <trkpt lat="44.66906" lon="-0.55303">
        <ele>31.86</ele>
        <time>2020-10-18T11:58:55Z</time>
      </trkpt>
      <trkpt lat="44.66925" lon="-0.55335">
        <ele>32.34</ele>
        <time>2020-10-18T11:59:05Z</time>
      </trkpt>
      <trkpt lat="44.66926" lon="-0.55339">
        <ele>32.34</ele>
        <time>2020-10-18T11:59:07Z</time>
      </trkpt>
      <trkpt lat="44.66927" lon="-0.5534">
        <ele>32.82</ele>
        <time>2020-10-18T11:59:21Z</time>
      </trkpt>
      <trkpt lat="44.66926" lon="-0.55345">
        <ele>32.34</ele>
        <time>2020-10-18T11:59:47Z</time>
      </trkpt>
      <trkpt lat="44.66925" lon="-0.55348">
        <ele>32.34</ele>
        <time>2020-10-18T11:59:48Z</time>
      </trkpt>
      <trkpt lat="44.66924" lon="-0.55351">
        <ele>32.82</ele>
        <time>2020-10-18T11:59:49Z</time>
      </trkpt>
      <trkpt lat="44.66923" lon="-0.55353">
        <ele>32.82</ele>
        <time>2020-10-18T11:59:50Z</time>
      </trkpt>
      <trkpt lat="44.66922" lon="-0.55356">
        <ele>32.82</ele>
        <time>2020-10-18T11:59:51Z</time>
      </trkpt>
      <trkpt lat="44.66907" lon="-0.55405">
        <ele>32.34</ele>
        <time>2020-10-18T12:00:03Z</time>
      </trkpt>
      <trkpt lat="44.66893" lon="-0.5544">
        <ele>32.82</ele>
        <time>2020-10-18T12:00:13Z</time>
      </trkpt>
      <trkpt lat="44.6688" lon="-0.5547">
        <ele>33.3</ele>
        <time>2020-10-18T12:00:24Z</time>
      </trkpt>
      <trkpt lat="44.66863" lon="-0.55526">
        <ele>33.78</ele>
        <time>2020-10-18T12:00:38Z</time>
      </trkpt>
      <trkpt lat="44.66856" lon="-0.55577">
        <ele>34.26</ele>
        <time>2020-10-18T12:00:51Z</time>
      </trkpt>
      <trkpt lat="44.66845" lon="-0.55637">
        <ele>34.74</ele>
        <time>2020-10-18T12:01:06Z</time>
      </trkpt>
      <trkpt lat="44.66826" lon="-0.55675">
        <ele>35.23</ele>
        <time>2020-10-18T12:01:19Z</time>
      </trkpt>
      <trkpt lat="44.6682" lon="-0.55688">
        <ele>35.23</ele>
        <time>2020-10-18T12:01:28Z</time>
      </trkpt>
      <trkpt lat="44.66819" lon="-0.55689">
        <ele>35.23</ele>
        <time>2020-10-18T12:01:29Z</time>
      </trkpt>
      <trkpt lat="44.66817" lon="-0.5569">
        <ele>34.74</ele>
        <time>2020-10-18T12:01:30Z</time>
      </trkpt>
      <trkpt lat="44.66816" lon="-0.55692">
        <ele>35.23</ele>
        <time>2020-10-18T12:01:31Z</time>
      </trkpt>
      <trkpt lat="44.66815" lon="-0.55695">
        <ele>35.23</ele>
        <time>2020-10-18T12:01:32Z</time>
      </trkpt>
      <trkpt lat="44.66798" lon="-0.55733">
        <ele>35.71</ele>
        <time>2020-10-18T12:01:45Z</time>
      </trkpt>
      <trkpt lat="44.66775" lon="-0.55791">
        <ele>35.71</ele>
        <time>2020-10-18T12:02:01Z</time>
      </trkpt>
      <trkpt lat="44.66747" lon="-0.55842">
        <ele>36.19</ele>
        <time>2020-10-18T12:02:16Z</time>
      </trkpt>
      <trkpt lat="44.66737" lon="-0.55856">
        <ele>36.19</ele>
        <time>2020-10-18T12:02:25Z</time>
      </trkpt>
      <trkpt lat="44.66737" lon="-0.55858">
        <ele>36.67</ele>
        <time>2020-10-18T12:02:26Z</time>
      </trkpt>
      <trkpt lat="44.66736" lon="-0.5586">
        <ele>36.67</ele>
        <time>2020-10-18T12:02:27Z</time>
      </trkpt>
      <trkpt lat="44.66735" lon="-0.55861">
        <ele>36.67</ele>
        <time>2020-10-18T12:02:28Z</time>
      </trkpt>
      <trkpt lat="44.66734" lon="-0.55863">
        <ele>36.67</ele>
        <time>2020-10-18T12:02:29Z</time>
      </trkpt>
      <trkpt lat="44.66733" lon="-0.55865">
        <ele>36.67</ele>
        <time>2020-10-18T12:02:30Z</time>
      </trkpt>
      <trkpt lat="44.66732" lon="-0.55867">
        <ele>36.67</ele>
        <time>2020-10-18T12:02:31Z</time>
      </trkpt>
      <trkpt lat="44.66731" lon="-0.55868">
        <ele>36.67</ele>
        <time>2020-10-18T12:02:32Z</time>
      </trkpt>
      <trkpt lat="44.66719" lon="-0.5589">
        <ele>36.19</ele>
        <time>2020-10-18T12:02:47Z</time>
      </trkpt>
      <trkpt lat="44.66708" lon="-0.55909">
        <ele>37.15</ele>
        <time>2020-10-18T12:03:01Z</time>
      </trkpt>
      <trkpt lat="44.66702" lon="-0.55917">
        <ele>37.15</ele>
        <time>2020-10-18T12:03:07Z</time>
      </trkpt>
      <trkpt lat="44.667" lon="-0.55912">
        <ele>37.15</ele>
        <time>2020-10-18T12:03:21Z</time>
      </trkpt>
      <trkpt lat="44.66722" lon="-0.55873">
        <ele>37.15</ele>
        <time>2020-10-18T12:03:34Z</time>
      </trkpt>
      <trkpt lat="44.6674" lon="-0.55849">
        <ele>36.19</ele>
        <time>2020-10-18T12:03:44Z</time>
      </trkpt>
      <trkpt lat="44.66775" lon="-0.55886">
        <ele>36.67</ele>
        <time>2020-10-18T12:03:57Z</time>
      </trkpt>
      <trkpt lat="44.66783" lon="-0.55895">
        <ele>37.15</ele>
        <time>2020-10-18T12:04:06Z</time>
      </trkpt>
      <trkpt lat="44.66784" lon="-0.55898">
        <ele>36.67</ele>
        <time>2020-10-18T12:04:31Z</time>
      </trkpt>
      <trkpt lat="44.66787" lon="-0.55904">
        <ele>36.67</ele>
        <time>2020-10-18T12:04:34Z</time>
      </trkpt>
      <trkpt lat="44.66817" lon="-0.55941">
        <ele>37.63</ele>
        <time>2020-10-18T12:04:47Z</time>
      </trkpt>
      <trkpt lat="44.66826" lon="-0.5595">
        <ele>37.63</ele>
        <time>2020-10-18T12:04:59Z</time>
      </trkpt>
      <trkpt lat="44.66824" lon="-0.5595">
        <ele>37.15</ele>
        <time>2020-10-18T12:05:04Z</time>
      </trkpt>
      <trkpt lat="44.66817" lon="-0.55946">
        <ele>37.63</ele>
        <time>2020-10-18T12:05:08Z</time>
      </trkpt>
      <trkpt lat="44.66772" lon="-0.55891">
        <ele>37.15</ele>
        <time>2020-10-18T12:05:24Z</time>
      </trkpt>
      <trkpt lat="44.66729" lon="-0.55859">
        <ele>35.71</ele>
        <time>2020-10-18T12:05:38Z</time>
      </trkpt>
      <trkpt lat="44.66699" lon="-0.55917">
        <ele>36.67</ele>
        <time>2020-10-18T12:05:51Z</time>
      </trkpt>
      <trkpt lat="44.6667" lon="-0.55978">
        <ele>37.15</ele>
        <time>2020-10-18T12:06:05Z</time>
      </trkpt>
      <trkpt lat="44.66654" lon="-0.56043">
        <ele>37.15</ele>
        <time>2020-10-18T12:06:18Z</time>
      </trkpt>
      <trkpt lat="44.6662" lon="-0.56082">
        <ele>37.63</ele>
        <time>2020-10-18T12:06:31Z</time>
      </trkpt>
      <trkpt lat="44.66596" lon="-0.56116">
        <ele>37.63</ele>
        <time>2020-10-18T12:06:43Z</time>
      </trkpt>
      <trkpt lat="44.66575" lon="-0.56177">
        <ele>37.63</ele>
        <time>2020-10-18T12:06:57Z</time>
      </trkpt>
      <trkpt lat="44.66573" lon="-0.56222">
        <ele>37.63</ele>
        <time>2020-10-18T12:07:11Z</time>
      </trkpt>
      <trkpt lat="44.66573" lon="-0.56223">
        <ele>38.11</ele>
        <time>2020-10-18T12:07:29Z</time>
      </trkpt>
      <trkpt lat="44.66571" lon="-0.56222">
        <ele>38.11</ele>
        <time>2020-10-18T12:08:03Z</time>
      </trkpt>
      <trkpt lat="44.66571" lon="-0.56222">
        <ele>38.11</ele>
        <time>2020-10-18T12:08:10Z</time>
      </trkpt>
      <trkpt lat="44.66575" lon="-0.56262">
        <ele>39.07</ele>
        <time>2020-10-18T12:08:29Z</time>
      </trkpt>
      <trkpt lat="44.66581" lon="-0.56307">
        <ele>39.07</ele>
        <time>2020-10-18T12:08:41Z</time>
      </trkpt>
      <trkpt lat="44.66595" lon="-0.56381">
        <ele>39.55</ele>
        <time>2020-10-18T12:08:55Z</time>
      </trkpt>
      <trkpt lat="44.66587" lon="-0.56429">
        <ele>40.03</ele>
        <time>2020-10-18T12:09:09Z</time>
      </trkpt>
      <trkpt lat="44.66576" lon="-0.56469">
        <ele>39.55</ele>
        <time>2020-10-18T12:09:22Z</time>
      </trkpt>
      <trkpt lat="44.66538" lon="-0.56509">
        <ele>39.55</ele>
        <time>2020-10-18T12:09:36Z</time>
      </trkpt>
      <trkpt lat="44.66507" lon="-0.56539">
        <ele>39.55</ele>
        <time>2020-10-18T12:09:50Z</time>
      </trkpt>
      <trkpt lat="44.6651" lon="-0.56582">
        <ele>39.55</ele>
        <time>2020-10-18T12:10:06Z</time>
      </trkpt>
      <trkpt lat="44.66516" lon="-0.56616">
        <ele>40.51</ele>
        <time>2020-10-18T12:10:18Z</time>
      </trkpt>
      <trkpt lat="44.66539" lon="-0.56665">
        <ele>41.47</ele>
        <time>2020-10-18T12:10:35Z</time>
      </trkpt>
      <trkpt lat="44.66518" lon="-0.56728">
        <ele>42.44</ele>
        <time>2020-10-18T12:10:51Z</time>
      </trkpt>
      <trkpt lat="44.66541" lon="-0.56779">
        <ele>42.92</ele>
        <time>2020-10-18T12:11:05Z</time>
      </trkpt>
      <trkpt lat="44.66565" lon="-0.56827">
        <ele>44.36</ele>
        <time>2020-10-18T12:11:17Z</time>
      </trkpt>
      <trkpt lat="44.66596" lon="-0.56899">
        <ele>45.32</ele>
        <time>2020-10-18T12:11:33Z</time>
      </trkpt>
      <trkpt lat="44.66627" lon="-0.56963">
        <ele>46.28</ele>
        <time>2020-10-18T12:11:47Z</time>
      </trkpt>
      <trkpt lat="44.66638" lon="-0.57018">
        <ele>46.76</ele>
        <time>2020-10-18T12:11:59Z</time>
      </trkpt>
      <trkpt lat="44.66639" lon="-0.57078">
        <ele>46.76</ele>
        <time>2020-10-18T12:12:13Z</time>
      </trkpt>
      <trkpt lat="44.66644" lon="-0.57131">
        <ele>47.24</ele>
        <time>2020-10-18T12:12:30Z</time>
      </trkpt>
      <trkpt lat="44.66647" lon="-0.57193">
        <ele>48.68</ele>
        <time>2020-10-18T12:12:44Z</time>
      </trkpt>
      <trkpt lat="44.66655" lon="-0.57267">
        <ele>48.68</ele>
        <time>2020-10-18T12:12:59Z</time>
      </trkpt>
      <trkpt lat="44.66667" lon="-0.57308">
        <ele>48.68</ele>
        <time>2020-10-18T12:13:12Z</time>
      </trkpt>
      <trkpt lat="44.66667" lon="-0.57308">
        <ele>48.68</ele>
        <time>2020-10-18T12:13:39Z</time>
      </trkpt>
      <trkpt lat="44.6667" lon="-0.57316">
        <ele>49.65</ele>
        <time>2020-10-18T12:13:43Z</time>
      </trkpt>
      <trkpt lat="44.66695" lon="-0.57371">
        <ele>50.13</ele>
        <time>2020-10-18T12:14:01Z</time>
      </trkpt>
      <trkpt lat="44.6671" lon="-0.57441">
        <ele>51.09</ele>
        <time>2020-10-18T12:14:16Z</time>
      </trkpt>
      <trkpt lat="44.66736" lon="-0.5752">
        <ele>51.57</ele>
        <time>2020-10-18T12:14:31Z</time>
      </trkpt>
      <trkpt lat="44.6675" lon="-0.5756">
        <ele>52.05</ele>
        <time>2020-10-18T12:14:45Z</time>
      </trkpt>
      <trkpt lat="44.66759" lon="-0.57584">
        <ele>52.53</ele>
        <time>2020-10-18T12:15:00Z</time>
      </trkpt>
      <trkpt lat="44.66776" lon="-0.57607">
        <ele>52.53</ele>
        <time>2020-10-18T12:15:17Z</time>
      </trkpt>
      <trkpt lat="44.66776" lon="-0.57607">
        <ele>52.53</ele>
        <time>2020-10-18T12:15:46Z</time>
      </trkpt>
      <trkpt lat="44.66776" lon="-0.57608">
        <ele>52.53</ele>
        <time>2020-10-18T12:16:15Z</time>
      </trkpt>
      <trkpt lat="44.66778" lon="-0.57611">
        <ele>52.53</ele>
        <time>2020-10-18T12:16:47Z</time>
      </trkpt>
      <trkpt lat="44.66779" lon="-0.57615">
        <ele>52.53</ele>
        <time>2020-10-18T12:17:26Z</time>
      </trkpt>
      <trkpt lat="44.66778" lon="-0.57618">
        <ele>52.53</ele>
        <time>2020-10-18T12:17:51Z</time>
      </trkpt>
      <trkpt lat="44.6678" lon="-0.57635">
        <ele>53.01</ele>
        <time>2020-10-18T12:17:58Z</time>
      </trkpt>
      <trkpt lat="44.66777" lon="-0.57638">
        <ele>53.01</ele>
        <time>2020-10-18T12:18:20Z</time>
      </trkpt>
      <trkpt lat="44.66779" lon="-0.57639">
        <ele>52.53</ele>
        <time>2020-10-18T12:18:39Z</time>
      </trkpt>
      <trkpt lat="44.66779" lon="-0.57639">
        <ele>53.01</ele>
        <time>2020-10-18T12:19:14Z</time>
      </trkpt>
      <trkpt lat="44.66779" lon="-0.57641">
        <ele>53.01</ele>
        <time>2020-10-18T12:19:37Z</time>
      </trkpt>
      <trkpt lat="44.66779" lon="-0.57641">
        <ele>53.01</ele>
        <time>2020-10-18T12:19:58Z</time>
      </trkpt>
      <trkpt lat="44.66779" lon="-0.57641">
        <ele>52.53</ele>
        <time>2020-10-18T12:20:17Z</time>
      </trkpt>
      <trkpt lat="44.66779" lon="-0.57641">
        <ele>53.49</ele>
        <time>2020-10-18T12:20:42Z</time>
      </trkpt>
      <trkpt lat="44.66779" lon="-0.57641">
        <ele>53.01</ele>
        <time>2020-10-18T12:21:01Z</time>
      </trkpt>
      <trkpt lat="44.66779" lon="-0.57641">
        <ele>53.01</ele>
        <time>2020-10-18T12:21:26Z</time>
      </trkpt>
      <trkpt lat="44.66779" lon="-0.57641">
        <ele>53.01</ele>
        <time>2020-10-18T12:21:43Z</time>
      </trkpt>
      <trkpt lat="44.66779" lon="-0.57644">
        <ele>53.01</ele>
        <time>2020-10-18T12:21:45Z</time>
      </trkpt>
      <trkpt lat="44.6678" lon="-0.57647">
        <ele>52.53</ele>
        <time>2020-10-18T12:21:55Z</time>
      </trkpt>
      <trkpt lat="44.66781" lon="-0.57656">
        <ele>53.49</ele>
        <time>2020-10-18T12:21:59Z</time>
      </trkpt>
      <trkpt lat="44.66781" lon="-0.57705">
        <ele>53.49</ele>
        <time>2020-10-18T12:22:12Z</time>
      </trkpt>
      <trkpt lat="44.66763" lon="-0.57765">
        <ele>53.97</ele>
        <time>2020-10-18T12:22:26Z</time>
      </trkpt>
      <trkpt lat="44.66749" lon="-0.57827">
        <ele>54.45</ele>
        <time>2020-10-18T12:22:40Z</time>
      </trkpt>
      <trkpt lat="44.66734" lon="-0.57889">
        <ele>53.97</ele>
        <time>2020-10-18T12:22:54Z</time>
      </trkpt>
      <trkpt lat="44.66726" lon="-0.57927">
        <ele>54.93</ele>
        <time>2020-10-18T12:23:06Z</time>
      </trkpt>
      <trkpt lat="44.66732" lon="-0.57934">
        <ele>54.93</ele>
        <time>2020-10-18T12:23:19Z</time>
      </trkpt>
      <trkpt lat="44.66732" lon="-0.57934">
        <ele>55.41</ele>
        <time>2020-10-18T12:23:51Z</time>
      </trkpt>
      <trkpt lat="44.66732" lon="-0.57935">
        <ele>54.93</ele>
        <time>2020-10-18T12:23:52Z</time>
      </trkpt>
      <trkpt lat="44.66737" lon="-0.57944">
        <ele>55.41</ele>
        <time>2020-10-18T12:23:57Z</time>
      </trkpt>
      <trkpt lat="44.66766" lon="-0.57986">
        <ele>56.37</ele>
        <time>2020-10-18T12:24:10Z</time>
      </trkpt>
      <trkpt lat="44.668" lon="-0.58014">
        <ele>56.37</ele>
        <time>2020-10-18T12:24:23Z</time>
      </trkpt>
      <trkpt lat="44.66805" lon="-0.58015">
        <ele>56.37</ele>
        <time>2020-10-18T12:24:35Z</time>
      </trkpt>
      <trkpt lat="44.66806" lon="-0.58016">
        <ele>56.37</ele>
        <time>2020-10-18T12:24:45Z</time>
      </trkpt>
      <trkpt lat="44.66811" lon="-0.58023">
        <ele>56.37</ele>
        <time>2020-10-18T12:24:49Z</time>
      </trkpt>
      <trkpt lat="44.6684" lon="-0.58056">
        <ele>57.34</ele>
        <time>2020-10-18T12:25:04Z</time>
      </trkpt>
      <trkpt lat="44.66881" lon="-0.58089">
        <ele>57.82</ele>
        <time>2020-10-18T12:25:19Z</time>
      </trkpt>
      <trkpt lat="44.66917" lon="-0.58125">
        <ele>57.82</ele>
        <time>2020-10-18T12:25:33Z</time>
      </trkpt>
      <trkpt lat="44.66958" lon="-0.58159">
        <ele>59.26</ele>
        <time>2020-10-18T12:25:47Z</time>
      </trkpt>
      <trkpt lat="44.67002" lon="-0.58198">
        <ele>59.74</ele>
        <time>2020-10-18T12:26:02Z</time>
      </trkpt>
      <trkpt lat="44.67043" lon="-0.58235">
        <ele>61.66</ele>
        <time>2020-10-18T12:26:17Z</time>
      </trkpt>
      <trkpt lat="44.6707" lon="-0.58259">
        <ele>62.62</ele>
        <time>2020-10-18T12:26:30Z</time>
      </trkpt>
      <trkpt lat="44.67107" lon="-0.58292">
        <ele>63.58</ele>
        <time>2020-10-18T12:26:43Z</time>
      </trkpt>
      <trkpt lat="44.6714" lon="-0.58323">
        <ele>64.07</ele>
        <time>2020-10-18T12:26:55Z</time>
      </trkpt>
      <trkpt lat="44.67167" lon="-0.58333">
        <ele>64.07</ele>
        <time>2020-10-18T12:27:08Z</time>
      </trkpt>
      <trkpt lat="44.67166" lon="-0.58333">
        <ele>63.58</ele>
        <time>2020-10-18T12:27:24Z</time>
      </trkpt>
      <trkpt lat="44.67166" lon="-0.58333">
        <ele>63.58</ele>
        <time>2020-10-18T12:27:48Z</time>
      </trkpt>
      <trkpt lat="44.67164" lon="-0.58334">
        <ele>64.07</ele>
        <time>2020-10-18T12:28:13Z</time>
      </trkpt>
      <trkpt lat="44.67164" lon="-0.58334">
        <ele>64.07</ele>
        <time>2020-10-18T12:28:26Z</time>
      </trkpt>
      <trkpt lat="44.67202" lon="-0.58349">
        <ele>64.55</ele>
        <time>2020-10-18T12:28:42Z</time>
      </trkpt>
      <trkpt lat="44.67254" lon="-0.58356">
        <ele>65.99</ele>
        <time>2020-10-18T12:28:57Z</time>
      </trkpt>
      <trkpt lat="44.67293" lon="-0.58373">
        <ele>67.43</ele>
        <time>2020-10-18T12:29:10Z</time>
      </trkpt>
      <trkpt lat="44.67331" lon="-0.58422">
        <ele>66.95</ele>
        <time>2020-10-18T12:29:24Z</time>
      </trkpt>
      <trkpt lat="44.67368" lon="-0.58482">
        <ele>66.95</ele>
        <time>2020-10-18T12:29:40Z</time>
      </trkpt>
      <trkpt lat="44.67406" lon="-0.58543">
        <ele>67.91</ele>
        <time>2020-10-18T12:29:56Z</time>
      </trkpt>
      <trkpt lat="44.67409" lon="-0.58547">
        <ele>67.91</ele>
        <time>2020-10-18T12:29:57Z</time>
      </trkpt>
      <trkpt lat="44.67436" lon="-0.58599">
        <ele>67.91</ele>
        <time>2020-10-18T12:30:10Z</time>
      </trkpt>
      <trkpt lat="44.6747" lon="-0.58667">
        <ele>66.95</ele>
        <time>2020-10-18T12:30:25Z</time>
      </trkpt>
      <trkpt lat="44.67503" lon="-0.58651">
        <ele>66.47</ele>
        <time>2020-10-18T12:30:36Z</time>
      </trkpt>
      <trkpt lat="44.67562" lon="-0.58593">
        <ele>65.51</ele>
        <time>2020-10-18T12:30:51Z</time>
      </trkpt>
      <trkpt lat="44.67628" lon="-0.58539">
        <ele>63.58</ele>
        <time>2020-10-18T12:31:07Z</time>
      </trkpt>
      <trkpt lat="44.67689" lon="-0.58494">
        <ele>63.1</ele>
        <time>2020-10-18T12:31:21Z</time>
      </trkpt>
      <trkpt lat="44.6775" lon="-0.58478">
        <ele>62.14</ele>
        <time>2020-10-18T12:31:35Z</time>
      </trkpt>
      <trkpt lat="44.67808" lon="-0.5847">
        <ele>61.66</ele>
        <time>2020-10-18T12:31:49Z</time>
      </trkpt>
      <trkpt lat="44.67854" lon="-0.58487">
        <ele>62.14</ele>
        <time>2020-10-18T12:32:03Z</time>
      </trkpt>
      <trkpt lat="44.67843" lon="-0.58561">
        <ele>62.62</ele>
        <time>2020-10-18T12:32:14Z</time>
      </trkpt>
      <trkpt lat="44.67843" lon="-0.58639">
        <ele>61.66</ele>
        <time>2020-10-18T12:32:27Z</time>
      </trkpt>
      <trkpt lat="44.67844" lon="-0.58732">
        <ele>61.18</ele>
        <time>2020-10-18T12:32:43Z</time>
      </trkpt>
      <trkpt lat="44.67846" lon="-0.5879">
        <ele>60.7</ele>
        <time>2020-10-18T12:32:53Z</time>
      </trkpt>
      <trkpt lat="44.67848" lon="-0.58829">
        <ele>60.7</ele>
        <time>2020-10-18T12:33:00Z</time>
      </trkpt>
      <trkpt lat="44.67854" lon="-0.58909">
        <ele>61.66</ele>
        <time>2020-10-18T12:33:14Z</time>
      </trkpt>
      <trkpt lat="44.67869" lon="-0.58974">
        <ele>61.66</ele>
        <time>2020-10-18T12:33:26Z</time>
      </trkpt>
      <trkpt lat="44.67871" lon="-0.58979">
        <ele>62.14</ele>
        <time>2020-10-18T12:33:27Z</time>
      </trkpt>
      <trkpt lat="44.67881" lon="-0.59004">
        <ele>62.14</ele>
        <time>2020-10-18T12:33:32Z</time>
      </trkpt>
      <trkpt lat="44.679" lon="-0.59054">
        <ele>61.66</ele>
        <time>2020-10-18T12:33:42Z</time>
      </trkpt>
      <trkpt lat="44.67929" lon="-0.59129">
        <ele>61.66</ele>
        <time>2020-10-18T12:33:57Z</time>
      </trkpt>
      <trkpt lat="44.67955" lon="-0.59197">
        <ele>61.66</ele>
        <time>2020-10-18T12:34:11Z</time>
      </trkpt>
      <trkpt lat="44.67981" lon="-0.59268">
        <ele>62.14</ele>
        <time>2020-10-18T12:34:25Z</time>
      </trkpt>
      <trkpt lat="44.68002" lon="-0.59325">
        <ele>62.62</ele>
        <time>2020-10-18T12:34:36Z</time>
      </trkpt>
      <trkpt lat="44.68027" lon="-0.59393">
        <ele>62.62</ele>
        <time>2020-10-18T12:34:49Z</time>
      </trkpt>
      <trkpt lat="44.6804" lon="-0.59422">
        <ele>62.14</ele>
        <time>2020-10-18T12:34:55Z</time>
      </trkpt>
      <trkpt lat="44.68064" lon="-0.59492">
        <ele>62.14</ele>
        <time>2020-10-18T12:35:09Z</time>
      </trkpt>
      <trkpt lat="44.68089" lon="-0.59554">
        <ele>61.66</ele>
        <time>2020-10-18T12:35:22Z</time>
      </trkpt>
      <trkpt lat="44.68116" lon="-0.59625">
        <ele>63.1</ele>
        <time>2020-10-18T12:35:36Z</time>
      </trkpt>
      <trkpt lat="44.68123" lon="-0.59712">
        <ele>62.62</ele>
        <time>2020-10-18T12:35:51Z</time>
      </trkpt>
      <trkpt lat="44.68126" lon="-0.59729">
        <ele>63.1</ele>
        <time>2020-10-18T12:35:54Z</time>
      </trkpt>
      <trkpt lat="44.6813" lon="-0.59758">
        <ele>63.1</ele>
        <time>2020-10-18T12:35:59Z</time>
      </trkpt>
      <trkpt lat="44.68131" lon="-0.59788">
        <ele>62.14</ele>
        <time>2020-10-18T12:36:04Z</time>
      </trkpt>
      <trkpt lat="44.68142" lon="-0.59888">
        <ele>62.14</ele>
        <time>2020-10-18T12:36:21Z</time>
      </trkpt>
      <trkpt lat="44.68152" lon="-0.59976">
        <ele>63.1</ele>
        <time>2020-10-18T12:36:36Z</time>
      </trkpt>
      <trkpt lat="44.68161" lon="-0.60059">
        <ele>63.58</ele>
        <time>2020-10-18T12:36:50Z</time>
      </trkpt>
      <trkpt lat="44.68167" lon="-0.60159">
        <ele>63.1</ele>
        <time>2020-10-18T12:37:07Z</time>
      </trkpt>
      <trkpt lat="44.6818" lon="-0.60242">
        <ele>64.07</ele>
        <time>2020-10-18T12:37:22Z</time>
      </trkpt>
      <trkpt lat="44.68184" lon="-0.60321">
        <ele>63.58</ele>
        <time>2020-10-18T12:37:37Z</time>
      </trkpt>
      <trkpt lat="44.68212" lon="-0.60343">
        <ele>64.07</ele>
        <time>2020-10-18T12:37:49Z</time>
      </trkpt>
      <trkpt lat="44.6826" lon="-0.60346">
        <ele>64.07</ele>
        <time>2020-10-18T12:38:00Z</time>
      </trkpt>
      <trkpt lat="44.68343" lon="-0.6036">
        <ele>64.55</ele>
        <time>2020-10-18T12:38:17Z</time>
      </trkpt>
      <trkpt lat="44.68396" lon="-0.60367">
        <ele>64.55</ele>
        <time>2020-10-18T12:38:28Z</time>
      </trkpt>
      <trkpt lat="44.68447" lon="-0.60376">
        <ele>64.55</ele>
        <time>2020-10-18T12:38:39Z</time>
      </trkpt>
      <trkpt lat="44.68461" lon="-0.60379">
        <ele>64.07</ele>
        <time>2020-10-18T12:38:42Z</time>
      </trkpt>
      <trkpt lat="44.68466" lon="-0.60379">
        <ele>64.07</ele>
        <time>2020-10-18T12:38:43Z</time>
      </trkpt>
      <trkpt lat="44.68516" lon="-0.60383">
        <ele>63.1</ele>
        <time>2020-10-18T12:38:57Z</time>
      </trkpt>
      <trkpt lat="44.6852" lon="-0.60382">
        <ele>62.62</ele>
        <time>2020-10-18T12:39:08Z</time>
      </trkpt>
      <trkpt lat="44.6852" lon="-0.60382">
        <ele>62.14</ele>
        <time>2020-10-18T12:39:26Z</time>
      </trkpt>
      <trkpt lat="44.6852" lon="-0.60379">
        <ele>62.62</ele>
        <time>2020-10-18T12:39:31Z</time>
      </trkpt>
      <trkpt lat="44.6852" lon="-0.60377">
        <ele>63.1</ele>
        <time>2020-10-18T12:39:32Z</time>
      </trkpt>
      <trkpt lat="44.6852" lon="-0.60374">
        <ele>62.62</ele>
        <time>2020-10-18T12:39:33Z</time>
      </trkpt>
      <trkpt lat="44.6852" lon="-0.60372">
        <ele>63.1</ele>
        <time>2020-10-18T12:39:34Z</time>
      </trkpt>
      <trkpt lat="44.68519" lon="-0.60369">
        <ele>63.1</ele>
        <time>2020-10-18T12:39:35Z</time>
      </trkpt>
      <trkpt lat="44.68519" lon="-0.60366">
        <ele>63.1</ele>
        <time>2020-10-18T12:39:36Z</time>
      </trkpt>
      <trkpt lat="44.6852" lon="-0.60362">
        <ele>63.58</ele>
        <time>2020-10-18T12:39:37Z</time>
      </trkpt>
      <trkpt lat="44.68522" lon="-0.60312">
        <ele>62.62</ele>
        <time>2020-10-18T12:39:49Z</time>
      </trkpt>
      <trkpt lat="44.6852" lon="-0.60264">
        <ele>63.1</ele>
        <time>2020-10-18T12:40:02Z</time>
      </trkpt>
      <trkpt lat="44.68518" lon="-0.60192">
        <ele>63.58</ele>
        <time>2020-10-18T12:40:17Z</time>
      </trkpt>
      <trkpt lat="44.68513" lon="-0.60125">
        <ele>63.58</ele>
        <time>2020-10-18T12:40:31Z</time>
      </trkpt>
      <trkpt lat="44.68509" lon="-0.60058">
        <ele>62.14</ele>
        <time>2020-10-18T12:40:45Z</time>
      </trkpt>
      <trkpt lat="44.68506" lon="-0.59985">
        <ele>61.66</ele>
        <time>2020-10-18T12:40:59Z</time>
      </trkpt>
      <trkpt lat="44.68505" lon="-0.5991">
        <ele>61.66</ele>
        <time>2020-10-18T12:41:14Z</time>
      </trkpt>
      <trkpt lat="44.68503" lon="-0.59848">
        <ele>61.18</ele>
        <time>2020-10-18T12:41:26Z</time>
      </trkpt>
      <trkpt lat="44.68498" lon="-0.59767">
        <ele>61.18</ele>
        <time>2020-10-18T12:41:41Z</time>
      </trkpt>
      <trkpt lat="44.68495" lon="-0.59686">
        <ele>61.18</ele>
        <time>2020-10-18T12:41:57Z</time>
      </trkpt>
      <trkpt lat="44.68498" lon="-0.59603">
        <ele>61.18</ele>
        <time>2020-10-18T12:42:13Z</time>
      </trkpt>
      <trkpt lat="44.68492" lon="-0.59503">
        <ele>60.7</ele>
        <time>2020-10-18T12:42:30Z</time>
      </trkpt>
      <trkpt lat="44.68491" lon="-0.59417">
        <ele>60.22</ele>
        <time>2020-10-18T12:42:46Z</time>
      </trkpt>
      <trkpt lat="44.68517" lon="-0.59382">
        <ele>60.22</ele>
        <time>2020-10-18T12:43:00Z</time>
      </trkpt>
      <trkpt lat="44.68585" lon="-0.594">
        <ele>60.22</ele>
        <time>2020-10-18T12:43:14Z</time>
      </trkpt>
      <trkpt lat="44.68646" lon="-0.594">
        <ele>60.22</ele>
        <time>2020-10-18T12:43:29Z</time>
      </trkpt>
      <trkpt lat="44.68718" lon="-0.59392">
        <ele>59.74</ele>
        <time>2020-10-18T12:43:48Z</time>
      </trkpt>
      <trkpt lat="44.68776" lon="-0.59395">
        <ele>60.7</ele>
        <time>2020-10-18T12:44:03Z</time>
      </trkpt>
      <trkpt lat="44.68836" lon="-0.59395">
        <ele>60.7</ele>
        <time>2020-10-18T12:44:18Z</time>
      </trkpt>
      <trkpt lat="44.68895" lon="-0.59395">
        <ele>61.18</ele>
        <time>2020-10-18T12:44:33Z</time>
      </trkpt>
      <trkpt lat="44.68948" lon="-0.59392">
        <ele>62.14</ele>
        <time>2020-10-18T12:44:47Z</time>
      </trkpt>
      <trkpt lat="44.69003" lon="-0.59394">
        <ele>62.14</ele>
        <time>2020-10-18T12:45:03Z</time>
      </trkpt>
      <trkpt lat="44.69061" lon="-0.59393">
        <ele>61.66</ele>
        <time>2020-10-18T12:45:18Z</time>
      </trkpt>
      <trkpt lat="44.69114" lon="-0.59393">
        <ele>61.66</ele>
        <time>2020-10-18T12:45:33Z</time>
      </trkpt>
      <trkpt lat="44.69154" lon="-0.59385">
        <ele>62.62</ele>
        <time>2020-10-18T12:45:47Z</time>
      </trkpt>
      <trkpt lat="44.69173" lon="-0.59366">
        <ele>63.1</ele>
        <time>2020-10-18T12:46:01Z</time>
      </trkpt>
      <trkpt lat="44.6918" lon="-0.59322">
        <ele>62.14</ele>
        <time>2020-10-18T12:46:15Z</time>
      </trkpt>
      <trkpt lat="44.6918" lon="-0.59317">
        <ele>61.66</ele>
        <time>2020-10-18T12:46:30Z</time>
      </trkpt>
      <trkpt lat="44.69181" lon="-0.59319">
        <ele>61.66</ele>
        <time>2020-10-18T12:46:43Z</time>
      </trkpt>
      <trkpt lat="44.69181" lon="-0.59319">
        <ele>61.66</ele>
        <time>2020-10-18T12:47:03Z</time>
      </trkpt>
      <trkpt lat="44.69179" lon="-0.59314">
        <ele>61.18</ele>
        <time>2020-10-18T12:47:24Z</time>
      </trkpt>
      <trkpt lat="44.6918" lon="-0.59312">
        <ele>60.7</ele>
        <time>2020-10-18T12:47:43Z</time>
      </trkpt>
      <trkpt lat="44.6918" lon="-0.5931">
        <ele>61.18</ele>
        <time>2020-10-18T12:47:59Z</time>
      </trkpt>
      <trkpt lat="44.6918" lon="-0.5931">
        <ele>61.18</ele>
        <time>2020-10-18T12:48:18Z</time>
      </trkpt>
      <trkpt lat="44.6918" lon="-0.59308">
        <ele>61.66</ele>
        <time>2020-10-18T12:48:28Z</time>
      </trkpt>
      <trkpt lat="44.6918" lon="-0.59302">
        <ele>61.18</ele>
        <time>2020-10-18T12:48:36Z</time>
      </trkpt>
      <trkpt lat="44.69181" lon="-0.59294">
        <ele>61.66</ele>
        <time>2020-10-18T12:48:48Z</time>
      </trkpt>
      <trkpt lat="44.69181" lon="-0.59287">
        <ele>62.14</ele>
        <time>2020-10-18T12:48:52Z</time>
      </trkpt>
      <trkpt lat="44.69182" lon="-0.5928">
        <ele>61.66</ele>
        <time>2020-10-18T12:49:10Z</time>
      </trkpt>
      <trkpt lat="44.69182" lon="-0.59278">
        <ele>61.66</ele>
        <time>2020-10-18T12:49:21Z</time>
      </trkpt>
      <trkpt lat="44.69183" lon="-0.59275">
        <ele>61.66</ele>
        <time>2020-10-18T12:49:24Z</time>
      </trkpt>
      <trkpt lat="44.69184" lon="-0.59273">
        <ele>61.18</ele>
        <time>2020-10-18T12:49:47Z</time>
      </trkpt>
      <trkpt lat="44.69184" lon="-0.59273">
        <ele>61.66</ele>
        <time>2020-10-18T12:49:48Z</time>
      </trkpt>
      <trkpt lat="44.69185" lon="-0.5927">
        <ele>61.66</ele>
        <time>2020-10-18T12:50:06Z</time>
      </trkpt>
      <trkpt lat="44.69186" lon="-0.5927">
        <ele>61.66</ele>
        <time>2020-10-18T12:50:22Z</time>
      </trkpt>
      <trkpt lat="44.69186" lon="-0.5927">
        <ele>61.66</ele>
        <time>2020-10-18T12:50:42Z</time>
      </trkpt>
      <trkpt lat="44.69186" lon="-0.5927">
        <ele>61.18</ele>
        <time>2020-10-18T12:51:01Z</time>
      </trkpt>
      <trkpt lat="44.69186" lon="-0.59268">
        <ele>61.18</ele>
        <time>2020-10-18T12:51:12Z</time>
      </trkpt>
      <trkpt lat="44.69191" lon="-0.59255">
        <ele>61.66</ele>
        <time>2020-10-18T12:51:27Z</time>
      </trkpt>
      <trkpt lat="44.69193" lon="-0.5925">
        <ele>61.66</ele>
        <time>2020-10-18T12:51:42Z</time>
      </trkpt>
      <trkpt lat="44.69195" lon="-0.59249">
        <ele>61.18</ele>
        <time>2020-10-18T12:51:50Z</time>
      </trkpt>
      <trkpt lat="44.69191" lon="-0.59263">
        <ele>61.18</ele>
        <time>2020-10-18T12:52:07Z</time>
      </trkpt>
      <trkpt lat="44.69191" lon="-0.59264">
        <ele>61.66</ele>
        <time>2020-10-18T12:52:22Z</time>
      </trkpt>
      <trkpt lat="44.69191" lon="-0.59264">
        <ele>61.66</ele>
        <time>2020-10-18T12:52:27Z</time>
      </trkpt>
      <trkpt lat="44.69186" lon="-0.59267">
        <ele>61.18</ele>
        <time>2020-10-18T12:52:45Z</time>
      </trkpt>
      <trkpt lat="44.69186" lon="-0.59267">
        <ele>61.18</ele>
        <time>2020-10-18T12:53:04Z</time>
      </trkpt>
      <trkpt lat="44.69186" lon="-0.59267">
        <ele>60.7</ele>
        <time>2020-10-18T12:53:31Z</time>
      </trkpt>
      <trkpt lat="44.69186" lon="-0.59268">
        <ele>61.18</ele>
        <time>2020-10-18T12:53:54Z</time>
      </trkpt>
      <trkpt lat="44.69187" lon="-0.59268">
        <ele>61.18</ele>
        <time>2020-10-18T12:54:16Z</time>
      </trkpt>
      <trkpt lat="44.69187" lon="-0.59267">
        <ele>61.18</ele>
        <time>2020-10-18T12:54:40Z</time>
      </trkpt>
      <trkpt lat="44.69186" lon="-0.59267">
        <ele>60.7</ele>
        <time>2020-10-18T12:54:58Z</time>
      </trkpt>
      <trkpt lat="44.69186" lon="-0.59267">
        <ele>61.18</ele>
        <time>2020-10-18T12:55:17Z</time>
      </trkpt>
      <trkpt lat="44.69186" lon="-0.59267">
        <ele>61.18</ele>
        <time>2020-10-18T12:55:35Z</time>
      </trkpt>
      <trkpt lat="44.69186" lon="-0.59267">
        <ele>60.7</ele>
        <time>2020-10-18T12:55:53Z</time>
      </trkpt>
      <trkpt lat="44.69187" lon="-0.59267">
        <ele>60.7</ele>
        <time>2020-10-18T12:56:10Z</time>
      </trkpt>
      <trkpt lat="44.69188" lon="-0.59266">
        <ele>60.7</ele>
        <time>2020-10-18T12:56:26Z</time>
      </trkpt>
      <trkpt lat="44.69188" lon="-0.59266">
        <ele>60.7</ele>
        <time>2020-10-18T12:56:35Z</time>
      </trkpt>
      <trkpt lat="44.6919" lon="-0.59264">
        <ele>60.7</ele>
        <time>2020-10-18T12:56:52Z</time>
      </trkpt>
      <trkpt lat="44.6919" lon="-0.59264">
        <ele>60.7</ele>
        <time>2020-10-18T12:57:08Z</time>
      </trkpt>
      <trkpt lat="44.6919" lon="-0.59264">
        <ele>60.7</ele>
        <time>2020-10-18T12:57:25Z</time>
      </trkpt>
      <trkpt lat="44.69189" lon="-0.59265">
        <ele>60.7</ele>
        <time>2020-10-18T12:57:36Z</time>
      </trkpt>
      <trkpt lat="44.69192" lon="-0.59263">
        <ele>60.7</ele>
        <time>2020-10-18T12:57:51Z</time>
      </trkpt>
      <trkpt lat="44.6919" lon="-0.59268">
        <ele>60.7</ele>
        <time>2020-10-18T12:58:08Z</time>
      </trkpt>
      <trkpt lat="44.69192" lon="-0.59265">
        <ele>60.22</ele>
        <time>2020-10-18T12:58:25Z</time>
      </trkpt>
      <trkpt lat="44.69193" lon="-0.59265">
        <ele>60.22</ele>
        <time>2020-10-18T12:58:28Z</time>
      </trkpt>
      <trkpt lat="44.69203" lon="-0.59269">
        <ele>60.22</ele>
        <time>2020-10-18T12:58:45Z</time>
      </trkpt>
      <trkpt lat="44.69202" lon="-0.59269">
        <ele>60.22</ele>
        <time>2020-10-18T12:59:02Z</time>
      </trkpt>
      <trkpt lat="44.69202" lon="-0.59269">
        <ele>59.74</ele>
        <time>2020-10-18T12:59:23Z</time>
      </trkpt>
      <trkpt lat="44.69202" lon="-0.59269">
        <ele>59.74</ele>
        <time>2020-10-18T12:59:56Z</time>
      </trkpt>
      <trkpt lat="44.69202" lon="-0.59269">
        <ele>60.22</ele>
        <time>2020-10-18T13:00:27Z</time>
      </trkpt>
      <trkpt lat="44.69202" lon="-0.59269">
        <ele>58.78</ele>
        <time>2020-10-18T13:00:56Z</time>
      </trkpt>
      <trkpt lat="44.69202" lon="-0.59269">
        <ele>59.26</ele>
        <time>2020-10-18T13:01:21Z</time>
      </trkpt>
      <trkpt lat="44.69202" lon="-0.59269">
        <ele>59.74</ele>
        <time>2020-10-18T13:01:47Z</time>
      </trkpt>
      <trkpt lat="44.69202" lon="-0.59269">
        <ele>59.74</ele>
        <time>2020-10-18T13:02:12Z</time>
      </trkpt>
      <trkpt lat="44.69202" lon="-0.59268">
        <ele>59.26</ele>
        <time>2020-10-18T13:02:39Z</time>
      </trkpt>
      <trkpt lat="44.69202" lon="-0.59269">
        <ele>59.26</ele>
        <time>2020-10-18T13:03:14Z</time>
      </trkpt>
      <trkpt lat="44.69201" lon="-0.59268">
        <ele>59.26</ele>
        <time>2020-10-18T13:03:44Z</time>
      </trkpt>
      <trkpt lat="44.69201" lon="-0.59268">
        <ele>58.78</ele>
        <time>2020-10-18T13:04:04Z</time>
      </trkpt>
      <trkpt lat="44.69201" lon="-0.59268">
        <ele>58.3</ele>
        <time>2020-10-18T13:04:25Z</time>
      </trkpt>
      <trkpt lat="44.69201" lon="-0.59268">
        <ele>59.26</ele>
        <time>2020-10-18T13:04:41Z</time>
      </trkpt>
      <trkpt lat="44.69201" lon="-0.59268">
        <ele>58.78</ele>
        <time>2020-10-18T13:05:06Z</time>
      </trkpt>
      <trkpt lat="44.69201" lon="-0.59267">
        <ele>58.78</ele>
        <time>2020-10-18T13:05:30Z</time>
      </trkpt>
      <trkpt lat="44.69201" lon="-0.59267">
        <ele>58.78</ele>
        <time>2020-10-18T13:05:57Z</time>
      </trkpt>
      <trkpt lat="44.69201" lon="-0.59267">
        <ele>58.3</ele>
        <time>2020-10-18T13:06:22Z</time>
      </trkpt>
      <trkpt lat="44.69201" lon="-0.59268">
        <ele>58.78</ele>
        <time>2020-10-18T13:06:49Z</time>
      </trkpt>
      <trkpt lat="44.69201" lon="-0.59268">
        <ele>58.3</ele>
        <time>2020-10-18T13:07:11Z</time>
      </trkpt>
      <trkpt lat="44.69199" lon="-0.59267">
        <ele>58.3</ele>
        <time>2020-10-18T13:07:32Z</time>
      </trkpt>
      <trkpt lat="44.69199" lon="-0.59267">
        <ele>58.3</ele>
        <time>2020-10-18T13:07:50Z</time>
      </trkpt>
      <trkpt lat="44.69199" lon="-0.59267">
        <ele>58.3</ele>
        <time>2020-10-18T13:08:16Z</time>
      </trkpt>
      <trkpt lat="44.69197" lon="-0.59268">
        <ele>57.82</ele>
        <time>2020-10-18T13:08:38Z</time>
      </trkpt>
      <trkpt lat="44.69197" lon="-0.59268">
        <ele>58.3</ele>
        <time>2020-10-18T13:09:04Z</time>
      </trkpt>
      <trkpt lat="44.69201" lon="-0.59267">
        <ele>58.3</ele>
        <time>2020-10-18T13:09:19Z</time>
      </trkpt>
      <trkpt lat="44.69201" lon="-0.59267">
        <ele>58.78</ele>
        <time>2020-10-18T13:09:36Z</time>
      </trkpt>
      <trkpt lat="44.69201" lon="-0.59267">
        <ele>58.78</ele>
        <time>2020-10-18T13:10:03Z</time>
      </trkpt>
      <trkpt lat="44.69201" lon="-0.59267">
        <ele>57.34</ele>
        <time>2020-10-18T13:10:27Z</time>
      </trkpt>
      <trkpt lat="44.692" lon="-0.59266">
        <ele>57.82</ele>
        <time>2020-10-18T13:10:47Z</time>
      </trkpt>
      <trkpt lat="44.692" lon="-0.59266">
        <ele>57.82</ele>
        <time>2020-10-18T13:11:05Z</time>
      </trkpt>
      <trkpt lat="44.69199" lon="-0.59266">
        <ele>57.82</ele>
        <time>2020-10-18T13:11:25Z</time>
      </trkpt>
      <trkpt lat="44.692" lon="-0.59268">
        <ele>57.82</ele>
        <time>2020-10-18T13:11:47Z</time>
      </trkpt>
      <trkpt lat="44.69201" lon="-0.59268">
        <ele>57.82</ele>
        <time>2020-10-18T13:12:13Z</time>
      </trkpt>
      <trkpt lat="44.69201" lon="-0.59268">
        <ele>57.82</ele>
        <time>2020-10-18T13:12:42Z</time>
      </trkpt>
      <trkpt lat="44.69201" lon="-0.59268">
        <ele>58.3</ele>
        <time>2020-10-18T13:13:18Z</time>
      </trkpt>
      <trkpt lat="44.69201" lon="-0.59268">
        <ele>57.82</ele>
        <time>2020-10-18T13:13:45Z</time>
      </trkpt>
      <trkpt lat="44.69201" lon="-0.59268">
        <ele>57.82</ele>
        <time>2020-10-18T13:14:07Z</time>
      </trkpt>
      <trkpt lat="44.69201" lon="-0.59268">
        <ele>57.82</ele>
        <time>2020-10-18T13:14:32Z</time>
      </trkpt>
      <trkpt lat="44.69201" lon="-0.59268">
        <ele>57.82</ele>
        <time>2020-10-18T13:15:01Z</time>
      </trkpt>
      <trkpt lat="44.69201" lon="-0.59268">
        <ele>58.3</ele>
        <time>2020-10-18T13:15:25Z</time>
      </trkpt>
      <trkpt lat="44.69201" lon="-0.59268">
        <ele>57.82</ele>
        <time>2020-10-18T13:15:48Z</time>
      </trkpt>
      <trkpt lat="44.69201" lon="-0.59268">
        <ele>57.82</ele>
        <time>2020-10-18T13:16:18Z</time>
      </trkpt>
      <trkpt lat="44.69201" lon="-0.59268">
        <ele>57.82</ele>
        <time>2020-10-18T13:16:40Z</time>
      </trkpt>
      <trkpt lat="44.69203" lon="-0.59266">
        <ele>58.78</ele>
        <time>2020-10-18T13:17:02Z</time>
      </trkpt>
      <trkpt lat="44.69203" lon="-0.59266">
        <ele>58.3</ele>
        <time>2020-10-18T13:17:24Z</time>
      </trkpt>
      <trkpt lat="44.69203" lon="-0.59266">
        <ele>58.3</ele>
        <time>2020-10-18T13:17:55Z</time>
      </trkpt>
      <trkpt lat="44.69204" lon="-0.59266">
        <ele>58.3</ele>
        <time>2020-10-18T13:18:21Z</time>
      </trkpt>
      <trkpt lat="44.69204" lon="-0.59266">
        <ele>58.78</ele>
        <time>2020-10-18T13:18:47Z</time>
      </trkpt>
      <trkpt lat="44.69204" lon="-0.59266">
        <ele>58.78</ele>
        <time>2020-10-18T13:19:14Z</time>
      </trkpt>
      <trkpt lat="44.69203" lon="-0.59265">
        <ele>58.78</ele>
        <time>2020-10-18T13:19:46Z</time>
      </trkpt>
      <trkpt lat="44.69204" lon="-0.59265">
        <ele>58.78</ele>
        <time>2020-10-18T13:20:06Z</time>
      </trkpt>
      <trkpt lat="44.69204" lon="-0.59266">
        <ele>58.78</ele>
        <time>2020-10-18T13:20:31Z</time>
      </trkpt>
      <trkpt lat="44.69203" lon="-0.59268">
        <ele>59.26</ele>
        <time>2020-10-18T13:20:47Z</time>
      </trkpt>
      <trkpt lat="44.69203" lon="-0.59268">
        <ele>58.78</ele>
        <time>2020-10-18T13:21:09Z</time>
      </trkpt>
      <trkpt lat="44.69202" lon="-0.59268">
        <ele>58.78</ele>
        <time>2020-10-18T13:21:30Z</time>
      </trkpt>
      <trkpt lat="44.69202" lon="-0.59267">
        <ele>58.3</ele>
        <time>2020-10-18T13:21:53Z</time>
      </trkpt>
      <trkpt lat="44.69202" lon="-0.59267">
        <ele>58.3</ele>
        <time>2020-10-18T13:22:19Z</time>
      </trkpt>
      <trkpt lat="44.69202" lon="-0.59267">
        <ele>58.78</ele>
        <time>2020-10-18T13:22:48Z</time>
      </trkpt>
      <trkpt lat="44.69203" lon="-0.59269">
        <ele>58.78</ele>
        <time>2020-10-18T13:23:21Z</time>
      </trkpt>
      <trkpt lat="44.69204" lon="-0.5927">
        <ele>58.78</ele>
        <time>2020-10-18T13:23:57Z</time>
      </trkpt>
      <trkpt lat="44.69204" lon="-0.5927">
        <ele>58.3</ele>
        <time>2020-10-18T13:24:27Z</time>
      </trkpt>
      <trkpt lat="44.69204" lon="-0.5927">
        <ele>58.3</ele>
        <time>2020-10-18T13:25:00Z</time>
      </trkpt>
      <trkpt lat="44.69204" lon="-0.5927">
        <ele>58.78</ele>
        <time>2020-10-18T13:25:24Z</time>
      </trkpt>
      <trkpt lat="44.69203" lon="-0.59269">
        <ele>58.3</ele>
        <time>2020-10-18T13:25:51Z</time>
      </trkpt>
      <trkpt lat="44.69206" lon="-0.5927">
        <ele>58.78</ele>
        <time>2020-10-18T13:25:58Z</time>
      </trkpt>
      <trkpt lat="44.69241" lon="-0.59277">
        <ele>58.78</ele>
        <time>2020-10-18T13:26:12Z</time>
      </trkpt>
      <trkpt lat="44.69286" lon="-0.59277">
        <ele>57.82</ele>
        <time>2020-10-18T13:26:28Z</time>
      </trkpt>
      <trkpt lat="44.69325" lon="-0.59281">
        <ele>57.82</ele>
        <time>2020-10-18T13:26:42Z</time>
      </trkpt>
      <trkpt lat="44.69376" lon="-0.59283">
        <ele>57.82</ele>
        <time>2020-10-18T13:26:56Z</time>
      </trkpt>
      <trkpt lat="44.69439" lon="-0.59286">
        <ele>56.86</ele>
        <time>2020-10-18T13:27:13Z</time>
      </trkpt>
      <trkpt lat="44.69463" lon="-0.5925">
        <ele>56.86</ele>
        <time>2020-10-18T13:27:27Z</time>
      </trkpt>
      <trkpt lat="44.69468" lon="-0.59183">
        <ele>56.37</ele>
        <time>2020-10-18T13:27:39Z</time>
      </trkpt>
      <trkpt lat="44.69481" lon="-0.59096">
        <ele>55.89</ele>
        <time>2020-10-18T13:27:57Z</time>
      </trkpt>
      <trkpt lat="44.6946" lon="-0.59016">
        <ele>56.37</ele>
        <time>2020-10-18T13:28:13Z</time>
      </trkpt>
      <trkpt lat="44.6947" lon="-0.59009">
        <ele>55.89</ele>
        <time>2020-10-18T13:28:19Z</time>
      </trkpt>
      <trkpt lat="44.69486" lon="-0.59015">
        <ele>55.89</ele>
        <time>2020-10-18T13:28:23Z</time>
      </trkpt>
      <trkpt lat="44.69553" lon="-0.59022">
        <ele>55.89</ele>
        <time>2020-10-18T13:28:36Z</time>
      </trkpt>
      <trkpt lat="44.69584" lon="-0.59028">
        <ele>54.93</ele>
        <time>2020-10-18T13:28:42Z</time>
      </trkpt>
      <trkpt lat="44.69621" lon="-0.59095">
        <ele>55.41</ele>
        <time>2020-10-18T13:28:56Z</time>
      </trkpt>
      <trkpt lat="44.69651" lon="-0.59187">
        <ele>54.93</ele>
        <time>2020-10-18T13:29:12Z</time>
      </trkpt>
      <trkpt lat="44.69687" lon="-0.59269">
        <ele>55.41</ele>
        <time>2020-10-18T13:29:28Z</time>
      </trkpt>
      <trkpt lat="44.69704" lon="-0.59294">
        <ele>55.89</ele>
        <time>2020-10-18T13:29:34Z</time>
      </trkpt>
      <trkpt lat="44.69708" lon="-0.59296">
        <ele>56.37</ele>
        <time>2020-10-18T13:29:35Z</time>
      </trkpt>
      <trkpt lat="44.69765" lon="-0.59304">
        <ele>54.93</ele>
        <time>2020-10-18T13:29:49Z</time>
      </trkpt>
      <trkpt lat="44.69835" lon="-0.59306">
        <ele>55.41</ele>
        <time>2020-10-18T13:30:05Z</time>
      </trkpt>
      <trkpt lat="44.69902" lon="-0.59323">
        <ele>54.45</ele>
        <time>2020-10-18T13:30:20Z</time>
      </trkpt>
      <trkpt lat="44.69985" lon="-0.5933">
        <ele>54.45</ele>
        <time>2020-10-18T13:30:38Z</time>
      </trkpt>
      <trkpt lat="44.7005" lon="-0.59335">
        <ele>53.97</ele>
        <time>2020-10-18T13:30:52Z</time>
      </trkpt>
      <trkpt lat="44.70054" lon="-0.59336">
        <ele>53.01</ele>
        <time>2020-10-18T13:30:53Z</time>
      </trkpt>
      <trkpt lat="44.70059" lon="-0.59336">
        <ele>53.49</ele>
        <time>2020-10-18T13:30:54Z</time>
      </trkpt>
      <trkpt lat="44.70084" lon="-0.59337">
        <ele>53.01</ele>
        <time>2020-10-18T13:31:04Z</time>
      </trkpt>
      <trkpt lat="44.70087" lon="-0.59335">
        <ele>53.01</ele>
        <time>2020-10-18T13:31:14Z</time>
      </trkpt>
      <trkpt lat="44.7009" lon="-0.59335">
        <ele>53.01</ele>
        <time>2020-10-18T13:31:30Z</time>
      </trkpt>
      <trkpt lat="44.70091" lon="-0.59334">
        <ele>52.53</ele>
        <time>2020-10-18T13:31:48Z</time>
      </trkpt>
      <trkpt lat="44.70091" lon="-0.59334">
        <ele>52.53</ele>
        <time>2020-10-18T13:32:14Z</time>
      </trkpt>
      <trkpt lat="44.70091" lon="-0.59335">
        <ele>52.53</ele>
        <time>2020-10-18T13:32:35Z</time>
      </trkpt>
      <trkpt lat="44.70091" lon="-0.59335">
        <ele>52.05</ele>
        <time>2020-10-18T13:33:11Z</time>
      </trkpt>
      <trkpt lat="44.70091" lon="-0.59335">
        <ele>52.53</ele>
        <time>2020-10-18T13:33:35Z</time>
      </trkpt>
      <trkpt lat="44.70091" lon="-0.59335">
        <ele>52.05</ele>
        <time>2020-10-18T13:34:04Z</time>
      </trkpt>
      <trkpt lat="44.70091" lon="-0.59334">
        <ele>52.53</ele>
        <time>2020-10-18T13:34:31Z</time>
      </trkpt>
      <trkpt lat="44.70093" lon="-0.59334">
        <ele>52.53</ele>
        <time>2020-10-18T13:34:58Z</time>
      </trkpt>
      <trkpt lat="44.70097" lon="-0.59335">
        <ele>52.05</ele>
        <time>2020-10-18T13:35:12Z</time>
      </trkpt>
      <trkpt lat="44.70097" lon="-0.59335">
        <ele>52.53</ele>
        <time>2020-10-18T13:35:41Z</time>
      </trkpt>
      <trkpt lat="44.701" lon="-0.59334">
        <ele>52.53</ele>
        <time>2020-10-18T13:36:10Z</time>
      </trkpt>
      <trkpt lat="44.70101" lon="-0.59334">
        <ele>52.05</ele>
        <time>2020-10-18T13:36:29Z</time>
      </trkpt>
      <trkpt lat="44.70105" lon="-0.59333">
        <ele>52.05</ele>
        <time>2020-10-18T13:36:46Z</time>
      </trkpt>
      <trkpt lat="44.7011" lon="-0.59335">
        <ele>52.53</ele>
        <time>2020-10-18T13:37:10Z</time>
      </trkpt>
      <trkpt lat="44.7011" lon="-0.59335">
        <ele>52.53</ele>
        <time>2020-10-18T13:37:33Z</time>
      </trkpt>
      <trkpt lat="44.70112" lon="-0.59334">
        <ele>52.53</ele>
        <time>2020-10-18T13:37:52Z</time>
      </trkpt>
      <trkpt lat="44.70112" lon="-0.59334">
        <ele>53.01</ele>
        <time>2020-10-18T13:38:10Z</time>
      </trkpt>
      <trkpt lat="44.70114" lon="-0.59334">
        <ele>52.53</ele>
        <time>2020-10-18T13:38:11Z</time>
      </trkpt>
      <trkpt lat="44.7013" lon="-0.59334">
        <ele>52.53</ele>
        <time>2020-10-18T13:38:24Z</time>
      </trkpt>
      <trkpt lat="44.70132" lon="-0.59335">
        <ele>52.53</ele>
        <time>2020-10-18T13:39:02Z</time>
      </trkpt>
      <trkpt lat="44.70132" lon="-0.59335">
        <ele>52.53</ele>
        <time>2020-10-18T13:39:43Z</time>
      </trkpt>
      <trkpt lat="44.70132" lon="-0.59335">
        <ele>52.05</ele>
        <time>2020-10-18T13:40:26Z</time>
      </trkpt>
      <trkpt lat="44.70134" lon="-0.59335">
        <ele>52.53</ele>
        <time>2020-10-18T13:40:45Z</time>
      </trkpt>
      <trkpt lat="44.70154" lon="-0.59336">
        <ele>53.49</ele>
        <time>2020-10-18T13:41:00Z</time>
      </trkpt>
      <trkpt lat="44.70182" lon="-0.59337">
        <ele>53.49</ele>
        <time>2020-10-18T13:41:14Z</time>
      </trkpt>
      <trkpt lat="44.70208" lon="-0.59339">
        <ele>53.97</ele>
        <time>2020-10-18T13:41:29Z</time>
      </trkpt>
      <trkpt lat="44.70231" lon="-0.5934">
        <ele>53.97</ele>
        <time>2020-10-18T13:41:44Z</time>
      </trkpt>
      <trkpt lat="44.70257" lon="-0.59342">
        <ele>53.49</ele>
        <time>2020-10-18T13:41:58Z</time>
      </trkpt>
      <trkpt lat="44.7029" lon="-0.59346">
        <ele>53.49</ele>
        <time>2020-10-18T13:42:13Z</time>
      </trkpt>
      <trkpt lat="44.70301" lon="-0.59347">
        <ele>53.49</ele>
        <time>2020-10-18T13:42:19Z</time>
      </trkpt>
      <trkpt lat="44.70301" lon="-0.59348">
        <ele>53.49</ele>
        <time>2020-10-18T13:42:32Z</time>
      </trkpt>
      <trkpt lat="44.70303" lon="-0.59348">
        <ele>52.53</ele>
        <time>2020-10-18T13:42:36Z</time>
      </trkpt>
      <trkpt lat="44.70305" lon="-0.59348">
        <ele>52.53</ele>
        <time>2020-10-18T13:42:37Z</time>
      </trkpt>
      <trkpt lat="44.70307" lon="-0.59349">
        <ele>52.53</ele>
        <time>2020-10-18T13:42:38Z</time>
      </trkpt>
      <trkpt lat="44.70309" lon="-0.59349">
        <ele>52.53</ele>
        <time>2020-10-18T13:42:39Z</time>
      </trkpt>
      <trkpt lat="44.70311" lon="-0.59349">
        <ele>53.49</ele>
        <time>2020-10-18T13:42:40Z</time>
      </trkpt>
      <trkpt lat="44.70342" lon="-0.59348">
        <ele>53.97</ele>
        <time>2020-10-18T13:42:53Z</time>
      </trkpt>
      <trkpt lat="44.70374" lon="-0.59348">
        <ele>53.49</ele>
        <time>2020-10-18T13:43:09Z</time>
      </trkpt>
      <trkpt lat="44.70396" lon="-0.59351">
        <ele>53.01</ele>
        <time>2020-10-18T13:43:24Z</time>
      </trkpt>
      <trkpt lat="44.70396" lon="-0.59351">
        <ele>52.53</ele>
        <time>2020-10-18T13:43:57Z</time>
      </trkpt>
      <trkpt lat="44.70398" lon="-0.59351">
        <ele>53.01</ele>
        <time>2020-10-18T13:44:02Z</time>
      </trkpt>
      <trkpt lat="44.7043" lon="-0.59353">
        <ele>52.05</ele>
        <time>2020-10-18T13:44:17Z</time>
      </trkpt>
      <trkpt lat="44.70464" lon="-0.59358">
        <ele>52.05</ele>
        <time>2020-10-18T13:44:32Z</time>
      </trkpt>
      <trkpt lat="44.70501" lon="-0.59361">
        <ele>52.05</ele>
        <time>2020-10-18T13:44:48Z</time>
      </trkpt>
      <trkpt lat="44.70541" lon="-0.59362">
        <ele>52.53</ele>
        <time>2020-10-18T13:45:03Z</time>
      </trkpt>
      <trkpt lat="44.7058" lon="-0.59367">
        <ele>53.01</ele>
        <time>2020-10-18T13:45:16Z</time>
      </trkpt>
      <trkpt lat="44.70628" lon="-0.59367">
        <ele>52.05</ele>
        <time>2020-10-18T13:45:31Z</time>
      </trkpt>
      <trkpt lat="44.70653" lon="-0.59386">
        <ele>52.53</ele>
        <time>2020-10-18T13:45:43Z</time>
      </trkpt>
      <trkpt lat="44.70679" lon="-0.5939">
        <ele>51.57</ele>
        <time>2020-10-18T13:45:57Z</time>
      </trkpt>
      <trkpt lat="44.70715" lon="-0.59382">
        <ele>52.05</ele>
        <time>2020-10-18T13:46:10Z</time>
      </trkpt>
      <trkpt lat="44.70757" lon="-0.59368">
        <ele>50.61</ele>
        <time>2020-10-18T13:46:25Z</time>
      </trkpt>
      <trkpt lat="44.70778" lon="-0.59354">
        <ele>50.61</ele>
        <time>2020-10-18T13:46:39Z</time>
      </trkpt>
      <trkpt lat="44.70794" lon="-0.59348">
        <ele>50.61</ele>
        <time>2020-10-18T13:46:56Z</time>
      </trkpt>
      <trkpt lat="44.70794" lon="-0.59348">
        <ele>50.61</ele>
        <time>2020-10-18T13:47:21Z</time>
      </trkpt>
      <trkpt lat="44.70793" lon="-0.59348">
        <ele>50.13</ele>
        <time>2020-10-18T13:48:00Z</time>
      </trkpt>
      <trkpt lat="44.70793" lon="-0.59348">
        <ele>50.13</ele>
        <time>2020-10-18T13:48:37Z</time>
      </trkpt>
      <trkpt lat="44.70793" lon="-0.59348">
        <ele>50.13</ele>
        <time>2020-10-18T13:49:08Z</time>
      </trkpt>
      <trkpt lat="44.70793" lon="-0.59348">
        <ele>50.13</ele>
        <time>2020-10-18T13:49:34Z</time>
      </trkpt>
      <trkpt lat="44.70793" lon="-0.59348">
        <ele>49.65</ele>
        <time>2020-10-18T13:49:50Z</time>
      </trkpt>
      <trkpt lat="44.70794" lon="-0.5935">
        <ele>50.13</ele>
        <time>2020-10-18T13:50:09Z</time>
      </trkpt>
      <trkpt lat="44.70795" lon="-0.5935">
        <ele>50.13</ele>
        <time>2020-10-18T13:50:44Z</time>
      </trkpt>
      <trkpt lat="44.70797" lon="-0.5935">
        <ele>50.61</ele>
        <time>2020-10-18T13:51:17Z</time>
      </trkpt>
      <trkpt lat="44.70811" lon="-0.59346">
        <ele>50.61</ele>
        <time>2020-10-18T13:51:31Z</time>
      </trkpt>
      <trkpt lat="44.70812" lon="-0.59346">
        <ele>50.13</ele>
        <time>2020-10-18T13:51:49Z</time>
      </trkpt>
      <trkpt lat="44.70826" lon="-0.59345">
        <ele>50.61</ele>
        <time>2020-10-18T13:52:03Z</time>
      </trkpt>
      <trkpt lat="44.70826" lon="-0.59345">
        <ele>50.13</ele>
        <time>2020-10-18T13:52:21Z</time>
      </trkpt>
      <trkpt lat="44.70827" lon="-0.59345">
        <ele>50.13</ele>
        <time>2020-10-18T13:52:51Z</time>
      </trkpt>
      <trkpt lat="44.70828" lon="-0.59344">
        <ele>50.13</ele>
        <time>2020-10-18T13:53:22Z</time>
      </trkpt>
      <trkpt lat="44.70828" lon="-0.59344">
        <ele>50.13</ele>
        <time>2020-10-18T13:53:36Z</time>
      </trkpt>
      <trkpt lat="44.70829" lon="-0.59344">
        <ele>50.61</ele>
        <time>2020-10-18T13:54:09Z</time>
      </trkpt>
      <trkpt lat="44.7083" lon="-0.59343">
        <ele>50.61</ele>
        <time>2020-10-18T13:54:49Z</time>
      </trkpt>
      <trkpt lat="44.7083" lon="-0.59343">
        <ele>50.61</ele>
        <time>2020-10-18T13:55:17Z</time>
      </trkpt>
      <trkpt lat="44.7084" lon="-0.59341">
        <ele>50.61</ele>
        <time>2020-10-18T13:55:22Z</time>
      </trkpt>
      <trkpt lat="44.70869" lon="-0.59328">
        <ele>52.05</ele>
        <time>2020-10-18T13:55:37Z</time>
      </trkpt>
      <trkpt lat="44.70898" lon="-0.59359">
        <ele>53.01</ele>
        <time>2020-10-18T13:55:51Z</time>
      </trkpt>
      <trkpt lat="44.70935" lon="-0.59386">
        <ele>52.53</ele>
        <time>2020-10-18T13:56:06Z</time>
      </trkpt>
      <trkpt lat="44.70972" lon="-0.59438">
        <ele>51.57</ele>
        <time>2020-10-18T13:56:20Z</time>
      </trkpt>
      <trkpt lat="44.70995" lon="-0.59499">
        <ele>51.09</ele>
        <time>2020-10-18T13:56:34Z</time>
      </trkpt>
      <trkpt lat="44.71018" lon="-0.59569">
        <ele>51.09</ele>
        <time>2020-10-18T13:56:49Z</time>
      </trkpt>
      <trkpt lat="44.71031" lon="-0.59637">
        <ele>50.61</ele>
        <time>2020-10-18T13:57:02Z</time>
      </trkpt>
      <trkpt lat="44.71065" lon="-0.59699">
        <ele>51.57</ele>
        <time>2020-10-18T13:57:18Z</time>
      </trkpt>
      <trkpt lat="44.71086" lon="-0.59716">
        <ele>52.53</ele>
        <time>2020-10-18T13:57:27Z</time>
      </trkpt>
      <trkpt lat="44.71115" lon="-0.59685">
        <ele>53.01</ele>
        <time>2020-10-18T13:57:38Z</time>
      </trkpt>
      <trkpt lat="44.71156" lon="-0.59688">
        <ele>53.01</ele>
        <time>2020-10-18T13:57:52Z</time>
      </trkpt>
      <trkpt lat="44.7119" lon="-0.5975">
        <ele>52.05</ele>
        <time>2020-10-18T13:58:05Z</time>
      </trkpt>
      <trkpt lat="44.71207" lon="-0.59815">
        <ele>52.05</ele>
        <time>2020-10-18T13:58:18Z</time>
      </trkpt>
      <trkpt lat="44.71248" lon="-0.59906">
        <ele>52.05</ele>
        <time>2020-10-18T13:58:37Z</time>
      </trkpt>
      <trkpt lat="44.71297" lon="-0.59958">
        <ele>51.09</ele>
        <time>2020-10-18T13:58:51Z</time>
      </trkpt>
      <trkpt lat="44.71337" lon="-0.59987">
        <ele>50.61</ele>
        <time>2020-10-18T13:59:00Z</time>
      </trkpt>
      <trkpt lat="44.71346" lon="-0.59996">
        <ele>50.13</ele>
        <time>2020-10-18T13:59:02Z</time>
      </trkpt>
      <trkpt lat="44.71404" lon="-0.59994">
        <ele>49.65</ele>
        <time>2020-10-18T13:59:16Z</time>
      </trkpt>
      <trkpt lat="44.7145" lon="-0.5997">
        <ele>48.2</ele>
        <time>2020-10-18T13:59:28Z</time>
      </trkpt>
      <trkpt lat="44.71471" lon="-0.59935">
        <ele>48.68</ele>
        <time>2020-10-18T13:59:40Z</time>
      </trkpt>
      <trkpt lat="44.71471" lon="-0.59934">
        <ele>48.2</ele>
        <time>2020-10-18T13:59:53Z</time>
      </trkpt>
      <trkpt lat="44.71503" lon="-0.59912">
        <ele>48.68</ele>
        <time>2020-10-18T14:00:05Z</time>
      </trkpt>
      <trkpt lat="44.71562" lon="-0.59875">
        <ele>48.68</ele>
        <time>2020-10-18T14:00:21Z</time>
      </trkpt>
      <trkpt lat="44.71623" lon="-0.5985">
        <ele>49.16</ele>
        <time>2020-10-18T14:00:37Z</time>
      </trkpt>
      <trkpt lat="44.71653" lon="-0.5986">
        <ele>48.68</ele>
        <time>2020-10-18T14:00:49Z</time>
      </trkpt>
      <trkpt lat="44.717" lon="-0.59909">
        <ele>47.72</ele>
        <time>2020-10-18T14:01:02Z</time>
      </trkpt>
      <trkpt lat="44.71719" lon="-0.59936">
        <ele>47.72</ele>
        <time>2020-10-18T14:01:08Z</time>
      </trkpt>
      <trkpt lat="44.71763" lon="-0.59966">
        <ele>47.72</ele>
        <time>2020-10-18T14:01:17Z</time>
      </trkpt>
      <trkpt lat="44.71789" lon="-0.59972">
        <ele>47.24</ele>
        <time>2020-10-18T14:01:22Z</time>
      </trkpt>
      <trkpt lat="44.71834" lon="-0.59972">
        <ele>46.76</ele>
        <time>2020-10-18T14:01:30Z</time>
      </trkpt>
      <trkpt lat="44.7184" lon="-0.59973">
        <ele>47.72</ele>
        <time>2020-10-18T14:01:31Z</time>
      </trkpt>
      <trkpt lat="44.71866" lon="-0.59969">
        <ele>46.76</ele>
        <time>2020-10-18T14:01:36Z</time>
      </trkpt>
      <trkpt lat="44.71872" lon="-0.59966">
        <ele>47.24</ele>
        <time>2020-10-18T14:01:37Z</time>
      </trkpt>
      <trkpt lat="44.71921" lon="-0.59943">
        <ele>45.8</ele>
        <time>2020-10-18T14:01:49Z</time>
      </trkpt>
      <trkpt lat="44.71922" lon="-0.59943">
        <ele>45.8</ele>
        <time>2020-10-18T14:01:50Z</time>
      </trkpt>
      <trkpt lat="44.71923" lon="-0.59944">
        <ele>45.32</ele>
        <time>2020-10-18T14:01:51Z</time>
      </trkpt>
      <trkpt lat="44.71925" lon="-0.59945">
        <ele>45.8</ele>
        <time>2020-10-18T14:01:52Z</time>
      </trkpt>
      <trkpt lat="44.71927" lon="-0.59946">
        <ele>46.28</ele>
        <time>2020-10-18T14:01:53Z</time>
      </trkpt>
      <trkpt lat="44.71936" lon="-0.59957">
        <ele>45.8</ele>
        <time>2020-10-18T14:01:57Z</time>
      </trkpt>
      <trkpt lat="44.7194" lon="-0.59962">
        <ele>46.28</ele>
        <time>2020-10-18T14:01:58Z</time>
      </trkpt>
      <trkpt lat="44.71978" lon="-0.60037">
        <ele>44.84</ele>
        <time>2020-10-18T14:02:09Z</time>
      </trkpt>
      <trkpt lat="44.72009" lon="-0.60121">
        <ele>43.88</ele>
        <time>2020-10-18T14:02:20Z</time>
      </trkpt>
      <trkpt lat="44.72015" lon="-0.60135">
        <ele>41.95</ele>
        <time>2020-10-18T14:02:22Z</time>
      </trkpt>
      <trkpt lat="44.72035" lon="-0.60177">
        <ele>41.95</ele>
        <time>2020-10-18T14:02:28Z</time>
      </trkpt>
      <trkpt lat="44.72052" lon="-0.60222">
        <ele>42.44</ele>
        <time>2020-10-18T14:02:34Z</time>
      </trkpt>
      <trkpt lat="44.72054" lon="-0.60231">
        <ele>41.95</ele>
        <time>2020-10-18T14:02:35Z</time>
      </trkpt>
      <trkpt lat="44.72057" lon="-0.60299">
        <ele>41.47</ele>
        <time>2020-10-18T14:02:43Z</time>
      </trkpt>
      <trkpt lat="44.72057" lon="-0.60307">
        <ele>41.47</ele>
        <time>2020-10-18T14:02:44Z</time>
      </trkpt>
      <trkpt lat="44.72052" lon="-0.60343">
        <ele>40.99</ele>
        <time>2020-10-18T14:02:49Z</time>
      </trkpt>
      <trkpt lat="44.72052" lon="-0.60349">
        <ele>40.51</ele>
        <time>2020-10-18T14:02:50Z</time>
      </trkpt>
      <trkpt lat="44.72053" lon="-0.60356">
        <ele>40.03</ele>
        <time>2020-10-18T14:02:51Z</time>
      </trkpt>
      <trkpt lat="44.72055" lon="-0.60361">
        <ele>40.03</ele>
        <time>2020-10-18T14:02:52Z</time>
      </trkpt>
      <trkpt lat="44.72058" lon="-0.60366">
        <ele>39.55</ele>
        <time>2020-10-18T14:02:53Z</time>
      </trkpt>
      <trkpt lat="44.72062" lon="-0.6037">
        <ele>39.55</ele>
        <time>2020-10-18T14:02:54Z</time>
      </trkpt>
      <trkpt lat="44.72066" lon="-0.60373">
        <ele>39.55</ele>
        <time>2020-10-18T14:02:55Z</time>
      </trkpt>
      <trkpt lat="44.72071" lon="-0.60376">
        <ele>39.07</ele>
        <time>2020-10-18T14:02:56Z</time>
      </trkpt>
      <trkpt lat="44.72075" lon="-0.60378">
        <ele>39.07</ele>
        <time>2020-10-18T14:02:57Z</time>
      </trkpt>
      <trkpt lat="44.7208" lon="-0.60379">
        <ele>38.11</ele>
        <time>2020-10-18T14:02:58Z</time>
      </trkpt>
      <trkpt lat="44.72085" lon="-0.6038">
        <ele>38.59</ele>
        <time>2020-10-18T14:02:59Z</time>
      </trkpt>
      <trkpt lat="44.72102" lon="-0.60378">
        <ele>37.15</ele>
        <time>2020-10-18T14:03:03Z</time>
      </trkpt>
      <trkpt lat="44.72109" lon="-0.60379">
        <ele>37.15</ele>
        <time>2020-10-18T14:03:05Z</time>
      </trkpt>
      <trkpt lat="44.7211" lon="-0.60383">
        <ele>36.67</ele>
        <time>2020-10-18T14:03:06Z</time>
      </trkpt>
      <trkpt lat="44.7211" lon="-0.60388">
        <ele>37.15</ele>
        <time>2020-10-18T14:03:07Z</time>
      </trkpt>
      <trkpt lat="44.72109" lon="-0.60393">
        <ele>37.63</ele>
        <time>2020-10-18T14:03:08Z</time>
      </trkpt>
      <trkpt lat="44.72107" lon="-0.60399">
        <ele>37.63</ele>
        <time>2020-10-18T14:03:09Z</time>
      </trkpt>
      <trkpt lat="44.72099" lon="-0.60424">
        <ele>37.63</ele>
        <time>2020-10-18T14:03:13Z</time>
      </trkpt>
      <trkpt lat="44.72096" lon="-0.60429">
        <ele>37.15</ele>
        <time>2020-10-18T14:03:14Z</time>
      </trkpt>
      <trkpt lat="44.72093" lon="-0.60435">
        <ele>37.15</ele>
        <time>2020-10-18T14:03:15Z</time>
      </trkpt>
      <trkpt lat="44.72076" lon="-0.60464">
        <ele>37.63</ele>
        <time>2020-10-18T14:03:21Z</time>
      </trkpt>
      <trkpt lat="44.72073" lon="-0.6047">
        <ele>37.15</ele>
        <time>2020-10-18T14:03:22Z</time>
      </trkpt>
      <trkpt lat="44.72066" lon="-0.60481">
        <ele>37.15</ele>
        <time>2020-10-18T14:03:24Z</time>
      </trkpt>
      <trkpt lat="44.72063" lon="-0.60485">
        <ele>37.63</ele>
        <time>2020-10-18T14:03:25Z</time>
      </trkpt>
      <trkpt lat="44.7206" lon="-0.6049">
        <ele>37.63</ele>
        <time>2020-10-18T14:03:26Z</time>
      </trkpt>
      <trkpt lat="44.72057" lon="-0.60494">
        <ele>37.63</ele>
        <time>2020-10-18T14:03:27Z</time>
      </trkpt>
      <trkpt lat="44.72054" lon="-0.60498">
        <ele>37.63</ele>
        <time>2020-10-18T14:03:28Z</time>
      </trkpt>
      <trkpt lat="44.7205" lon="-0.60502">
        <ele>37.63</ele>
        <time>2020-10-18T14:03:29Z</time>
      </trkpt>
      <trkpt lat="44.72046" lon="-0.60506">
        <ele>37.63</ele>
        <time>2020-10-18T14:03:30Z</time>
      </trkpt>
      <trkpt lat="44.72043" lon="-0.60511">
        <ele>38.11</ele>
        <time>2020-10-18T14:03:31Z</time>
      </trkpt>
      <trkpt lat="44.72039" lon="-0.60517">
        <ele>38.11</ele>
        <time>2020-10-18T14:03:32Z</time>
      </trkpt>
      <trkpt lat="44.72036" lon="-0.60521">
        <ele>38.11</ele>
        <time>2020-10-18T14:03:33Z</time>
      </trkpt>
      <trkpt lat="44.72033" lon="-0.60525">
        <ele>37.63</ele>
        <time>2020-10-18T14:03:34Z</time>
      </trkpt>
      <trkpt lat="44.72029" lon="-0.60529">
        <ele>38.11</ele>
        <time>2020-10-18T14:03:35Z</time>
      </trkpt>
      <trkpt lat="44.72025" lon="-0.60533">
        <ele>38.59</ele>
        <time>2020-10-18T14:03:36Z</time>
      </trkpt>
      <trkpt lat="44.71992" lon="-0.60572">
        <ele>38.11</ele>
        <time>2020-10-18T14:03:46Z</time>
      </trkpt>
      <trkpt lat="44.71998" lon="-0.60612">
        <ele>36.67</ele>
        <time>2020-10-18T14:03:55Z</time>
      </trkpt>
      <trkpt lat="44.72025" lon="-0.60695">
        <ele>35.23</ele>
        <time>2020-10-18T14:04:11Z</time>
      </trkpt>
      <trkpt lat="44.72049" lon="-0.60769">
        <ele>33.78</ele>
        <time>2020-10-18T14:04:27Z</time>
      </trkpt>
      <trkpt lat="44.72065" lon="-0.60808">
        <ele>31.86</ele>
        <time>2020-10-18T14:04:37Z</time>
      </trkpt>
      <trkpt lat="44.721" lon="-0.60877">
        <ele>30.42</ele>
        <time>2020-10-18T14:04:50Z</time>
      </trkpt>
      <trkpt lat="44.72138" lon="-0.60933">
        <ele>31.38</ele>
        <time>2020-10-18T14:05:03Z</time>
      </trkpt>
      <trkpt lat="44.7217" lon="-0.60976">
        <ele>32.82</ele>
        <time>2020-10-18T14:05:17Z</time>
      </trkpt>
      <trkpt lat="44.72192" lon="-0.6104">
        <ele>35.23</ele>
        <time>2020-10-18T14:05:33Z</time>
      </trkpt>
      <trkpt lat="44.72211" lon="-0.6109">
        <ele>35.23</ele>
        <time>2020-10-18T14:05:47Z</time>
      </trkpt>
      <trkpt lat="44.72226" lon="-0.61146">
        <ele>35.71</ele>
        <time>2020-10-18T14:06:00Z</time>
      </trkpt>
      <trkpt lat="44.72245" lon="-0.61206">
        <ele>37.63</ele>
        <time>2020-10-18T14:06:14Z</time>
      </trkpt>
      <trkpt lat="44.72265" lon="-0.61264">
        <ele>38.11</ele>
        <time>2020-10-18T14:06:28Z</time>
      </trkpt>
      <trkpt lat="44.723" lon="-0.61311">
        <ele>40.03</ele>
        <time>2020-10-18T14:06:43Z</time>
      </trkpt>
      <trkpt lat="44.72331" lon="-0.61361">
        <ele>41.47</ele>
        <time>2020-10-18T14:06:57Z</time>
      </trkpt>
      <trkpt lat="44.72361" lon="-0.61426">
        <ele>41.95</ele>
        <time>2020-10-18T14:07:13Z</time>
      </trkpt>
      <trkpt lat="44.72387" lon="-0.61474">
        <ele>43.4</ele>
        <time>2020-10-18T14:07:27Z</time>
      </trkpt>
      <trkpt lat="44.72388" lon="-0.6148">
        <ele>44.36</ele>
        <time>2020-10-18T14:07:29Z</time>
      </trkpt>
      <trkpt lat="44.72403" lon="-0.6155">
        <ele>43.4</ele>
        <time>2020-10-18T14:07:44Z</time>
      </trkpt>
      <trkpt lat="44.72417" lon="-0.61631">
        <ele>44.36</ele>
        <time>2020-10-18T14:08:01Z</time>
      </trkpt>
      <trkpt lat="44.72429" lon="-0.61719">
        <ele>45.8</ele>
        <time>2020-10-18T14:08:17Z</time>
      </trkpt>
      <trkpt lat="44.72442" lon="-0.61796">
        <ele>45.8</ele>
        <time>2020-10-18T14:08:31Z</time>
      </trkpt>
      <trkpt lat="44.72445" lon="-0.61816">
        <ele>46.28</ele>
        <time>2020-10-18T14:08:34Z</time>
      </trkpt>
      <trkpt lat="44.7247" lon="-0.619">
        <ele>46.28</ele>
        <time>2020-10-18T14:08:48Z</time>
      </trkpt>
      <trkpt lat="44.7248" lon="-0.61967">
        <ele>47.24</ele>
        <time>2020-10-18T14:09:01Z</time>
      </trkpt>
      <trkpt lat="44.72483" lon="-0.62041">
        <ele>47.24</ele>
        <time>2020-10-18T14:09:14Z</time>
      </trkpt>
      <trkpt lat="44.72474" lon="-0.62103">
        <ele>48.2</ele>
        <time>2020-10-18T14:09:29Z</time>
      </trkpt>
      <trkpt lat="44.72431" lon="-0.62116">
        <ele>48.68</ele>
        <time>2020-10-18T14:09:43Z</time>
      </trkpt>
      <trkpt lat="44.72382" lon="-0.62122">
        <ele>49.16</ele>
        <time>2020-10-18T14:09:58Z</time>
      </trkpt>
      <trkpt lat="44.72343" lon="-0.62138">
        <ele>47.72</ele>
        <time>2020-10-18T14:10:14Z</time>
      </trkpt>
      <trkpt lat="44.72343" lon="-0.6214">
        <ele>47.72</ele>
        <time>2020-10-18T14:10:31Z</time>
      </trkpt>
      <trkpt lat="44.72345" lon="-0.62142">
        <ele>47.24</ele>
        <time>2020-10-18T14:10:52Z</time>
      </trkpt>
      <trkpt lat="44.72345" lon="-0.62142">
        <ele>47.72</ele>
        <time>2020-10-18T14:11:16Z</time>
      </trkpt>
      <trkpt lat="44.72344" lon="-0.62141">
        <ele>46.76</ele>
        <time>2020-10-18T14:11:40Z</time>
      </trkpt>
      <trkpt lat="44.72344" lon="-0.62141">
        <ele>47.24</ele>
        <time>2020-10-18T14:11:59Z</time>
      </trkpt>
      <trkpt lat="44.72344" lon="-0.62141">
        <ele>46.76</ele>
        <time>2020-10-18T14:12:23Z</time>
      </trkpt>
      <trkpt lat="44.72345" lon="-0.62139">
        <ele>47.24</ele>
        <time>2020-10-18T14:12:43Z</time>
      </trkpt>
      <trkpt lat="44.72346" lon="-0.62138">
        <ele>47.24</ele>
        <time>2020-10-18T14:12:58Z</time>
      </trkpt>
      <trkpt lat="44.72347" lon="-0.62139">
        <ele>47.24</ele>
        <time>2020-10-18T14:13:15Z</time>
      </trkpt>
      <trkpt lat="44.72347" lon="-0.62139">
        <ele>47.24</ele>
        <time>2020-10-18T14:13:33Z</time>
      </trkpt>
    </trkseg>
  </trk>
</gpx>